Provisional Data: Susquehanna River near Danville, PA


Please select a monitoring station.
Please select start date.
Please select start date.

Toggle Unit: C/F Toggle Unit: C/F
Sample Time Temperature (C) Temperature (F) Specific Conductivity (mS/cm) pH   Turbidity (NTU+) DO (mg/L)
12/4/2020 12:00:00 AM 25.85 78.53 0 6.95 -4.5 0
12/4/2020 12:15:00 AM 25.23889 77.43 0 6.95 -4.9 0
12/4/2020 12:30:00 AM 26.62222 79.92 0 6.95 -4.5 0
12/4/2020 12:45:00 AM 16.82778 62.29 -1 6.69 -5 0
12/4/2020 1:00:00 AM 23.25556 73.86 -1 6.89 -5.4 0
12/4/2020 1:15:00 AM 24.65 76.37 -1 6.94 -5.5 0
12/4/2020 1:30:00 AM 23.13333 73.64 -1 6.99 -5.3 0
12/4/2020 1:45:00 AM 22.49444 72.49 -1 7 -5.2 0
12/4/2020 2:00:00 AM 21.42222 70.56 -1 7 -5.2 0
12/4/2020 2:15:00 AM 21.23333 70.22 -1 7 -5.2 0
12/4/2020 2:30:00 AM 21.32222 70.38 -1 7 -5.2 0
12/4/2020 2:45:00 AM 21.25556 70.26 -1 7 -5.2 0
12/4/2020 3:00:00 AM 21.9 71.42 -1 7 -5.3 0
12/4/2020 3:15:00 AM 21.05 69.89 -1 6.99 -5.2 0
12/4/2020 3:30:00 AM 20.67222 69.21 -1 6.99 -5.2 0
12/4/2020 3:45:00 AM 20.6 69.08 -1 6.99 -5.2 0
12/4/2020 4:00:00 AM 20.82778 69.49 -1 6.99 -5.2 0
12/4/2020 4:15:00 AM 21.26111 70.27 -1 6.99 -5.2 0
12/4/2020 4:30:00 AM 20.82223 69.48 -1 6.99 -5.2 0
12/4/2020 4:45:00 AM 21.23333 70.22 -1 6.99 -5.2 0
12/4/2020 5:00:00 AM 21.23889 70.23 -1 6.99 -5.2 0
12/4/2020 5:15:00 AM 20.78333 69.41 -1 6.99 -5.2 0
12/4/2020 5:30:00 AM 21.06111 69.91 -1 6.99 -5.2 0
12/4/2020 5:45:00 AM 24.73333 76.52 -1 6.94 -3.6 0
12/4/2020 6:00:00 AM 25.88333 78.59 -1 6.9 -5.4 0
12/4/2020 6:15:00 AM 25.41111 77.74 -1 6.9 -4.6 0
12/4/2020 6:30:00 AM 24.83889 76.71 -1 6.96 -5.4 0
12/4/2020 6:45:00 AM 23.20555 73.77 -1 6.98 -5.3 0
12/4/2020 7:00:00 AM 21.97778 71.56 -1 6.99 -5.3 0
12/4/2020 7:15:00 AM 20.44445 68.8 -1 6.99 -5.2 0
12/4/2020 7:30:00 AM 21.08889 69.96 -1 7 -5.2 0
12/4/2020 7:45:00 AM 24.26111 75.67 -1 6.97 -4.6 0
12/4/2020 8:00:00 AM 22.58333 72.65 -1 7 -5.3 0
12/4/2020 8:15:00 AM 22.04444 71.68 -1 7 -5.2 0
12/4/2020 8:30:00 AM 22.27778 72.1 -1 7 -5.3 0
12/4/2020 8:45:00 AM 22.47222 72.45 -1 7 -5.3 0
12/4/2020 9:00:00 AM 22.64445 72.76 -1 7 -5.3 0
12/4/2020 9:15:00 AM 22.79444 73.03 -1 7.01 -5.3 0
12/4/2020 9:30:00 AM 23.15 73.67 -1 7.01 -5.3 0
12/4/2020 9:45:00 AM 23.3 73.94 -1 7.01 -5.3 0
12/4/2020 10:00:00 AM 23.44444 74.2 -1 7.02 -5.3 0
12/4/2020 10:15:00 AM 23.24444 73.84 -1 7.02 -5.3 0
12/4/2020 10:30:00 AM 23.62778 74.53 -1 7.01 -5.3 0
12/4/2020 10:45:00 AM 23.43889 74.19 -1 7.01 -5.3 0
12/4/2020 11:00:00 AM 22.61666 72.71 -1 7 -5.3 0
12/4/2020 11:15:00 AM 22.42222 72.36 -1 7 -5.3 0
12/4/2020 11:30:00 AM 25.26111 77.47 0 7.05 -4.2 0
12/4/2020 11:45:00 AM 23.98333 75.17 -1 7.02 -5.3 0
12/4/2020 12:00:00 PM 22.67222 72.81 -1 7 -5.3 0
12/4/2020 12:15:00 PM 22.27778 72.1 -1 7 -5.3 0
12/4/2020 12:30:00 PM 23.02222 73.44 -1 7 -5.3 0
12/4/2020 12:45:00 PM 22.77222 72.99 -1 7 -5.3 0
12/4/2020 1:00:00 PM 21.65556 70.98 -1 7.01 -5.2 0
12/4/2020 1:15:00 PM 24.17777 75.52 -1 7.02 -5.4 0
12/4/2020 1:30:00 PM 24.26667 75.68 -1 7.03 -5.4 0
12/4/2020 1:45:00 PM 23.7 74.66 -1 7.01 -5.3 0
12/4/2020 2:00:00 PM 23.20555 73.77 -1 7.01 -5.3 0
12/4/2020 2:15:00 PM 22.21667 71.99 -1 7 -5.3 0
12/4/2020 2:30:00 PM 22.22222 72 -1 7 -5.3 0
12/4/2020 2:45:00 PM 21.85 71.33 -1 7 -5.3 0
12/4/2020 3:00:00 PM 21.91666 71.45 -1 7 -5.3 0
12/4/2020 3:15:00 PM 21.72222 71.1 -1 5.89 -4.1 0
12/4/2020 3:30:00 PM 23.44444 74.2 -1 7.82 -5.3 0
12/4/2020 3:45:00 PM 24.03333 75.26 -1 8.84 -3.9 0
12/4/2020 4:00:00 PM 23.9 75.02 0 7.15 -3.4 0
12/4/2020 4:15:00 PM 21.83334 71.3 -1 7.05 -3.6 0
12/4/2020 4:30:00 PM 22.04444 71.68 -1 8.18 -4.8 0
12/4/2020 4:45:00 PM 22.76667 72.98 -1 7.12 -5.3 0
12/4/2020 5:00:00 PM 20.60555 69.09 -1 6.99 -5.2 0
12/4/2020 5:15:00 PM 20.78889 69.42 -1 6.99 -5.2 0
12/4/2020 5:30:00 PM 20.70555 69.27 -1 6.99 -5.2 0
12/4/2020 5:45:00 PM 20.93333 69.68 -1 6.99 -5.2 0
12/4/2020 6:00:00 PM 20.53889 68.97 -1 6.99 -5.2 0
12/4/2020 6:15:00 PM 21.08889 69.96 -1 6.99 -5.2 0
12/4/2020 6:30:00 PM 23.47778 74.26 -1 7.01 -5.3 0
12/4/2020 6:45:00 PM 24.53889 76.17 -1 7.02 -5.3 0
12/4/2020 7:00:00 PM 22.35 72.23 -1 7 -5.3 0
12/4/2020 7:15:00 PM 21.45 70.61 -1 6.99 -5.3 0
12/4/2020 7:30:00 PM 21.25 70.25 -1 6.99 -5.2 0
12/4/2020 7:45:00 PM 20.75 69.35 -1 6.99 -5.2 0
12/4/2020 8:00:00 PM 37.77222 99.99 0 7 -999.9 0
12/4/2020 8:15:00 PM 21.05556 69.9 -1 7 -5.2 0
12/4/2020 8:30:00 PM 37.77222 99.99 0 7 -999.9 0
12/4/2020 8:45:00 PM 21.27778 70.3 -1 6.99 -5.2 0
12/4/2020 9:00:00 PM 37.77222 99.99 0 7 -999.9 0
12/4/2020 9:15:00 PM 20.57778 69.04 -1 6.99 -5.2 0
12/4/2020 9:30:00 PM 20.33889 68.61 -1 6.99 -5.2 0
12/4/2020 9:45:00 PM 20.56666 69.02 -1 6.99 -5.2 0
12/4/2020 10:00:00 PM 20.73333 69.32 -1 6.99 -5.2 0
12/4/2020 10:15:00 PM 20.33333 68.6 -1 6.99 -5.2 0
12/4/2020 10:30:00 PM 20.38334 68.69 -1 6.99 -5.2 0
12/4/2020 10:45:00 PM 20.97222 69.75 -1 6.99 -5.2 0
12/4/2020 11:00:00 PM 23.72778 74.71 -1 6.98 -5.3 0
12/4/2020 11:15:00 PM 24.47222 76.05 -1 6.98 -4.6 0
12/4/2020 11:30:00 PM 37.77222 99.99 0 7 -999.9 0
12/4/2020 11:45:00 PM 30.32778 86.59 0 7.45 -2.4 0
12/5/2020 12:00:00 AM 37.77222 99.99 0 7 -999.9 0
12/5/2020 12:15:00 AM 22.46667 72.44 -1 6.98 -5.3 0
12/5/2020 12:30:00 AM 19.92222 67.86 -1 6.99 -5.2 0
12/5/2020 12:45:00 AM 20.51111 68.92 -1 6.99 -5.2 0
12/5/2020 1:00:00 AM 20.46111 68.83 -1 6.99 -5.2 0
12/5/2020 1:15:00 AM 20.28889 68.52 -1 6.99 -5.2 0
12/5/2020 1:30:00 AM 20.18889 68.34 -1 6.99 -5.1 0
12/5/2020 1:45:00 AM 20.2 68.36 -1 6.99 -5.2 0
12/5/2020 2:00:00 AM 20.53889 68.97 -1 6.99 -5.2 0
12/5/2020 2:15:00 AM 20.38334 68.69 -1 6.99 -5.2 0
12/5/2020 2:30:00 AM 22.25 72.05 -1 6.97 -5.3 0
12/5/2020 2:45:00 AM 20.12222 68.22 -1 6.99 -5.2 0
12/5/2020 3:00:00 AM 20.07222 68.13 -1 6.99 -5.2 0
12/5/2020 3:15:00 AM 20.21111 68.38 -1 6.99 -5.2 0
12/5/2020 3:30:00 AM 20.01111 68.02 -1 6.99 -5.2 0
12/5/2020 3:45:00 AM 21.52778 70.75 -1 6.98 -5.3 0
12/5/2020 4:00:00 AM 21.23889 70.23 -1 6.99 -5.2 0
12/5/2020 4:15:00 AM 20.70555 69.27 -1 6.99 -5.2 0
12/5/2020 4:30:00 AM 19.89444 67.81 -1 6.99 -5.1 0
12/5/2020 4:45:00 AM 20.66666 69.2 -1 6.99 -5.2 0
12/5/2020 5:00:00 AM 21.1 69.98 -1 6.99 -5.2 0
12/5/2020 5:15:00 AM 21.30556 70.35 -1 6.99 -5.2 0
12/5/2020 5:30:00 AM 37.77222 99.99 0 7 -999.9 0
12/5/2020 5:45:00 AM 37.77222 99.99 0 7 9999.9 0
12/5/2020 6:00:00 AM 37.77222 99.99 0 7 -999.9 0
12/5/2020 6:15:00 AM 37.77222 99.99 0 7 9999.9 0
12/5/2020 6:30:00 AM 37.77222 99.99 0 7 -999.9 0
12/5/2020 6:45:00 AM 37.77222 99.99 0 7 -999.9 0
12/5/2020 7:00:00 AM 37.77222 99.99 0 7 -999.9 0
12/5/2020 7:15:00 AM 27.33333 81.2 -1 7.44 -0.5 0
12/5/2020 7:30:00 AM 37.77222 99.99 0 7 -999.9 0
12/5/2020 7:45:00 AM 37.77222 99.99 0 7 -999.9 0
12/5/2020 8:00:00 AM 23.13333 73.64 -1 7.13 -1.7 0
12/5/2020 8:15:00 AM 37.77222 99.99 0 7 -999.9 0
12/5/2020 8:30:00 AM 37.77222 99.99 0 7 -999.9 0
12/5/2020 8:45:00 AM 37.77222 99.99 0 7 -999.9 0
12/5/2020 9:00:00 AM 37.77222 99.99 0 7 -999.9 0
12/5/2020 9:15:00 AM 25.03889 77.07 -1 6.99 -4.7 0
12/5/2020 9:30:00 AM 30.43889 86.79 0 6.99 -1.7 0
12/5/2020 9:45:00 AM 30.55556 87 0 6.87 -1.8 0
12/5/2020 10:00:00 AM 22.71667 72.89 -1 6.99 -5.3 0
12/5/2020 10:15:00 AM 21.26111 70.27 -1 7 -5.2 0
12/5/2020 10:30:00 AM 21.22778 70.21 -1 6.99 -5.2 0
12/5/2020 10:45:00 AM 21.21111 70.18 -1 6.99 -5.2 0
12/5/2020 11:00:00 AM 21.76111 71.17 -1 7 -5.2 0
12/5/2020 11:15:00 AM 22.37778 72.28 -1 7 -5.2 0
12/5/2020 11:30:00 AM 21.58889 70.86 -1 7 -5.2 0
12/5/2020 11:45:00 AM 20.74444 69.34 -1 6.99 -5.2 0
12/5/2020 12:00:00 PM 20.6 69.08 -1 6.99 -5.2 0
12/5/2020 12:15:00 PM 20.6 69.08 -1 6.99 -5.2 0
12/5/2020 12:30:00 PM 20.37778 68.68 -1 6.99 -5.2 0
12/5/2020 12:45:00 PM 20.78889 69.42 -1 6.99 -5.2 0
12/5/2020 1:00:00 PM 21.27778 70.3 -1 7 -5.2 0
12/5/2020 1:15:00 PM 20.61111 69.1 -1 6.99 -5.2 0
12/5/2020 1:30:00 PM 21.28333 70.31 -1 6.99 -5.2 0
12/5/2020 1:45:00 PM 20.56666 69.02 -1 6.99 -5.2 0
12/5/2020 2:00:00 PM 20.45556 68.82 -1 6.99 -5.2 0
12/5/2020 2:15:00 PM 20.50556 68.91 -1 6.99 -5.2 0
12/5/2020 2:30:00 PM 20.58889 69.06 -1 6.99 -5.2 0
12/5/2020 2:45:00 PM 20.33333 68.6 -1 6.99 -5.2 0
12/5/2020 3:00:00 PM 20.39444 68.71 -1 6.99 -5.2 0
12/5/2020 3:15:00 PM 20.25555 68.46 -1 6.99 -5.1 0
12/5/2020 3:30:00 PM 20.13889 68.25 -1 6.99 -5.2 0
12/5/2020 3:45:00 PM 21.16667 70.1 -1 6.99 -5.2 0
12/5/2020 4:00:00 PM 20.36111 68.65 -1 6.99 -5.2 0
12/5/2020 4:15:00 PM 20.50556 68.91 -1 6.99 -5.2 0
12/5/2020 4:30:00 PM 20.26667 68.48 -1 6.99 -5.2 0
12/5/2020 4:45:00 PM 20.60555 69.09 -1 6.99 -5.2 0
12/5/2020 5:00:00 PM 20.46111 68.83 -1 6.99 -5.2 0
12/5/2020 5:15:00 PM 20.65556 69.18 -1 6.99 -5.2 0
12/5/2020 5:30:00 PM 21.25556 70.26 -1 6.99 -5.2 0
12/5/2020 5:45:00 PM 22.17778 71.92 -1 6.98 -5.2 0
12/5/2020 6:00:00 PM 19.94444 67.9 -1 6.99 -5.1 0
12/5/2020 6:15:00 PM 20.32222 68.58 -1 6.99 -5.2 0
12/5/2020 6:30:00 PM 20.26667 68.48 -1 6.99 -5.2 0
12/5/2020 6:45:00 PM 19.52778 67.15 -1 6.99 -5.1 0
12/5/2020 7:00:00 PM 19.75555 67.56 -1 6.99 -5.2 0
12/5/2020 7:15:00 PM 20.35 68.63 -1 6.99 -5.2 0
12/5/2020 7:30:00 PM 20.40556 68.73 -1 6.99 -5.2 0
12/5/2020 7:45:00 PM 20.29444 68.53 -1 6.99 -5.2 0
12/5/2020 8:00:00 PM 20.17222 68.31 -1 6.99 -5.2 0
12/5/2020 8:15:00 PM 20.18333 68.33 -1 6.99 -5.2 0
12/5/2020 8:30:00 PM 20.14445 68.26 -1 6.99 -5.1 0
12/5/2020 8:45:00 PM 20.9 69.62 -1 6.99 -5.2 0
12/5/2020 9:00:00 PM 20.17778 68.32 -1 6.99 -5.2 0
12/5/2020 9:15:00 PM 20.2 68.36 -1 6.99 -5.2 0
12/5/2020 9:30:00 PM 20.72778 69.31 -1 6.99 -5.2 0
12/5/2020 9:45:00 PM 20.21111 68.38 -1 6.99 -5.2 0
12/5/2020 10:00:00 PM 20.48333 68.87 -1 6.99 -5.2 0
12/5/2020 10:15:00 PM 20.19444 68.35 -1 6.99 -5.2 0
12/5/2020 10:30:00 PM 20.12222 68.22 -1 6.99 -5.2 0
12/5/2020 10:45:00 PM 20.57222 69.03 -1 6.99 -5.2 0
12/5/2020 11:00:00 PM 20.30556 68.55 -1 6.99 -5.2 0
12/5/2020 11:15:00 PM 20.39444 68.71 -1 6.99 -5.2 0
12/5/2020 11:30:00 PM 19.83889 67.71 -1 6.99 -5.1 0
12/5/2020 11:45:00 PM 19.92778 67.87 -1 6.99 -5.2 0
12/6/2020 12:00:00 AM 19.41666 66.95 -1 6.99 -5.1 0
12/6/2020 12:15:00 AM 19.33334 66.8 -1 6.99 -5.1 0
12/6/2020 12:30:00 AM 19.83889 67.71 -1 6.99 -5.2 0
12/6/2020 12:45:00 AM 19.82778 67.69 -1 6.99 -5.2 0
12/6/2020 1:00:00 AM 20.45 68.81 -1 6.99 -5.2 0
12/6/2020 1:15:00 AM 19.50556 67.11 -1 6.99 -5.2 0
12/6/2020 1:30:00 AM 19.45555 67.02 -1 6.99 -5.2 0
12/6/2020 1:45:00 AM 19.56667 67.22 -1 6.99 -5.1 0
12/6/2020 2:00:00 AM 19.56111 67.21 -1 6.99 -5.2 0
12/6/2020 2:15:00 AM 19.35555 66.84 -1 6.99 -5.1 0
12/6/2020 2:30:00 AM 19.43889 66.99 -1 6.99 -5.2 0
12/6/2020 2:45:00 AM 19.37222 66.87 -1 6.99 -5.2 0
12/6/2020 3:00:00 AM 19.51667 67.13 -1 6.99 -5.1 0
12/6/2020 3:15:00 AM 19.45 67.01 -1 6.99 -5.1 0
12/6/2020 3:30:00 AM 19.51111 67.12 -1 6.98 -5.1 0
12/6/2020 3:45:00 AM 19.37778 66.88 -1 6.98 -5.1 0
12/6/2020 4:00:00 AM 19.36667 66.86 -1 6.99 -5.1 0
12/6/2020 4:15:00 AM 19.33889 66.81 -1 6.99 -5.1 0
12/6/2020 4:30:00 AM 19.30556 66.75 -1 6.99 -5.1 0
12/6/2020 4:45:00 AM 19.33889 66.81 -1 6.99 -5.1 0
12/6/2020 5:00:00 AM 19.29445 66.73 -1 6.99 -5.1 0
12/6/2020 5:15:00 AM 19.36667 66.86 -1 6.99 -5.1 0
12/6/2020 5:30:00 AM 19.30556 66.75 -1 6.99 -5.1 0
12/6/2020 5:45:00 AM 19.33889 66.81 -1 6.99 -5.1 0
12/6/2020 6:00:00 AM 19.45 67.01 -1 6.99 -5.2 0
12/6/2020 6:15:00 AM 20.17778 68.32 -1 6.98 -5.2 0
12/6/2020 6:30:00 AM 20.05556 68.1 -1 6.99 -5.2 0
12/6/2020 6:45:00 AM 19.89444 67.81 -1 6.99 -5.1 0
12/6/2020 7:00:00 AM 21.29445 70.33 -1 6.99 -5.2 0
12/6/2020 7:15:00 AM 21.90556 71.43 -1 7 -5.2 0
12/6/2020 7:30:00 AM 22.20556 71.97 -1 7.01 -5.3 0
12/6/2020 7:45:00 AM 22.80556 73.05 -1 7.02 -5.3 0
12/6/2020 8:00:00 AM 22.88334 73.19 -1 7.03 -5.3 0
12/6/2020 8:15:00 AM 22.86111 73.15 -1 7.03 -5.3 0
12/6/2020 8:30:00 AM 23.28889 73.92 -1 7.03 -5.3 0
12/6/2020 8:45:00 AM 23.03333 73.46 -1 7.02 -5.3 0
12/6/2020 9:00:00 AM 22.96667 73.34 -1 7.04 -5.3 0
12/6/2020 9:15:00 AM 23.15 73.67 -1 7.04 -5.4 0
12/6/2020 9:30:00 AM 23.03889 73.47 -1 7.04 -5.3 0
12/6/2020 9:45:00 AM 23.15 73.67 -1 7.04 -5.4 0
12/6/2020 10:00:00 AM 23.13889 73.65 -1 7.04 -5.4 0
12/6/2020 10:15:00 AM 23.17778 73.72 -1 7.04 -5.4 0
12/6/2020 10:30:00 AM 23.17222 73.71 -1 7.04 -5.3 0
12/6/2020 10:45:00 AM 24.62778 76.33 -1 7.09 -3.8 0
12/6/2020 11:00:00 AM 23.38333 74.09 -1 7.04 -6.1 0
12/6/2020 11:15:00 AM 23.13333 73.64 -1 7.03 -5.3 0
12/6/2020 11:30:00 AM 23.36111 74.05 -1 7.03 -5.3 0
12/6/2020 11:45:00 AM 23.08889 73.56 -1 7.02 -5.3 0
12/6/2020 12:00:00 PM 22.81667 73.07 -1 7.02 -5.3 0
12/6/2020 12:15:00 PM 23.00556 73.41 -1 7.03 -5.3 0
12/6/2020 12:30:00 PM 22.71667 72.89 -1 7.01 -5.3 0
12/6/2020 12:45:00 PM 22.15556 71.88 -1 7.01 -5.3 0
12/6/2020 1:00:00 PM 22.13333 71.84 -1 7 -5.2 0
12/6/2020 1:15:00 PM 22.05555 71.7 -1 7 -5.2 0
12/6/2020 1:30:00 PM 21.98889 71.58 -1 7 -5.2 0
12/6/2020 1:45:00 PM 22.22222 72 -1 7 -5.3 0
12/6/2020 2:00:00 PM 21.84444 71.32 -1 7 -5.3 0
12/6/2020 2:15:00 PM 21.89445 71.41 -1 7 -5.2 0
12/6/2020 2:30:00 PM 21.79445 71.23 -1 7 -5.3 0
12/6/2020 2:45:00 PM 21.82222 71.28 -1 7 -5.2 0
12/6/2020 3:00:00 PM 21.81111 71.26 -1 7 -5.2 0
12/6/2020 3:15:00 PM 21.71667 71.09 -1 7 -5.2 0
12/6/2020 3:30:00 PM 21.67222 71.01 -1 7 -5.2 0
12/6/2020 3:45:00 PM 22 71.6 -1 7 -5.2 0
12/6/2020 4:00:00 PM 21.63889 70.95 -1 7 -5.3 0
12/6/2020 4:15:00 PM 21.63889 70.95 -1 7 -5.2 0
12/6/2020 4:30:00 PM 21.43333 70.58 -1 7 -5.2 0
12/6/2020 4:45:00 PM 21.48889 70.68 -1 7 -5.2 0
12/6/2020 5:00:00 PM 21.57222 70.83 -1 7 -5.2 0
12/6/2020 5:15:00 PM 21.50555 70.71 -1 7 -5.2 0
12/6/2020 5:30:00 PM 21.5 70.7 -1 7 -5.2 0
12/6/2020 5:45:00 PM 21.79445 71.23 -1 7 -5.2 0
12/6/2020 6:00:00 PM 21.56111 70.81 -1 7 -5.2 0
12/6/2020 6:15:00 PM 21.35556 70.44 -1 7 -5.2 0
12/6/2020 6:30:00 PM 21.32778 70.39 -1 7 -5.2 0
12/6/2020 6:45:00 PM 21.37222 70.47 -1 7 -5.2 0
12/6/2020 7:00:00 PM 21.31667 70.37 -1 7 -5.2 0
12/6/2020 7:15:00 PM 21.54444 70.78 -1 7 -5.2 0
12/6/2020 7:30:00 PM 21.45556 70.62 -1 7 -5.2 0
12/6/2020 7:45:00 PM 21.65 70.97 -1 7 -5.2 0
12/6/2020 8:00:00 PM 21.32778 70.39 -1 7 -5.2 0
12/6/2020 8:15:00 PM 21.38333 70.49 -1 7 -5.2 0
12/6/2020 8:30:00 PM 21.22222 70.2 -1 7 -5.2 0
12/6/2020 8:45:00 PM 21.23889 70.23 -1 7 -5.2 0
12/6/2020 9:00:00 PM 21.2 70.16 -1 7 -5.2 0
12/6/2020 9:15:00 PM 21.24444 70.24 -1 7 -5.2 0
12/6/2020 9:30:00 PM 21.20555 70.17 -1 7 -5.2 0
12/6/2020 9:45:00 PM 20.68334 69.23 -1 7 -5.2 0
12/6/2020 10:00:00 PM 20.85 69.53 -1 6.99 -5.2 0
12/6/2020 10:15:00 PM 20.79444 69.43 -1 6.99 -5.2 0
12/6/2020 10:30:00 PM 21.51111 70.72 -1 7 -5.2 0
12/6/2020 10:45:00 PM 23.63334 74.54 -1 7 -5.3 0
12/6/2020 11:00:00 PM 23.08889 73.56 -1 7.02 -5.3 0
12/6/2020 11:15:00 PM 21.53333 70.76 -1 7 -5.2 0
12/6/2020 11:30:00 PM 21.56667 70.82 -1 7 -5.2 0
12/6/2020 11:45:00 PM 21.28333 70.31 -1 7 -5.2 0
12/7/2020 12:00:00 AM 21.31667 70.37 -1 7 -5.2 0
12/7/2020 12:15:00 AM 20.97778 69.76 -1 7 -5.2 0
12/7/2020 12:30:00 AM 21.11667 70.01 -1 7 -5.2 0
12/7/2020 12:45:00 AM 21.26667 70.28 -1 7 -5.2 0
12/7/2020 1:00:00 AM 21.12778 70.03 -1 7 -5.2 0
12/7/2020 1:15:00 AM 20.48333 68.87 -1 6.99 -5.2 0
12/7/2020 1:30:00 AM 20.81111 69.46 -1 6.99 -5.2 0
12/7/2020 1:45:00 AM 21.53333 70.76 -1 7 -5.2 0
12/7/2020 2:00:00 AM 20.57778 69.04 -1 6.99 -5.2 0
12/7/2020 2:15:00 AM 20.48889 68.88 -1 6.99 -5.2 0
12/7/2020 2:30:00 AM 20.63889 69.15 -1 6.99 -5.2 0
12/7/2020 2:45:00 AM 20.25555 68.46 -1 6.99 -5.2 0
12/7/2020 3:00:00 AM 20.13333 68.24 -1 6.99 -5.2 0
12/7/2020 3:15:00 AM 20.17222 68.31 -1 6.99 -5.2 0
12/7/2020 3:30:00 AM 20.18333 68.33 -1 6.99 -5.2 0
12/7/2020 3:45:00 AM 20.13333 68.24 -1 6.99 -5.2 0
12/7/2020 4:00:00 AM 19.79444 67.63 -1 6.99 -5.2 0
12/7/2020 4:15:00 AM 20.17222 68.31 -1 6.99 -5.2 0
12/7/2020 4:30:00 AM 20.21111 68.38 -1 6.99 -5.2 0
12/7/2020 4:45:00 AM 20.11666 68.21 -1 6.99 -5.2 0
12/7/2020 5:00:00 AM 19.97778 67.96 -1 6.99 -5.2 0
12/7/2020 5:15:00 AM 19.42222 66.96 -1 6.99 -5.2 0
12/7/2020 5:30:00 AM 19.91667 67.85 -1 6.99 -5.1 0
12/7/2020 5:45:00 AM 19.91667 67.85 -1 6.99 -5.1 0
12/7/2020 6:00:00 AM 20.12778 68.23 -1 6.99 -5.2 0
12/7/2020 6:15:00 AM 19.62778 67.33 -1 6.99 -5.2 0
12/7/2020 6:30:00 AM 19.58333 67.25 -1 6.99 -5.1 0
12/7/2020 6:45:00 AM 19.57778 67.24 -1 6.99 -5.2 0
12/7/2020 7:00:00 AM 19.51667 67.13 -1 6.99 -5.1 0
12/7/2020 7:15:00 AM 19.32222 66.78 -1 6.99 -5.2 0
12/7/2020 7:30:00 AM 20 68 -1 6.99 -5.2 0
12/7/2020 7:45:00 AM 21.3 70.34 -1 7 -5.2 0
12/7/2020 8:00:00 AM 22.43889 72.39 -1 7.03 -5.3 0
12/7/2020 8:15:00 AM 23.49445 74.29 -1 7.07 -4.7 0
12/7/2020 8:30:00 AM 24.34444 75.82 0 7.11 -3.9 0
12/7/2020 8:45:00 AM 25.25555 77.46 0 7.15 -4.5 0
12/7/2020 9:00:00 AM 25.66666 78.2 0 7.17 -4 0
12/7/2020 9:15:00 AM 26.29445 79.33 0 7.19 -5.4 0
12/7/2020 9:30:00 AM 27.21667 80.99 0 7.21 -4.9 0
12/7/2020 9:45:00 AM 27.21111 80.98 0 7.2 -4.7 0
12/7/2020 10:00:00 AM 27.28889 81.12 0 7.19 -3.4 0
12/7/2020 10:15:00 AM 27.27222 81.09 0 7.21 -4.8 0
12/7/2020 10:30:00 AM 27.28333 81.11 0 7.23 -3.4 0
12/7/2020 10:45:00 AM 27.26111 81.07 0 7.21 -6 0
12/7/2020 11:00:00 AM 27.28333 81.11 0 7.22 -4.5 0
12/7/2020 11:15:00 AM 27.27222 81.09 -1 7.2 -3.8 0
12/7/2020 11:30:00 AM 27.28333 81.11 0 7.21 -4.8 0
12/7/2020 11:45:00 AM 28.63889 83.55 0 7.24 -0.6 0
12/7/2020 12:00:00 PM 27.27778 81.1 0 7.21 -4.4 0
12/7/2020 12:15:00 PM 28.62778 83.53 0 7.16 -5.2 0
12/7/2020 12:30:00 PM 27.3 81.14 0 7.21 -4.6 0
12/7/2020 12:45:00 PM 27.25555 81.06 0 7.19 -5.4 0
12/7/2020 1:00:00 PM 27.27778 81.1 0 7.2 -4.5 0
12/7/2020 1:15:00 PM 26.91666 80.45 0 7.2 -5.1 0
12/7/2020 1:30:00 PM 25.68889 78.24 0 7.18 -4.9 0
12/7/2020 1:45:00 PM 25.96667 78.74 0 7.2 -3.5 0
12/7/2020 2:00:00 PM 25.59444 78.07 0 7.19 -3 0
12/7/2020 2:15:00 PM 25.4 77.72 0 7.19 -4.2 0
12/7/2020 2:30:00 PM 24.92778 76.87 0 7.18 -5.2 0
12/7/2020 2:45:00 PM 24.85 76.73 0 7.18 -4 0
12/7/2020 3:00:00 PM 25.29444 77.53 0 7.19 -5.1 0
12/7/2020 3:15:00 PM 25.01667 77.03 0 7.19 -4.8 0
12/7/2020 3:30:00 PM 25.03889 77.07 0 7.18 -4.5 0
12/7/2020 3:45:00 PM 25.26667 77.48 0 7.19 -3.7 0
12/7/2020 4:00:00 PM 25.25555 77.46 0 7.18 -4.7 0
12/7/2020 4:15:00 PM 25.57778 78.04 0 7.19 -3.7 0
12/7/2020 4:30:00 PM 24.72222 76.5 0 7.18 -3.5 0
12/7/2020 4:45:00 PM 25.47778 77.86 0 7.19 -5 0
12/7/2020 5:00:00 PM 25.30556 77.55 0 7.19 -5.3 0
12/7/2020 5:15:00 PM 25.23333 77.42 0 7.19 -5.1 0
12/7/2020 5:30:00 PM 25.41667 77.75 0 7.18 -4.4 0
12/7/2020 5:45:00 PM 24.75 76.55 0 7.16 -4.9 0
12/7/2020 6:00:00 PM 24.78889 76.62 0 7.16 -4.9 0
12/7/2020 6:15:00 PM 25.15556 77.28 0 7.18 -6.2 0
12/7/2020 6:30:00 PM 25.05 77.09 0 7.18 -4.9 0
12/7/2020 6:45:00 PM 25.75556 78.36 0 7.18 -4.5 0
12/7/2020 7:00:00 PM 24.88889 76.8 0 7.17 -2.5 0
12/7/2020 7:15:00 PM 24.86111 76.75 0 7.17 -3.4 0
12/7/2020 7:30:00 PM 25.05 77.09 0 7.16 -5.6 0
12/7/2020 7:45:00 PM 24.9 76.82 0 7.17 -4.1 0
12/7/2020 8:00:00 PM 26.06111 78.91 0 7.18 -3.6 0
12/7/2020 8:15:00 PM 24.92222 76.86 0 7.17 -5.5 0
12/7/2020 8:30:00 PM 24.88334 76.79 -1 7.24 -4.6 0
12/7/2020 8:45:00 PM 25.51667 77.93 0 7.18 -4.7 0
12/7/2020 9:00:00 PM 17.12222 62.82 -1 6.83 -5 0
12/7/2020 9:15:00 PM 22.62778 72.73 -1 7.04 -5.3 0
12/7/2020 9:30:00 PM 24.08889 75.36 -1 7.13 -5 0
12/7/2020 9:45:00 PM 24.40556 75.93 0 7.13 -5.2 0
12/7/2020 10:00:00 PM 24.42222 75.96 0 7.15 -4.5 0
12/7/2020 10:15:00 PM 25.03333 77.06 0 7.17 -4.4 0
12/7/2020 10:30:00 PM 25.32222 77.58 0 7.17 -4.9 0
12/7/2020 10:45:00 PM 25.57778 78.04 0 7.18 -3.7 0
12/7/2020 11:00:00 PM 24.81667 76.67 0 7.15 -4.7 0
12/7/2020 11:15:00 PM 24.36667 75.86 -1 7.18 -4.4 0
12/7/2020 11:30:00 PM 24.52222 76.14 0 7.2 -5.3 0
12/7/2020 11:45:00 PM 24.94444 76.9 0 7.17 -5 0
12/8/2020 12:00:00 AM 24.86111 76.75 0 7.17 -4 0
12/8/2020 12:15:00 AM 24.39445 75.91 0 7.14 -4.2 0
12/8/2020 12:30:00 AM 24.68889 76.44 0 7.15 -3.8 0
12/8/2020 12:45:00 AM 24.7 76.46 -1 7.22 -4.5 0
12/8/2020 1:00:00 AM 25.40556 77.73 0 7.18 -4.6 0
12/8/2020 1:15:00 AM 25.28889 77.52 0 7.18 -5 0
12/8/2020 1:30:00 AM 24.72778 76.51 0 7.14 -4.3 0
12/8/2020 1:45:00 AM 24.81667 76.67 0 7.17 -4.6 0
12/8/2020 2:00:00 AM 25.70555 78.27 0 7.18 -5.2 0
12/8/2020 2:15:00 AM 24.63889 76.35 0 7.14 -4.6 0
12/8/2020 2:30:00 AM 25.04445 77.08 0 7.18 -4.1 0
12/8/2020 2:45:00 AM 24.13334 75.44 0 7.17 -4.7 0
12/8/2020 3:00:00 AM 24.96111 76.93 0 7.13 -5.4 0
12/8/2020 3:15:00 AM 24.88334 76.79 0 7.16 -4.1 0
12/8/2020 3:30:00 AM 24.91667 76.85 0 7.17 -4.2 0
12/8/2020 3:45:00 AM 25.19444 77.35 0 7.18 -5.1 0
12/8/2020 4:00:00 AM 24.8 76.64 0 7.16 -5.1 0
12/8/2020 4:15:00 AM 24.93333 76.88 0 7.14 -5.7 0
12/8/2020 4:30:00 AM 24.41666 75.95 0 7.16 -4.7 0
12/8/2020 4:45:00 AM 24.19445 75.55 -1 7.14 -5.1 0
12/8/2020 5:00:00 AM 24.77222 76.59 0 7.15 -4.7 0
12/8/2020 5:15:00 AM 24.45 76.01 -1 7.11 -4 0
12/8/2020 5:30:00 AM 25.75 78.35 -1 7.08 -4.4 0
12/8/2020 5:45:00 AM 24.43889 75.99 0 7.12 -5.2 0
12/8/2020 6:00:00 AM 23.48333 74.27 -1 7.1 -4.5 0
12/8/2020 6:15:00 AM 24.25556 75.66 -1 7.11 -4.8 0
12/8/2020 6:30:00 AM 24.23889 75.63 -1 7.12 -4.6 0
12/8/2020 6:45:00 AM 24.20556 75.57 -1 7.11 -3.9 0
12/8/2020 7:00:00 AM 24.4 75.92 -1 7.09 -4.3 0
12/8/2020 7:15:00 AM 23.66667 74.6 -1 7.06 -5 0
12/8/2020 7:30:00 AM 24.16667 75.5 0 7.13 -4.6 0
12/8/2020 7:45:00 AM 27.12222 80.82 0 7.18 -3.6 0
12/8/2020 8:00:00 AM 28.43889 83.19 0 7.26 -0.8 0
12/8/2020 8:15:00 AM 29.61111 85.3 0 7.22 -3.7 0
12/8/2020 8:30:00 AM 25.66111 78.19 -1 7.17 -1 0
12/8/2020 8:45:00 AM 25.97778 78.76 -1 7.21 -3.6 0
12/8/2020 9:00:00 AM 28.27222 82.89 0 7.25 -3.7 0
12/8/2020 9:15:00 AM 25.18889 77.34 -1 7.19 -3.9 0
12/8/2020 9:30:00 AM -23.32778 -9.99 0 7 9999.9 0
12/8/2020 9:45:00 AM 16.65 61.97 -1 7.11 -1.5 0
12/8/2020 10:00:00 AM -23.32778 -9.99 0 6.98 2.1 0
12/8/2020 10:15:00 AM 37.77222 99.99 0 7 -999.9 0
12/8/2020 10:30:00 AM -23.32778 -9.99 0 7 729.9 0
12/8/2020 10:45:00 AM -23.32778 -9.99 0 7 9999.9 0
12/8/2020 11:00:00 AM -10.62778 12.87 -8 7.25 -1.1 0
12/8/2020 11:15:00 AM -5.055555 22.9 -5 7.28 -1.6 0
12/8/2020 11:30:00 AM 17.76111 63.97 -1 7.24 -1.5 0
12/8/2020 11:45:00 AM 22.22222 72 -1 7.22 -2.6 0
12/8/2020 12:00:00 PM 19.24444 66.64 -1 7.26 -0.8 0
12/8/2020 12:15:00 PM 25.11666 77.21 -1 7.26 -1.7 0
12/8/2020 12:30:00 PM 24.58333 76.25 -1 7.25 -2.1 0
12/8/2020 12:45:00 PM 15.33889 59.61 -1 7.27 -2 0
12/8/2020 1:00:00 PM 26.09444 78.97 -1 7.24 -2.8 0
12/8/2020 1:15:00 PM 27.00556 80.61 0 7.24 0.9 0
12/8/2020 1:30:00 PM 30.38334 86.69 0 7.25 -0.2 0
12/8/2020 1:45:00 PM 29.63333 85.34 0 7.25 -3.7 0
12/8/2020 2:00:00 PM 29.58889 85.26 0 7.23 -3 0
12/8/2020 2:15:00 PM 29.6 85.28 0 7.26 -4.3 0
12/8/2020 2:30:00 PM 29.63889 85.35 0 7.26 -2.1 0
12/8/2020 2:45:00 PM 29.65 85.37 0 7.26 -4.3 0
12/8/2020 3:00:00 PM 29.74445 85.54 0 7.26 -5.4 0
12/8/2020 3:15:00 PM 29.77778 85.6 0 7.27 -5.2 0
12/8/2020 3:30:00 PM 29.66111 85.39 -1 7.26 -3.3 0
12/8/2020 3:45:00 PM 29.78889 85.62 0 7.27 -3.5 0
12/8/2020 4:00:00 PM 29.65556 85.38 0 7.25 -2.4 0
12/8/2020 4:15:00 PM 29.68333 85.43 0 7.26 -4 0
12/8/2020 4:30:00 PM 29.65 85.37 0 7.24 -3.4 0
12/8/2020 4:45:00 PM 29.63333 85.34 0 7.27 -4.5 0
12/8/2020 5:00:00 PM 29.62222 85.32 0 7.27 -4.6 0
12/8/2020 5:15:00 PM 29.70556 85.47 0 7.24 -4.3 0
12/8/2020 5:30:00 PM 29.65 85.37 0 7.27 -2.5 0
12/8/2020 5:45:00 PM 29.73333 85.52 -1 7.26 -3.7 0
12/8/2020 6:00:00 PM 29.68333 85.43 0 7.25 -3.1 0
12/8/2020 6:15:00 PM 28.9 84.02 -1 7.27 -4.3 0
12/8/2020 6:30:00 PM 29.68333 85.43 0 7.23 -2.4 0
12/8/2020 6:45:00 PM 28.96667 84.14 0 7.25 -3.7 0
12/8/2020 7:00:00 PM 28.86666 83.96 0 7.26 -2.6 0
12/8/2020 7:15:00 PM 29.23333 84.62 0 7.26 -3.4 0
12/8/2020 7:30:00 PM 28.94444 84.1 0 7.28 -3.7 0
12/8/2020 7:45:00 PM 29.34444 84.82 -1 7.26 -4.5 0
12/8/2020 8:00:00 PM 29.05 84.29 0 7.25 -3.2 0
12/8/2020 8:15:00 PM 29 84.2 0 7.28 -4.3 0
12/8/2020 8:30:00 PM 29.41111 84.94 0 7.28 -2.7 0
12/8/2020 8:45:00 PM 28.91111 84.04 0 7.27 -2.3 0
12/8/2020 9:00:00 PM 28.76111 83.77 0 7.27 -1.8 0
12/8/2020 9:15:00 PM 29.09444 84.37 0 7.28 -4.6 0
12/8/2020 9:30:00 PM 28.56666 83.42 0 7.28 -5.3 0
12/8/2020 9:45:00 PM 29.03333 84.26 0 7.26 -2.6 0
12/8/2020 10:00:00 PM 29.06667 84.32 0 7.27 -1.3 0
12/8/2020 10:15:00 PM 28.99445 84.19 0 7.26 -2.3 0
12/8/2020 10:30:00 PM 29.01111 84.22 0 7.27 -2.9 0
12/8/2020 10:45:00 PM 28.92222 84.06 0 7.27 -2.5 0
12/8/2020 11:00:00 PM 29.16111 84.49 0 7.27 -3.5 0
12/8/2020 11:15:00 PM 29.01667 84.23 0 7.28 -4.1 0
12/8/2020 11:30:00 PM 28.83333 83.9 0 7.27 -3 0
12/8/2020 11:45:00 PM 28.32778 82.99 0 7.27 -3.2 0
12/9/2020 12:00:00 AM 28.52222 83.34 0 7.26 -2.6 0
12/9/2020 12:15:00 AM 28.32778 82.99 0 7.25 -4.2 0
12/9/2020 12:30:00 AM 28.11667 82.61 0 7.25 -5.5 0
12/9/2020 12:45:00 AM 30.17778 86.32 0 7.26 -2.3 0
12/9/2020 1:00:00 AM 29.06667 84.32 -1 7.23 -2.9 0
12/9/2020 1:15:00 AM 30.20556 86.37 -1 7.23 -2.7 0
12/9/2020 1:30:00 AM 29.15556 84.48 0 7.27 -1.5 0
12/9/2020 1:45:00 AM 29.72778 85.51 0 7.27 -4.5 0
12/9/2020 2:00:00 AM 29.14444 84.46 0 7.25 -2.4 0
12/9/2020 2:15:00 AM 29.30556 84.75 0 7.28 -2.4 0
12/9/2020 2:30:00 AM 29.13889 84.45 0 7.28 -3 0
12/9/2020 2:45:00 AM 29.10556 84.39 0 7.28 -3.3 0
12/9/2020 3:00:00 AM 29.99444 85.99 0 7.29 -1.4 0
12/9/2020 3:15:00 AM 28.70555 83.67 0 7.29 -3.2 0
12/9/2020 3:30:00 AM 29.08889 84.36 0 7.29 -4 0
12/9/2020 3:45:00 AM 28.88889 84 0 7.26 -3.6 0
12/9/2020 4:00:00 AM 28.95556 84.12 0 7.26 -1.9 0
12/9/2020 4:15:00 AM 29.12778 84.43 0 7.27 -4.5 0
12/9/2020 4:30:00 AM 30.08333 86.15 0 7.23 -6.8 0
12/9/2020 4:45:00 AM 28.56111 83.41 0 7.25 -4.8 0
12/9/2020 5:00:00 AM 28.30555 82.95 0 7.25 -1.5 0
12/9/2020 5:15:00 AM 28.60555 83.49 0 7.23 -2.6 0
12/9/2020 5:30:00 AM 27.99444 82.39 0 7.22 -4.1 0
12/9/2020 5:45:00 AM 28.65556 83.58 0 7.25 -2.9 0
12/9/2020 6:00:00 AM 27.30556 81.15 0 7.23 -2.9 0
12/9/2020 6:15:00 AM 27.37778 81.28 0 7.25 -5 0
12/9/2020 6:30:00 AM 28.16111 82.69 0 7.25 -5.6 0
12/9/2020 6:45:00 AM 27.53333 81.56 0 7.24 -5 0
12/9/2020 7:00:00 AM 28.83889 83.91 0 7.23 -4.3 0
12/9/2020 7:15:00 AM 27.27222 81.09 0 7.21 -5 0
12/9/2020 7:30:00 AM 27.97778 82.36 0 7.23 -5.6 0
12/9/2020 7:45:00 AM 29.31666 84.77 0 7.25 -3.9 0
12/9/2020 8:00:00 AM 25.89445 78.61 0 7.19 -3.1 0
12/9/2020 8:15:00 AM -14.79445 5.37 -11 7.19 -1.8 0
12/9/2020 8:30:00 AM 37.77222 99.99 0 7 -999.9 0
12/9/2020 8:45:00 AM 37.77222 99.99 0 7 -999.9 0
12/9/2020 9:00:00 AM 37.77222 99.99 0 7 -999.9 0
12/9/2020 9:15:00 AM 37.77222 99.99 0 7 -999.9 0
12/9/2020 9:30:00 AM 37.77222 99.99 0 7 -999.9 0
12/9/2020 9:45:00 AM 37.77222 99.99 0 7 -999.9 0
12/9/2020 10:00:00 AM 37.77222 99.99 0 7 -999.9 0
12/9/2020 10:15:00 AM 37.77222 99.99 0 7 -999.9 0
12/9/2020 10:30:00 AM 37.77222 99.99 0 7 -999.9 0
12/9/2020 10:45:00 AM 37.77222 99.99 0 7 -999.9 0
12/9/2020 11:00:00 AM 37.77222 99.99 0 7 -999.9 0
12/9/2020 11:15:00 AM 37.77222 99.99 0 7 -999.9 0
12/9/2020 11:30:00 AM 37.77222 99.99 0 7 -999.9 0
12/9/2020 11:45:00 AM 37.77222 99.99 0 7 -999.9 0
12/9/2020 12:00:00 PM 37.77222 99.99 0 7 -999.9 0
12/9/2020 12:15:00 PM 37.77222 99.99 0 7 -999.9 0
12/9/2020 12:30:00 PM 37.77222 99.99 0 7 -999.9 0
12/9/2020 12:45:00 PM 37.77222 99.99 0 7 9999.9 0
12/9/2020 1:00:00 PM 37.77222 99.99 0 7 -999.9 0
12/9/2020 1:15:00 PM 37.77222 99.99 0 7 -999.9 0
12/9/2020 1:30:00 PM 37.77222 99.99 0 7 -999.9 0
12/9/2020 1:45:00 PM 37.77222 99.99 0 7 -999.9 0
12/9/2020 2:00:00 PM 37.77222 99.99 0 7 -999.9 0
12/9/2020 2:15:00 PM 37.77222 99.99 0 7 -999.9 0
12/9/2020 2:30:00 PM 37.77222 99.99 0 7 -999.9 0
12/9/2020 2:45:00 PM 37.77222 99.99 0 7 -999.9 0
12/9/2020 3:00:00 PM 37.77222 99.99 0 7 -999.9 0
12/9/2020 3:15:00 PM 37.77222 99.99 0 7 -999.9 0
12/9/2020 3:30:00 PM 37.77222 99.99 0 7 -999.9 0
12/9/2020 3:45:00 PM 37.77222 99.99 0 7 9999.9 0
12/9/2020 4:00:00 PM 37.77222 99.99 0 7 -999.9 0
12/9/2020 4:15:00 PM 37.77222 99.99 0 7 -999.9 0
12/9/2020 4:30:00 PM 37.77222 99.99 0 7 -999.9 0
12/9/2020 4:45:00 PM 37.77222 99.99 0 7 -999.9 0
12/9/2020 5:00:00 PM 37.77222 99.99 0 7 -999.9 0
12/9/2020 5:15:00 PM 37.77222 99.99 0 7 -999.9 0
12/9/2020 5:30:00 PM 37.77222 99.99 0 7 -999.9 0
12/9/2020 5:45:00 PM 37.77222 99.99 0 7 -999.9 0
12/9/2020 6:00:00 PM 37.77222 99.99 0 7 -999.9 0
12/9/2020 6:15:00 PM 37.77222 99.99 0 7 -999.9 0
12/9/2020 6:30:00 PM 37.77222 99.99 0 7 9999.9 0
12/9/2020 6:45:00 PM 37.77222 99.99 0 7 9999.9 0
12/9/2020 7:00:00 PM 37.77222 99.99 0 7 -999.9 0
12/9/2020 7:15:00 PM 37.77222 99.99 0 7 -999.9 0
12/9/2020 7:30:00 PM 37.77222 99.99 0 7 -999.9 0
12/9/2020 7:45:00 PM 37.77222 99.99 0 7 -999.9 0
12/9/2020 8:00:00 PM 37.77222 99.99 0 7 -999.9 0
12/9/2020 8:15:00 PM 37.77222 99.99 0 7 9999.9 0
12/9/2020 8:30:00 PM 37.77222 99.99 0 7 -999.9 0
12/9/2020 8:45:00 PM 37.77222 99.99 0 7 -999.9 0
12/9/2020 9:00:00 PM 37.77222 99.99 0 7 -999.9 0
12/9/2020 9:15:00 PM 37.77222 99.99 0 7 -999.9 0
12/9/2020 9:30:00 PM 37.77222 99.99 0 7 -999.9 0
12/9/2020 9:45:00 PM 37.77222 99.99 0 7 -999.9 0
12/9/2020 10:00:00 PM 37.77222 99.99 0 7 -999.9 0
12/9/2020 10:15:00 PM 37.77222 99.99 0 7 -999.9 0
12/9/2020 10:30:00 PM 37.77222 99.99 0 7 -999.9 0
12/9/2020 10:45:00 PM 37.77222 99.99 0 7 -999.9 0
12/9/2020 11:00:00 PM 4.427778 39.97 -3 7.15 -2.1 0
12/9/2020 11:15:00 PM 37.77222 99.99 0 7.09 -1.6 0
12/9/2020 11:30:00 PM -23.32778 -9.99 21 7.2 0 0
12/9/2020 11:45:00 PM 37.77222 99.99 0 7 -999.9 0
12/10/2020 12:00:00 AM -23.32778 -9.99 0 7 9999.9 0
12/10/2020 12:15:00 AM -14.78889 5.38 -11 7.14 -1.2 0
12/10/2020 12:30:00 AM 37.77222 99.99 0 7 -999.9 0
12/10/2020 12:45:00 AM -23.32778 -9.99 0 7 1477.3 0
12/10/2020 1:00:00 AM -23.32778 -9.99 0 7 9999.9 0
12/10/2020 1:15:00 AM 12.21667 53.99 -1 7.15 -0.6 0
12/10/2020 1:30:00 AM 7.01111 44.62 -2 7.2 -1.4 0
12/10/2020 1:45:00 AM 37.77222 99.99 0 7 -999.9 0
12/10/2020 2:00:00 AM 37.77222 99.99 0 7 -999.9 0
12/10/2020 2:15:00 AM 37.77222 99.99 0 7 -999.9 0
12/10/2020 2:30:00 AM -23.32778 -9.99 0 6.99 46.4 0
12/10/2020 2:45:00 AM 37.77222 99.99 0 7 -999.9 0
12/10/2020 3:00:00 AM -23.32778 -9.99 1 6.8 1 0
12/10/2020 3:15:00 AM -23.32778 -9.99 26 7.28 -1.1 0
12/10/2020 3:30:00 AM 9.872223 49.77 -2 7.26 -2.4 0
12/10/2020 3:45:00 AM 21.73333 71.12 -1 7.22 -0.6 0
12/10/2020 4:00:00 AM 21.30556 70.35 -1 7.25 -3.9 0
12/10/2020 4:15:00 AM 7.805555 46.05 -2 7.25 -2.6 0
12/10/2020 4:30:00 AM -23.32778 -9.99 0 6.99 22.4 0
12/10/2020 4:45:00 AM 13.98333 57.17 -1 7.19 -1.8 0
12/10/2020 5:00:00 AM 25.15 77.27 -1 7.14 -3 0
12/10/2020 5:15:00 AM 25.22778 77.41 -1 7.11 -2.2 0
12/10/2020 5:30:00 AM 25.82778 78.49 -1 7.17 -0.8 0
12/10/2020 5:45:00 AM 23.98889 75.18 -1 7.1 0.6 0
12/10/2020 6:00:00 AM 26.80556 80.25 0 7.1 -0.7 0
12/10/2020 6:15:00 AM 27.17778 80.92 0 7.18 -2.5 0
12/10/2020 6:30:00 AM 30.46667 86.84 0 7.22 -4 0
12/10/2020 6:45:00 AM 29.67777 85.42 -1 7.23 -2.6 0
12/10/2020 7:00:00 AM 30.21111 86.38 0 7.16 -4.1 0
12/10/2020 7:15:00 AM 29.25556 84.66 0 7.13 -2.2 0
12/10/2020 7:30:00 AM 23.36111 74.05 -1 7.19 -3.3 0
12/10/2020 7:45:00 AM 37.77222 99.99 0 7 -999.9 0
12/10/2020 8:00:00 AM 37.77222 99.99 0 7 -999.9 0
12/10/2020 8:15:00 AM 37.77222 99.99 0 7 -999.9 0
12/10/2020 8:30:00 AM 37.77222 99.99 0 7 -999.9 0
12/10/2020 8:45:00 AM 37.77222 99.99 0 7 -999.9 0
12/10/2020 9:00:00 AM 37.77222 99.99 0 7 9999.9 0
12/10/2020 9:15:00 AM 37.77222 99.99 0 7 -999.9 0
12/10/2020 9:30:00 AM 37.77222 99.99 0 7 -999.9 0
12/10/2020 9:45:00 AM 37.77222 99.99 0 7 -999.9 0
12/10/2020 10:00:00 AM 37.77222 99.99 0 7 -999.9 0
12/10/2020 10:15:00 AM 37.77222 99.99 0 7 -999.9 0
12/10/2020 10:30:00 AM 37.77222 99.99 0 7 -999.9 0
12/10/2020 10:45:00 AM 37.77222 99.99 0 7 -999.9 0
12/10/2020 11:00:00 AM 37.77222 99.99 0 7 -999.9 0
12/10/2020 11:15:00 AM 37.77222 99.99 0 7 -999.9 0
12/10/2020 11:30:00 AM 37.77222 99.99 0 7 -999.9 0
12/10/2020 11:45:00 AM 37.77222 99.99 0 7 -999.9 0
12/10/2020 12:00:00 PM 37.77222 99.99 0 7 -999.9 0
12/10/2020 12:15:00 PM 37.77222 99.99 0 7 -999.9 0
12/10/2020 12:30:00 PM 37.77222 99.99 0 7 -999.9 0
12/10/2020 12:45:00 PM 37.77222 99.99 0 7 -999.9 0
12/10/2020 1:00:00 PM 37.77222 99.99 0 7 -999.9 0
12/10/2020 1:15:00 PM -23.32778 -9.99 0 7 9999.9 0
12/10/2020 1:30:00 PM -3.572222 25.57 -5 7.27 -2.6 0
12/10/2020 1:45:00 PM 37.77222 99.99 0 7 -999.9 0
12/10/2020 2:00:00 PM -3.644444 25.44 -5 7.25 0.2 0
12/10/2020 2:15:00 PM -23.32778 -9.99 0 7 9999.9 0
12/10/2020 2:30:00 PM 17.32778 63.19 -1 7.25 -0.8 0
12/10/2020 2:45:00 PM -23.32778 -9.99 0 7 9999.9 0
12/10/2020 3:00:00 PM 24.31111 75.76 -1 7.23 -1.4 0
12/10/2020 3:15:00 PM 24.48889 76.08 -1 7.23 -2.6 0
12/10/2020 3:30:00 PM 26.73333 80.12 0 7.21 -2.3 0
12/10/2020 3:45:00 PM 28.2 82.76 0 7.25 -1.5 0
12/10/2020 4:00:00 PM 28.38889 83.1 0 7.25 -1.5 0
12/10/2020 4:15:00 PM 28.85 83.93 0 7.26 -2.7 0
12/10/2020 4:30:00 PM 26.58889 79.86 0 7.24 -0.7 0
12/10/2020 4:45:00 PM 23.37778 74.08 -1 7.24 -3 0
12/10/2020 5:00:00 PM 28.34444 83.02 0 7.19 -2 0
12/10/2020 5:15:00 PM 20.13333 68.24 -1 7.22 -1.8 0
12/10/2020 5:30:00 PM 24.56111 76.21 -1 7.23 0.6 0
12/10/2020 5:45:00 PM 24.98889 76.98 -1 7.26 -3.4 0
12/10/2020 6:00:00 PM 27.72222 81.9 0 7.22 -3 0
12/10/2020 6:15:00 PM 27.40556 81.33 0 7.14 1.5 0
12/10/2020 6:30:00 PM 19.21111 66.58 -1 7.11 -3.2 0
12/10/2020 6:45:00 PM 20.47778 68.86 -1 7.12 -0.7 0
12/10/2020 7:00:00 PM 24.51111 76.12 -1 7.16 -2.6 0
12/10/2020 7:15:00 PM 28.11111 82.6 0 7.21 -3.4 0
12/10/2020 7:30:00 PM 24.52778 76.15 -1 7.22 -1.7 0
12/10/2020 7:45:00 PM 27.35555 81.24 0 7.17 -0.9 0
12/10/2020 8:00:00 PM -23.32778 -9.99 1 6.96 9.2 0
12/10/2020 8:15:00 PM 7.027779 44.65 -2 7.13 -3 0
12/10/2020 8:30:00 PM 27.45 81.41 0 7.19 -2.9 0
12/10/2020 8:45:00 PM 26.11667 79.01 -1 7.19 -3.7 0
12/10/2020 9:00:00 PM 21.15 70.07 -1 7.15 -0.2 0
12/10/2020 9:15:00 PM 26.83889 80.31 0 7.18 -1.5 0
12/10/2020 9:30:00 PM 27.62222 81.72 0 7.21 -0.9 0
12/10/2020 9:45:00 PM 26.84444 80.32 0 7.22 -3 0
12/10/2020 10:00:00 PM 27.98889 82.38 0 7.22 -3.7 0
12/10/2020 10:15:00 PM 25.48333 77.87 -1 7.2 -1.3 0
12/10/2020 10:30:00 PM 29.1 84.38 0 7.24 -2.1 0
12/10/2020 10:45:00 PM 30.05556 86.1 0 7.21 -4.1 0
12/10/2020 11:00:00 PM 30.33889 86.61 0 7.24 -0.5 0
12/10/2020 11:15:00 PM 30.32223 86.58 0 7.22 -1.9 0
12/10/2020 11:30:00 PM 30.31667 86.57 0 7.22 -1.5 0
12/10/2020 11:45:00 PM 30.29444 86.53 0 7.24 1.1 0
12/11/2020 12:00:00 AM 29.07223 84.33 0 7.22 0.1 0
12/11/2020 12:15:00 AM 30.15 86.27 0 7.24 -1.9 0
12/11/2020 12:30:00 AM 30.07778 86.14 0 7.23 -2.4 0
12/11/2020 12:45:00 AM 30.22778 86.41 0 7.24 -1.8 0
12/11/2020 1:00:00 AM 30.32223 86.58 0 7.25 -1.6 0
12/11/2020 1:15:00 AM 29.45 85.01 0 7.18 -3.4 0
12/11/2020 1:30:00 AM 29.57223 85.23 0 7.16 -1.2 0
12/11/2020 1:45:00 AM 29.86667 85.76 4 7.2 4.2 0
12/11/2020 2:00:00 AM 30.42222 86.76 0 7.23 -0.4 0
12/11/2020 2:15:00 AM 29.68333 85.43 0 7.25 -3.6 0
12/11/2020 2:30:00 AM 30.25555 86.46 0 7.17 -3.9 0
12/11/2020 2:45:00 AM 23.97778 75.16 -1 7.07 -0.9 0
12/11/2020 3:00:00 AM 30.06111 86.11 4 7.23 2.3 0
12/11/2020 3:15:00 AM 29.63333 85.34 0 7.25 -4.4 0
12/11/2020 3:30:00 AM 29.91111 85.84 0 7.25 -11.9 0
12/11/2020 3:45:00 AM 29.85555 85.74 0 7.24 -5.5 0
12/11/2020 4:00:00 AM 30.23889 86.43 0 7.19 -1 0
12/11/2020 4:15:00 AM 29.70556 85.47 0 7.23 -4.1 0
12/11/2020 4:30:00 AM 29.83889 85.71 0 7.23 -4.6 0
12/11/2020 4:45:00 AM 29.7 85.46 0 7.2 -5.5 0
12/11/2020 5:00:00 AM 29.62778 85.33 0 7.2 -5.9 0
12/11/2020 5:15:00 AM 29.58333 85.25 0 7.25 -3 0
12/11/2020 5:30:00 AM 29.56667 85.22 0 7.19 -3.4 0
12/11/2020 5:45:00 AM 29.64444 85.36 -1 7.26 -2.2 0
12/11/2020 6:00:00 AM 29.63889 85.35 0 7.25 -4.1 0
12/11/2020 6:15:00 AM 29.65556 85.38 0 7.25 -2.7 0
12/11/2020 6:30:00 AM 29.73333 85.52 -1 7.25 -4.6 0
12/11/2020 6:45:00 AM 28.99445 84.19 0 7.27 -2.6 0
12/11/2020 7:00:00 AM 29.87778 85.78 0 7.28 -1.5 0
12/11/2020 7:15:00 AM 29.06667 84.32 0 7.27 -2.7 0
12/11/2020 7:30:00 AM 28.88333 83.99 0 7.22 -3.1 0
12/11/2020 7:45:00 AM -23.32778 -9.99 0 7 9999.9 0
12/11/2020 8:00:00 AM 37.77222 99.99 0 7 -999.9 0
12/11/2020 8:15:00 AM 37.77222 99.99 0 7 -999.9 0
12/11/2020 8:30:00 AM 37.77222 99.99 0 7 -999.9 0
12/11/2020 8:45:00 AM 37.77222 99.99 0 7 -999.9 0
12/11/2020 9:00:00 AM 37.77222 99.99 0 7 -999.9 0
12/11/2020 9:15:00 AM 37.77222 99.99 0 7 -999.9 0
12/11/2020 9:30:00 AM 37.77222 99.99 0 7 -999.9 0
12/11/2020 9:45:00 AM 37.77222 99.99 0 7 -999.9 0
12/11/2020 10:00:00 AM 37.77222 99.99 0 7 -999.9 0
12/11/2020 10:15:00 AM 37.77222 99.99 0 7 -999.9 0
12/11/2020 10:30:00 AM 37.77222 99.99 0 7 -999.9 0
12/11/2020 10:45:00 AM 37.77222 99.99 0 7 -999.9 0
12/11/2020 11:00:00 AM 37.77222 99.99 0 7 -999.9 0
12/11/2020 11:15:00 AM 37.77222 99.99 0 7 -999.9 0
12/11/2020 11:30:00 AM 37.77222 99.99 0 7 -999.9 0
12/11/2020 11:45:00 AM 37.77222 99.99 0 7 -999.9 0
12/11/2020 12:00:00 PM 37.77222 99.99 0 7 -999.9 0
12/11/2020 12:15:00 PM 37.77222 99.99 0 7 -999.9 0
12/11/2020 12:30:00 PM 37.77222 99.99 0 7 -999.9 0
12/11/2020 12:45:00 PM 37.77222 99.99 0 7 9999.9 0
12/11/2020 1:00:00 PM 37.77222 99.99 0 7 -999.9 0
12/11/2020 1:15:00 PM 37.77222 99.99 0 7 -999.9 0
12/11/2020 1:30:00 PM 37.77222 99.99 0 7 -999.9 0
12/11/2020 1:45:00 PM 37.77222 99.99 0 7 -999.9 0
12/11/2020 2:00:00 PM 37.77222 99.99 0 7 -999.9 0
12/11/2020 2:15:00 PM 37.77222 99.99 0 7 -999.9 0
12/11/2020 2:30:00 PM 37.77222 99.99 0 7 9999.9 0
12/11/2020 2:45:00 PM 37.77222 99.99 0 7 9999.9 0
12/11/2020 3:00:00 PM 37.77222 99.99 0 7 -999.9 0
12/11/2020 3:15:00 PM 37.77222 99.99 0 7 -999.9 0
12/11/2020 3:30:00 PM 37.77222 99.99 0 7 -999.9 0
12/11/2020 3:45:00 PM 37.77222 99.99 0 7 -999.9 0
12/11/2020 4:00:00 PM 37.77222 99.99 0 7 -999.9 0
12/11/2020 4:15:00 PM 37.77222 99.99 0 7 -999.9 0
12/11/2020 4:30:00 PM 37.77222 99.99 0 7 -999.9 0
12/11/2020 4:45:00 PM 37.77222 99.99 0 7 -999.9 0
12/11/2020 5:00:00 PM 37.77222 99.99 0 7 9999.9 0
12/11/2020 5:15:00 PM 37.77222 99.99 0 7 -999.9 0
12/11/2020 5:30:00 PM 37.77222 99.99 0 7 -999.9 0
12/11/2020 5:45:00 PM 37.77222 99.99 0 7 9999.9 0
12/11/2020 6:00:00 PM 37.77222 99.99 0 7 -999.9 0
12/11/2020 6:15:00 PM 37.77222 99.99 0 7 -999.9 0
12/11/2020 6:30:00 PM 37.77222 99.99 0 7 -999.9 0
12/11/2020 6:45:00 PM 37.77222 99.99 0 7 -999.9 0
12/11/2020 7:00:00 PM 37.77222 99.99 0 7 -999.9 0
12/11/2020 7:15:00 PM 37.77222 99.99 0 7 -999.9 0
12/11/2020 7:30:00 PM 37.77222 99.99 0 7 9999.9 0
12/11/2020 7:45:00 PM -23.32778 -9.99 2 6.59 3.5 0
12/11/2020 8:00:00 PM 37.77222 99.99 0 7 -999.9 0
12/11/2020 8:15:00 PM 37.77222 99.99 0 7 -999.9 0
12/11/2020 8:30:00 PM 37.77222 99.99 0 7 -999.9 0
12/11/2020 8:45:00 PM 37.77222 99.99 0 7 9999.9 0
12/11/2020 9:00:00 PM -23.32778 -9.99 0 7 9999.9 0
12/11/2020 9:15:00 PM 37.77222 99.99 0 7 -999.9 0
12/11/2020 9:30:00 PM 37.77222 99.99 0 7 -999.9 0
12/11/2020 9:45:00 PM 37.77222 99.99 0 7 -999.9 0
12/11/2020 10:00:00 PM -23.32778 -9.99 0 7 9999.9 0
12/11/2020 10:15:00 PM 37.77222 99.99 0 7 -999.9 0
12/11/2020 10:30:00 PM 37.77222 99.99 0 7 -999.9 0
12/11/2020 10:45:00 PM 37.77222 99.99 0 7 -999.9 0
12/11/2020 11:00:00 PM 37.77222 99.99 0 7 -999.9 0
12/11/2020 11:15:00 PM 37.77222 99.99 0 7 -999.9 0
12/11/2020 11:30:00 PM 37.77222 99.99 0 7 -999.9 0
12/11/2020 11:45:00 PM 37.77222 99.99 0 7 -999.9 0
12/12/2020 12:00:00 AM 37.77222 99.99 0 7 -999.9 0
12/12/2020 12:15:00 AM 37.77222 99.99 0 7 -999.9 0
12/12/2020 12:30:00 AM 37.77222 99.99 0 7 -999.9 0
12/12/2020 12:45:00 AM 37.77222 99.99 0 7 9999.9 0
12/12/2020 1:00:00 AM -23.32778 -9.99 0 7 9999.9 0
12/12/2020 1:15:00 AM 37.77222 99.99 0 7 -999.9 0
12/12/2020 1:30:00 AM -23.32778 -9.99 0 7 9999.9 0
12/12/2020 1:45:00 AM -23.32778 -9.99 0 7 9999.9 0
12/12/2020 2:00:00 AM -23.32778 -9.99 0 7 9999.9 0
12/12/2020 2:15:00 AM -23.32778 -9.99 0 7 9999.9 0
12/12/2020 2:30:00 AM 37.77222 99.99 0 7 9999.9 0
12/12/2020 2:45:00 AM -23.32778 -9.99 0 7 9999.9 0
12/12/2020 3:00:00 AM -23.32778 -9.99 0 6.99 102.5 0
12/12/2020 3:15:00 AM -23.32778 -9.99 0 7 -999.9 0
12/12/2020 3:30:00 AM -23.32778 -9.99 0 7 229.9 0
12/12/2020 3:45:00 AM -23.32778 -9.99 0 7 9999.9 0
12/12/2020 4:00:00 AM 37.77222 99.99 0 7 -999.9 0
12/12/2020 4:15:00 AM -23.32778 -9.99 0 7 9999.9 0
12/12/2020 4:30:00 AM 37.77222 99.99 0 7 9999.9 0
12/12/2020 4:45:00 AM -23.32778 -9.99 0 7 9999.9 0
12/12/2020 5:00:00 AM 37.77222 99.99 0 7 -999.9 0
12/12/2020 5:15:00 AM 16.57222 61.83 -1 7.25 -2.3 0
12/12/2020 5:30:00 AM 37.77222 99.99 0 7 9999.9 0
12/12/2020 5:45:00 AM 37.77222 99.99 0 7 -999.9 0
12/12/2020 6:00:00 AM 13.82778 56.89 -1 7.29 -2.1 0
12/12/2020 6:15:00 AM 37.77222 99.99 0 7 9999.9 0
12/12/2020 6:30:00 AM -23.32778 -9.99 -117 7.34 -0.9 0
12/12/2020 6:45:00 AM 1.877778 35.38 -3 7.28 -0.9 0
12/12/2020 7:00:00 AM 28.13889 82.65 0 7.27 -2.2 0
12/12/2020 7:15:00 AM 29.98889 85.98 0 7.27 -2.4 0
12/12/2020 7:30:00 AM -23.32778 -9.99 0 6.98 10.8 0
12/12/2020 7:45:00 AM 37.77222 99.99 0 7 -999.9 0
12/12/2020 8:00:00 AM 37.77222 99.99 0 7 -999.9 0
12/12/2020 8:15:00 AM 37.77222 99.99 0 7 -999.9 0
12/12/2020 8:30:00 AM 37.77222 99.99 0 7 -999.9 0
12/12/2020 8:45:00 AM 37.77222 99.99 0 7 -999.9 0
12/12/2020 9:00:00 AM 37.77222 99.99 0 7 -999.9 0
12/12/2020 9:15:00 AM 37.77222 99.99 0 7 -999.9 0
12/12/2020 9:30:00 AM 37.77222 99.99 0 7 -999.9 0
12/12/2020 9:45:00 AM 37.77222 99.99 0 7 -999.9 0
12/12/2020 10:00:00 AM 37.77222 99.99 0 7 -999.9 0
12/12/2020 10:15:00 AM 37.77222 99.99 0 7 -999.9 0
12/12/2020 10:30:00 AM 37.77222 99.99 0 7 -999.9 0
12/12/2020 10:45:00 AM 37.77222 99.99 0 7 -999.9 0
12/12/2020 11:00:00 AM 37.77222 99.99 0 7 -999.9 0
12/12/2020 11:15:00 AM 37.77222 99.99 0 7 -999.9 0
12/12/2020 11:30:00 AM 37.77222 99.99 0 7 -999.9 0
12/12/2020 11:45:00 AM 37.77222 99.99 0 7 -999.9 0
12/12/2020 12:00:00 PM 37.77222 99.99 0 7 -999.9 0
12/12/2020 12:15:00 PM 37.77222 99.99 0 7 -999.9 0
12/12/2020 12:30:00 PM 37.77222 99.99 0 7 -999.9 0
12/12/2020 12:45:00 PM 37.77222 99.99 0 7 -999.9 0
12/12/2020 1:00:00 PM 37.77222 99.99 0 7 -999.9 0
12/12/2020 1:15:00 PM 37.77222 99.99 0 7 -999.9 0
12/12/2020 1:30:00 PM 37.77222 99.99 0 7 -999.9 0
12/12/2020 1:45:00 PM 37.77222 99.99 0 7 -999.9 0
12/12/2020 2:00:00 PM -23.32778 -9.99 0 7 9999.9 0
12/12/2020 2:15:00 PM -23.32778 -9.99 0 7 9999.9 0
12/12/2020 2:30:00 PM -23.32778 -9.99 0 7 9999.9 0
12/12/2020 2:45:00 PM 37.77222 99.99 0 7 -999.9 0
12/12/2020 3:00:00 PM 37.77222 99.99 0 7.23 -0.5 0
12/12/2020 3:15:00 PM -23.32778 -9.99 1 6.93 -2 0
12/12/2020 3:30:00 PM -23.32778 -9.99 -27 7.35 -1.8 0
12/12/2020 3:45:00 PM 37.77222 99.99 0 7 -999.9 0
12/12/2020 4:00:00 PM -15.8 3.56 -12 7.32 0.4 0
12/12/2020 4:15:00 PM -12.26111 9.93 -9 7.31 -2.5 0
12/12/2020 4:30:00 PM 10.11111 50.2 -2 7.29 -0.8 0
12/12/2020 4:45:00 PM 8.622223 47.52 -2 7.29 -1.2 0
12/12/2020 5:00:00 PM -3.394445 25.89 -5 7.3 -1 0
12/12/2020 5:15:00 PM 19.77222 67.59 -1 7.26 -1.5 0
12/12/2020 5:30:00 PM 14.62222 58.32 -1 7.28 -1.4 0
12/12/2020 5:45:00 PM -23.32778 -9.99 0 7 9999.9 0
12/12/2020 6:00:00 PM 5.477778 41.86 -2 7.29 -0.4 0
12/12/2020 6:15:00 PM -6.5 20.3 -6 7.29 0.2 0
12/12/2020 6:30:00 PM 4.961111 40.93 -3 7.26 -1.8 0
12/12/2020 6:45:00 PM 37.77222 99.99 0 7 -999.9 0
12/12/2020 7:00:00 PM -1.6 29.12 -4 7.27 -2.3 0
12/12/2020 7:15:00 PM -23.32778 -9.99 0 7 424.1 0
12/12/2020 7:30:00 PM -23.32778 -9.99 0 7 9999.9 0
12/12/2020 7:45:00 PM -2.461111 27.57 -4 7.3 -1.5 0
12/12/2020 8:00:00 PM -23.32778 -9.99 0 7 9999.9 0
12/12/2020 8:15:00 PM 13.65 56.57 -1 7.28 -1.9 0
12/12/2020 8:30:00 PM 23.84444 74.92 -1 7.25 -5 0
12/12/2020 8:45:00 PM -23.32778 -9.99 0 7 9999.9 0
12/12/2020 9:00:00 PM 37.77222 99.99 0 7 9999.9 0
12/12/2020 9:15:00 PM 16.01667 60.83 -1 7.26 -2.2 0
12/12/2020 9:30:00 PM 14.87222 58.77 -1 7.23 -1 0
12/12/2020 9:45:00 PM 22.18889 71.94 -1 7.26 -3.1 0
12/12/2020 10:00:00 PM 25.78333 78.41 -1 7.25 -1.9 0
12/12/2020 10:15:00 PM 24.18333 75.53 -1 7.22 -2.7 0
12/12/2020 10:30:00 PM 24.37222 75.87 -1 7.24 -2.4 0
12/12/2020 10:45:00 PM 24.92778 76.87 -1 7.25 -1.9 0
12/12/2020 11:00:00 PM 24.29445 75.73 -1 7.19 -0.6 0
12/12/2020 11:15:00 PM 26.02222 78.84 -1 7.17 -1.3 0
12/12/2020 11:30:00 PM 26.60555 79.89 0 7.21 -1.9 0
12/12/2020 11:45:00 PM 26.67222 80.01 0 7.23 -0.6 0
12/13/2020 12:00:00 AM 28.05556 82.5 0 7.24 -2.1 0
12/13/2020 12:15:00 AM 28.10555 82.59 0 7.19 -2.4 0
12/13/2020 12:30:00 AM 28.51111 83.32 0 7.15 -0.3 0
12/13/2020 12:45:00 AM 28.31111 82.96 0 7.19 -2 0
12/13/2020 1:00:00 AM 29.02222 84.24 0 7.19 -1.7 0
12/13/2020 1:15:00 AM 30.05556 86.1 0 7.24 -2.9 0
12/13/2020 1:30:00 AM 30.12778 86.23 0 7.26 -0.6 0
12/13/2020 1:45:00 AM 29.61111 85.3 0 7.21 -2.2 0
12/13/2020 2:00:00 AM 29.71667 85.49 0 7.23 -3 0
12/13/2020 2:15:00 AM 30.16111 86.29 0 7.23 -2.3 0
12/13/2020 2:30:00 AM 28.95556 84.12 0 7.23 -2 0
12/13/2020 2:45:00 AM 30.22778 86.41 0 7.2 -1.1 0
12/13/2020 3:00:00 AM 30.32223 86.58 0 7.24 -1.4 0
12/13/2020 3:15:00 AM 30.32778 86.59 0 7.25 -2.6 0
12/13/2020 3:30:00 AM 30.32223 86.58 0 7.25 -3.3 0
12/13/2020 3:45:00 AM 30.25 86.45 0 7.25 0.6 0
12/13/2020 4:00:00 AM 30.3 86.54 0 7.24 -4.3 0
12/13/2020 4:15:00 AM 30.23333 86.42 0 7.22 -2.6 0
12/13/2020 4:30:00 AM 29.98333 85.97 0 7.24 -7.8 0
12/13/2020 4:45:00 AM 29.88889 85.8 4 7.25 -0.6 0
12/13/2020 5:00:00 AM 29.95555 85.92 0 7.24 -5.1 0
12/13/2020 5:15:00 AM 29.73889 85.53 0 7.25 -3.6 0
12/13/2020 5:30:00 AM 29.61111 85.3 0 7.22 -3.4 0
12/13/2020 5:45:00 AM 29.57223 85.23 0 7.24 -4.5 0
12/13/2020 6:00:00 AM 29.66667 85.4 0 7.22 -3.6 0
12/13/2020 6:15:00 AM 29.72778 85.51 0 7.24 -2.8 0
12/13/2020 6:30:00 AM 30.16111 86.29 0 7.25 -4.2 0
12/13/2020 6:45:00 AM 29.90556 85.83 0 7.26 -5.1 0
12/13/2020 7:00:00 AM 30.18889 86.34 0 7.28 -2.3 0
12/13/2020 7:15:00 AM 28.43889 83.19 0 7.27 -3.5 0
12/13/2020 7:30:00 AM 28.91667 84.05 0 7.25 -4.3 0
12/13/2020 7:45:00 AM 29.68333 85.43 -1 7.21 -4 0
12/13/2020 8:00:00 AM 29.62222 85.32 -1 7.23 -3.9 0
12/13/2020 8:15:00 AM 29.63889 85.35 0 7.25 -2.6 0
12/13/2020 8:30:00 AM 29.66667 85.4 0 7.26 -3.7 0
12/13/2020 8:45:00 AM 29.75555 85.56 0 7.26 -2 0
12/13/2020 9:00:00 AM 29.62778 85.33 0 7.23 -3.5 0
12/13/2020 9:15:00 AM 29.75 85.55 0 7.24 -3.3 0
12/13/2020 9:30:00 AM 16.53333 61.76 -1 6.88 -5 0
12/13/2020 9:45:00 AM 26.06111 78.91 0 7.21 -4 0
12/13/2020 10:00:00 AM 28.99445 84.19 0 7.29 -3.1 0
12/13/2020 10:15:00 AM 29.38889 84.9 0 7.27 -4.8 0
12/13/2020 10:30:00 AM 27.94445 82.3 0 7.27 -3.9 0
12/13/2020 10:45:00 AM 30.08333 86.15 0 7.28 -1.9 0
12/13/2020 11:00:00 AM 28.93334 84.08 0 7.28 -3.8 0
12/13/2020 11:15:00 AM 29.09444 84.37 0 7.28 -3.9 0
12/13/2020 11:30:00 AM 28.61111 83.5 0 7.27 -4.5 0
12/13/2020 11:45:00 AM 28.46667 83.24 0 7.26 -2.5 0
12/13/2020 12:00:00 PM 28.87222 83.97 0 7.27 -3.5 0
12/13/2020 12:15:00 PM 29.10556 84.39 0 7.29 -4.4 0
12/13/2020 12:30:00 PM 29.04444 84.28 0 7.28 -3.2 0
12/13/2020 12:45:00 PM 29.06111 84.31 0 7.28 -4 0
12/13/2020 1:00:00 PM 29.13889 84.45 0 7.28 -3.9 0
12/13/2020 1:15:00 PM 27.33333 81.2 0 7.25 -5.9 0
12/13/2020 1:30:00 PM 27.25 81.05 0 7.24 -3.4 0
12/13/2020 1:45:00 PM 27.33333 81.2 0 7.24 -4.6 0
12/13/2020 2:00:00 PM 27.29444 81.13 0 7.25 -3.6 0
12/13/2020 2:15:00 PM 27.28889 81.12 0 7.24 -4.4 0
12/13/2020 2:30:00 PM 27.45555 81.42 0 7.25 -3.8 0
12/13/2020 2:45:00 PM 27.63333 81.74 0 7.25 -5 0
12/13/2020 3:00:00 PM 28.95556 84.12 0 7.26 -3.4 0
12/13/2020 3:15:00 PM 27.67778 81.82 0 7.25 -4.3 0
12/13/2020 3:30:00 PM 28.02778 82.45 0 7.26 -5.5 0
12/13/2020 3:45:00 PM 27.48889 81.48 0 7.25 -4.6 0
12/13/2020 4:00:00 PM 28.83889 83.91 0 7.27 -5.3 0
12/13/2020 4:15:00 PM 27.23333 81.02 0 7.23 -3.4 0
12/13/2020 4:30:00 PM 27.17778 80.92 0 7.23 -4.1 0
12/13/2020 4:45:00 PM 27.26111 81.07 -1 7.23 -4.3 0
12/13/2020 5:00:00 PM 27.24445 81.04 -1 7.22 -5.3 0
12/13/2020 5:15:00 PM 27.25555 81.06 0 7.23 -4 0
12/13/2020 5:30:00 PM 27.28333 81.11 0 7.23 -4.3 0
12/13/2020 5:45:00 PM 27.25555 81.06 0 7.22 -4.3 0
12/13/2020 6:00:00 PM 27.28889 81.12 0 7.23 -4.4 0
12/13/2020 6:15:00 PM 27.23333 81.02 0 7.22 -5.5 0
12/13/2020 6:30:00 PM 27.32222 81.18 0 7.24 -6 0
12/13/2020 6:45:00 PM 27.24445 81.04 0 7.22 -3.7 0
12/13/2020 7:00:00 PM 27.21667 80.99 0 7.22 -4.5 0
12/13/2020 7:15:00 PM 27.23889 81.03 0 7.23 -3.7 0
12/13/2020 7:30:00 PM 27.26111 81.07 0 7.24 -4.7 0
12/13/2020 7:45:00 PM 27.26111 81.07 0 7.22 -4.6 0
12/13/2020 8:00:00 PM 27.26111 81.07 0 7.22 -3.6 0
12/13/2020 8:15:00 PM 27.25 81.05 0 7.22 -5.8 0
12/13/2020 8:30:00 PM 28.98889 84.18 0 7.26 -2.4 0
12/13/2020 8:45:00 PM 29.11111 84.4 0 7.25 -4.3 0
12/13/2020 9:00:00 PM 29.06667 84.32 0 7.28 -3.3 0
12/13/2020 9:15:00 PM 29.07778 84.34 0 7.26 -4.2 0
12/13/2020 9:30:00 PM 28.80556 83.85 0 7.26 -3.9 0
12/13/2020 9:45:00 PM 27.27778 81.1 0 7.23 -4.7 0
12/13/2020 10:00:00 PM 27.36667 81.26 0 7.25 -5.5 0
12/13/2020 10:15:00 PM 27.84444 82.12 0 7.25 -5.8 0
12/13/2020 10:30:00 PM 27.56667 81.62 0 7.25 -3.8 0
12/13/2020 10:45:00 PM 29.11667 84.41 0 7.27 -3.8 0
12/13/2020 11:00:00 PM 27.84444 82.12 0 7.26 -0.1 0
12/13/2020 11:15:00 PM 28.42222 83.16 0 7.26 -4 0
12/13/2020 11:30:00 PM 29.08333 84.35 0 7.27 -1.9 0
12/13/2020 11:45:00 PM 28.33333 83 0 7.26 -4.9 0
12/14/2020 12:00:00 AM 27.96111 82.33 0 7.25 -3.9 0
12/14/2020 12:15:00 AM 29.06667 84.32 0 7.28 -4.9 0
12/14/2020 12:30:00 AM 28.83333 83.9 0 7.26 -2.3 0
12/14/2020 12:45:00 AM 28.13889 82.65 0 7.25 -4.4 0
12/14/2020 1:00:00 AM 29.12778 84.43 0 7.28 -3.7 0
12/14/2020 1:15:00 AM 28.53333 83.36 0 7.28 -2.6 0
12/14/2020 1:30:00 AM 29.12222 84.42 0 7.27 -2.2 0
12/14/2020 1:45:00 AM 29.14444 84.46 0 7.28 -5.2 0
12/14/2020 2:00:00 AM 29.68889 85.44 0 7.28 -4.2 0
12/14/2020 2:15:00 AM 28.71667 83.69 0 7.27 -2.7 0
12/14/2020 2:30:00 AM 29.59444 85.27 0 7.23 -3.9 0
12/14/2020 2:45:00 AM 30.17778 86.32 0 7.23 -1.1 0
12/14/2020 3:00:00 AM 29.11111 84.4 0 7.27 -4.4 0
12/14/2020 3:15:00 AM 29.68333 85.43 0 7.27 -4.5 0
12/14/2020 3:30:00 AM 28.38889 83.1 0 7.23 -2.3 0
12/14/2020 3:45:00 AM 29.51667 85.13 0 7.18 -3.8 0
12/14/2020 4:00:00 AM 29.52778 85.15 0 7.23 -2.9 0
12/14/2020 4:15:00 AM 29.82778 85.69 0 7.27 -4.1 0
12/14/2020 4:30:00 AM 29.72222 85.5 -1 7.21 -4.5 0
12/14/2020 4:45:00 AM 29.70556 85.47 0 7.23 -1.4 0
12/14/2020 5:00:00 AM 28.03889 82.47 0 7.19 -2.7 0
12/14/2020 5:15:00 AM 29.15 84.47 0 7.18 -2.8 0
12/14/2020 5:30:00 AM 28.42778 83.17 0 7.2 -1.7 0
12/14/2020 5:45:00 AM 28.11111 82.6 0 7.25 -3.2 0
12/14/2020 6:00:00 AM 28.98333 84.17 0 7.27 -3.3 0
12/14/2020 6:15:00 AM 28.71667 83.69 0 7.26 -2.3 0
12/14/2020 6:30:00 AM 29.08333 84.35 0 7.27 -2.8 0
12/14/2020 6:45:00 AM 28.86666 83.96 0 7.26 -4.4 0
12/14/2020 7:00:00 AM 29.74445 85.54 0 7.26 -4.1 0
12/14/2020 7:15:00 AM 27.27222 81.09 0 7.22 -5.4 0
12/14/2020 7:30:00 AM 29.06667 84.32 0 7.25 -3 0
12/14/2020 7:45:00 AM 29.03333 84.26 0 7.27 -4.3 0
12/14/2020 8:00:00 AM 28.76111 83.77 0 7.26 -5.3 0
12/14/2020 8:15:00 AM 29.08889 84.36 0 7.27 -4.6 0
12/14/2020 8:30:00 AM 29.08889 84.36 0 7.28 -3.3 0
12/14/2020 8:45:00 AM 29.77778 85.6 0 7.28 -3.6 0
12/14/2020 9:00:00 AM 28.78333 83.81 0 7.27 -2.8 0
12/14/2020 9:15:00 AM 28.99445 84.19 0 7.26 -4.2 0
12/14/2020 9:30:00 AM 29.11667 84.41 0 7.26 -3.9 0
12/14/2020 9:45:00 AM 29.12778 84.43 0 7.28 -4.5 0
12/14/2020 10:00:00 AM 28.75 83.75 0 7.25 -1.3 0
12/14/2020 10:15:00 AM 28.14445 82.66 0 7.26 -1.8 0
12/14/2020 10:30:00 AM 28.41111 83.14 0 7.26 -5.5 0
12/14/2020 10:45:00 AM 29.12222 84.42 0 7.26 -2.4 0
12/14/2020 11:00:00 AM 29.10556 84.39 0 7.28 -3.3 0
12/14/2020 11:15:00 AM 29.11111 84.4 0 7.27 -3.7 0
12/14/2020 11:30:00 AM 28.68333 83.63 0 7.26 -3.5 0
12/14/2020 11:45:00 AM 29.14444 84.46 0 7.25 -2.8 0
12/14/2020 12:00:00 PM 29.51667 85.13 0 7.22 -2.4 0
12/14/2020 12:15:00 PM 29.06111 84.31 0 7.25 -2.5 0
12/14/2020 12:30:00 PM 28.75556 83.76 0 7.25 -5.1 0
12/14/2020 12:45:00 PM 27.26667 81.08 0 7.21 -4.8 0
12/14/2020 1:00:00 PM 28.96111 84.13 0 7.22 -2.6 0
12/14/2020 1:15:00 PM 29.1 84.38 0 7.25 -2.9 0
12/14/2020 1:30:00 PM 28.09444 82.57 0 7.24 -5.3 0
12/14/2020 1:45:00 PM 29.13334 84.44 0 7.24 -3.2 0
12/14/2020 2:00:00 PM 29.10556 84.39 0 7.24 -3.5 0
12/14/2020 2:15:00 PM 28.78889 83.82 0 7.24 -2.7 0
12/14/2020 2:30:00 PM 30.01111 86.02 0 7.27 -1.4 0
12/14/2020 2:45:00 PM 29.11667 84.41 0 7.26 -3.4 0
12/14/2020 3:00:00 PM 29.07223 84.33 0 7.24 -2.9 0
12/14/2020 3:15:00 PM 28.81667 83.87 0 7.24 -5.4 0
12/14/2020 3:30:00 PM 29.07778 84.34 0 7.23 -2.9 0
12/14/2020 3:45:00 PM 27.48889 81.48 0 7.21 -6 0
12/14/2020 4:00:00 PM 27.17778 80.92 0 7.21 -4.6 0
12/14/2020 4:15:00 PM 27.58889 81.66 0 7.24 -4.3 0
12/14/2020 4:30:00 PM 28.48333 83.27 0 7.25 -2.9 0
12/14/2020 4:45:00 PM 27.25555 81.06 -1 7.21 -4.6 0
12/14/2020 5:00:00 PM 26.92778 80.47 0 7.2 -4.6 0
12/14/2020 5:15:00 PM 27.27222 81.09 0 7.23 -4.3 0
12/14/2020 5:30:00 PM 27.35 81.23 0 7.23 -5.2 0
12/14/2020 5:45:00 PM 27.37778 81.28 0 7.23 -4.5 0
12/14/2020 6:00:00 PM 27.27778 81.1 -1 7.21 -5 0
12/14/2020 6:15:00 PM 27.30556 81.15 0 7.19 -4.8 0
12/14/2020 6:30:00 PM 27.25 81.05 0 7.21 -4.7 0
12/14/2020 6:45:00 PM 27.26667 81.08 -1 7.21 -5.9 0
12/14/2020 7:00:00 PM 27.26667 81.08 0 7.21 -4.2 0
12/14/2020 7:15:00 PM 27.24445 81.04 0 7.21 -4.9 0
12/14/2020 7:30:00 PM 27.26667 81.08 -1 7.21 -4.8 0
12/14/2020 7:45:00 PM 27.24445 81.04 0 7.21 -4.4 0
12/14/2020 8:00:00 PM 27.27778 81.1 0 7.22 -3.5 0
12/14/2020 8:15:00 PM 27.22778 81.01 0 7.21 -4.6 0
12/14/2020 8:30:00 PM 16.45 61.61 -1 6.8 -5 0
12/14/2020 8:45:00 PM 23.82222 74.88 -1 7.09 -4.1 0
12/14/2020 9:00:00 PM 26.01667 78.83 0 7.2 -4 0
12/14/2020 9:15:00 PM 27.24445 81.04 0 7.2 -6 0
12/14/2020 9:30:00 PM 27.26667 81.08 0 7.2 -3.7 0
12/14/2020 9:45:00 PM 27.17222 80.91 0 7.18 -5.5 0
12/14/2020 10:00:00 PM 27.25555 81.06 0 7.21 -4.9 0
12/14/2020 10:15:00 PM 27.25555 81.06 0 7.2 -5.3 0
12/14/2020 10:30:00 PM 27.4 81.32 0 7.17 -3.8 0
12/14/2020 10:45:00 PM 27.51667 81.53 0 7.21 -3.6 0
12/14/2020 11:00:00 PM 27.20556 80.97 0 7.21 -5 0
12/14/2020 11:15:00 PM 26.65556 79.98 0 7.21 -4.1 0
12/14/2020 11:30:00 PM 27.12778 80.83 0 7.21 -5 0
12/14/2020 11:45:00 PM 26.24444 79.24 0 7.19 -4.6 0
12/15/2020 12:00:00 AM 27.22778 81.01 0 7.18 -4 0
12/15/2020 12:15:00 AM 27.18333 80.93 0 7.2 -5.3 0
12/15/2020 12:30:00 AM 27.24445 81.04 0 7.2 -5.4 0
12/15/2020 12:45:00 AM 27.20556 80.97 0 7.19 -3.3 0
12/15/2020 1:00:00 AM 27.29444 81.13 0 7.17 -5 0
12/15/2020 1:15:00 AM 27.23889 81.03 0 7.2 -3.5 0
12/15/2020 1:30:00 AM 27.23889 81.03 0 7.18 -4.8 0
12/15/2020 1:45:00 AM 27.21667 80.99 0 7.15 -4.6 0
12/15/2020 2:00:00 AM 27.23333 81.02 0 7.2 -3.8 0
12/15/2020 2:15:00 AM 27.25555 81.06 0 7.17 -6.5 0
12/15/2020 2:30:00 AM 26.65 79.97 0 7.18 -4.3 0
12/15/2020 2:45:00 AM 26.82778 80.29 0 7.19 -3.3 0
12/15/2020 3:00:00 AM 27.25555 81.06 0 7.16 -5.1 0
12/15/2020 3:15:00 AM 27.28333 81.11 0 7.14 -3.7 0
12/15/2020 3:30:00 AM 27.28333 81.11 -1 7.19 -5.4 0
12/15/2020 3:45:00 AM 26.29445 79.33 0 7.19 -3.7 0
12/15/2020 4:00:00 AM 27.05555 80.7 0 7.19 -4.7 0
12/15/2020 4:15:00 AM 26.95 80.51 0 7.19 -4.4 0
12/15/2020 4:30:00 AM 26.15556 79.08 0 7.19 -2.9 0
12/15/2020 4:45:00 AM 26.44444 79.6 0 7.18 -5.4 0
12/15/2020 5:00:00 AM 26.02778 78.85 0 7.15 -2.9 0
12/15/2020 5:15:00 AM 25.74444 78.34 0 7.16 -4.4 0
12/15/2020 5:30:00 AM 25.61111 78.1 0 7.13 -4 0
12/15/2020 5:45:00 AM 25.53333 77.96 0 7.17 -4.2 0
12/15/2020 6:00:00 AM 25.60555 78.09 0 7.15 -3.8 0
12/15/2020 6:15:00 AM 25.75556 78.36 0 7.16 -4.9 0
12/15/2020 6:30:00 AM 25.48889 77.88 0 7.16 -4.7 0
12/15/2020 6:45:00 AM 25.68334 78.23 0 7.15 -4.6 0
12/15/2020 7:00:00 AM 24.96111 76.93 0 7.15 -4.8 0
12/15/2020 7:15:00 AM 25.06667 77.12 0 7.15 -3.9 0
12/15/2020 7:30:00 AM 27.57222 81.63 0 7.17 -5.6 0
12/15/2020 7:45:00 AM 28.39445 83.11 0 7.16 -3.5 0
12/15/2020 8:00:00 AM 29.63889 85.35 0 7.16 -2.3 0
12/15/2020 8:15:00 AM 27.5 81.5 0 7.09 -2 0
12/15/2020 8:30:00 AM 23.28889 73.92 -1 7.11 -3.8 0
12/15/2020 8:45:00 AM -0.4666668 31.16 -4 7.12 -2 0
12/15/2020 9:00:00 AM -23.32778 -9.99 0 7 9999.9 0
12/15/2020 9:15:00 AM 37.77222 99.99 0 7 -999.9 0
12/15/2020 9:30:00 AM 37.77222 99.99 0 7 9999.9 0
12/15/2020 9:45:00 AM 37.77222 99.99 0 7 -999.9 0
12/15/2020 10:00:00 AM 37.77222 99.99 0 7 -999.9 0
12/15/2020 10:15:00 AM 37.77222 99.99 0 7 -999.9 0
12/15/2020 10:30:00 AM 37.77222 99.99 0 7 -999.9 0
12/15/2020 10:45:00 AM 37.77222 99.99 0 7 -999.9 0
12/15/2020 11:00:00 AM 37.77222 99.99 0 7 -999.9 0
12/15/2020 11:15:00 AM 37.77222 99.99 0 7 -999.9 0
12/15/2020 11:30:00 AM 37.77222 99.99 0 7 -999.9 0
12/15/2020 11:45:00 AM 37.77222 99.99 0 7 -999.9 0
12/15/2020 12:00:00 PM 37.77222 99.99 0 7 -999.9 0
12/15/2020 12:15:00 PM 37.77222 99.99 0 7 9999.9 0
12/15/2020 12:30:00 PM -23.32778 -9.99 0 7 9999.9 0
12/15/2020 12:45:00 PM 37.77222 99.99 0 7 -999.9 0
12/15/2020 1:00:00 PM 37.77222 99.99 0 7 -999.9 0
12/15/2020 1:15:00 PM -23.32778 -9.99 1 6.92 1.3 0
12/15/2020 1:30:00 PM 13 55.4 -1 7.17 -2.6 0
12/15/2020 1:45:00 PM 20.73333 69.32 -1 7.19 -0.1 0
12/15/2020 2:00:00 PM 14.29444 57.73 -1 7.19 -2.9 0
12/15/2020 2:15:00 PM 26.15556 79.08 0 7.19 -0.6 0
12/15/2020 2:30:00 PM 24.57778 76.24 -1 7.21 2.4 0
12/15/2020 2:45:00 PM 27.01667 80.63 0 7.24 -1.5 0
12/15/2020 3:00:00 PM 27.29444 81.13 0 7.22 -2.9 0
12/15/2020 3:15:00 PM 25.96667 78.74 -1 7.22 -1.9 0
12/15/2020 3:30:00 PM 27.23889 81.03 0 7.24 -1.8 0
12/15/2020 3:45:00 PM 28.54444 83.38 0 7.24 -1.7 0
12/15/2020 4:00:00 PM 29.90556 85.83 0 7.25 -3.4 0
12/15/2020 4:15:00 PM 28.60555 83.49 0 7.24 -0.1 0
12/15/2020 4:30:00 PM 30.13333 86.24 0 7.21 -2.2 0
12/15/2020 4:45:00 PM 30.32223 86.58 0 7.23 -3 0
12/15/2020 5:00:00 PM 30.33889 86.61 0 7.22 -2.8 0
12/15/2020 5:15:00 PM 30.18334 86.33 0 7.21 -1.1 0
12/15/2020 5:30:00 PM 28.96111 84.13 0 7.22 -2.5 0
12/15/2020 5:45:00 PM 30.3 86.54 0 7.22 -1.2 0
12/15/2020 6:00:00 PM 29.90556 85.83 0 7.25 -5.7 0
12/15/2020 6:15:00 PM 29.75 85.55 4 7.24 0.8 0
12/15/2020 6:30:00 PM 29.65 85.37 0 7.24 -1.6 0
12/15/2020 6:45:00 PM 29.71667 85.49 0 7.25 -2.4 0
12/15/2020 7:00:00 PM 29.70556 85.47 0 7.25 -5 0
12/15/2020 7:15:00 PM 29.81111 85.66 0 7.26 -7 0
12/15/2020 7:30:00 PM 30 86 0 7.19 1 0
12/15/2020 7:45:00 PM 26.46111 79.63 0 7.18 -0.9 0
12/15/2020 8:00:00 PM 30.35 86.63 0 7.22 -2.4 0
12/15/2020 8:15:00 PM 30.23889 86.43 0 7.23 -1 0
12/15/2020 8:30:00 PM 29.60556 85.29 0 7.26 -4.6 0
12/15/2020 8:45:00 PM 29.82222 85.68 0 7.25 -3.3 0
12/15/2020 9:00:00 PM 29.77222 85.59 0 7.25 -4.2 0
12/15/2020 9:15:00 PM 30.35556 86.64 0 7.24 -0.6 0
12/15/2020 9:30:00 PM 29.92222 85.86 0 7.25 -2.3 0
12/15/2020 9:45:00 PM 29.65 85.37 0 7.24 -3 0
12/15/2020 10:00:00 PM 29.66111 85.39 0 7.25 -2.6 0
12/15/2020 10:15:00 PM 29.75555 85.56 0 7.26 -2.8 0
12/15/2020 10:30:00 PM 29.67777 85.42 -1 7.26 -3.4 0
12/15/2020 10:45:00 PM 29.68333 85.43 -1 7.26 -2.1 0
12/15/2020 11:00:00 PM 29.71111 85.48 -1 7.23 -2.4 0
12/15/2020 11:15:00 PM 29.08889 84.36 -1 7.26 -3 0
12/15/2020 11:30:00 PM 29.76111 85.57 -1 7.25 -2.6 0
12/15/2020 11:45:00 PM 29.22222 84.6 0 7.27 -2.2 0
12/16/2020 12:00:00 AM 28.55556 83.4 0 7.27 -3.7 0
12/16/2020 12:15:00 AM 29.62222 85.32 -1 7.27 -2.7 0
12/16/2020 12:30:00 AM 29.35 84.83 -1 7.26 -3.9 0
12/16/2020 12:45:00 AM 29.55 85.19 0 7.27 -4.4 0
12/16/2020 1:00:00 AM 28.91111 84.04 0 7.25 -3.2 0
12/16/2020 1:15:00 AM 29.01111 84.22 0 7.26 -3.4 0
12/16/2020 1:30:00 AM 28.83889 83.91 0 7.27 -3.2 0
12/16/2020 1:45:00 AM 28.62778 83.53 0 7.26 -1.3 0
12/16/2020 2:00:00 AM 27.31667 81.17 0 7.26 -3.6 0
12/16/2020 2:15:00 AM 28.61111 83.5 0 7.26 -2.3 0
12/16/2020 2:30:00 AM 29.12222 84.42 -1 7.25 -4 0
12/16/2020 2:45:00 AM 28.51111 83.32 0 7.24 -3.7 0
12/16/2020 3:00:00 AM 27.57778 81.64 0 7.26 -3.2 0
12/16/2020 3:15:00 AM 28.37778 83.08 0 7.26 -2.2 0
12/16/2020 3:30:00 AM 28.63889 83.55 0 7.28 -4.2 0
12/16/2020 3:45:00 AM 29.58333 85.25 0 7.27 -4.4 0
12/16/2020 4:00:00 AM 29.51111 85.12 0 7.26 -3.3 0
12/16/2020 4:15:00 AM 30.08889 86.16 0 7.27 -4.2 0
12/16/2020 4:30:00 AM 29.59444 85.27 0 7.28 -2.7 0
12/16/2020 4:45:00 AM 30.08889 86.16 0 7.27 -2.2 0
12/16/2020 5:00:00 AM 29 84.2 0 7.28 -4.2 0
12/16/2020 5:15:00 AM 28.92222 84.06 0 7.25 -4.3 0
12/16/2020 5:30:00 AM 28.93334 84.08 0 7.24 -4.4 0
12/16/2020 5:45:00 AM 28.57778 83.44 0 7.23 -3.1 0
12/16/2020 6:00:00 AM 28.72222 83.7 0 7.27 -2.4 0
12/16/2020 6:15:00 AM 28.56666 83.42 0 7.27 -5.4 0
12/16/2020 6:30:00 AM 28.42778 83.17 0 7.26 -0.9 0
12/16/2020 6:45:00 AM 28.30555 82.95 0 7.25 -1.6 0
12/16/2020 7:00:00 AM 28.57778 83.44 0 7.26 -6.8 0
12/16/2020 7:15:00 AM 27.21667 80.99 0 7.25 -5.1 0
12/16/2020 7:30:00 AM 28.29444 82.93 0 7.28 -2.7 0
12/16/2020 7:45:00 AM 28.16666 82.7 0 7.23 -2 0
12/16/2020 8:00:00 AM 37.77222 99.99 0 7 -999.9 0
12/16/2020 8:15:00 AM 37.77222 99.99 0 7 -999.9 0
12/16/2020 8:30:00 AM 37.77222 99.99 0 7 -999.9 0
12/16/2020 8:45:00 AM 37.77222 99.99 0 7 -999.9 0
12/16/2020 9:00:00 AM 37.77222 99.99 0 7 -999.9 0
12/16/2020 9:15:00 AM 37.77222 99.99 0 7 -999.9 0
12/16/2020 9:30:00 AM 37.77222 99.99 0 7 9999.9 0
12/16/2020 9:45:00 AM 37.77222 99.99 0 7 -999.9 0
12/16/2020 10:00:00 AM 37.77222 99.99 0 7 -999.9 0
12/16/2020 10:15:00 AM 37.77222 99.99 0 7 -999.9 0
12/16/2020 10:30:00 AM 37.77222 99.99 0 7 -999.9 0
12/16/2020 10:45:00 AM 37.77222 99.99 0 7 -999.9 0
12/16/2020 11:00:00 AM 37.77222 99.99 0 7 9999.9 0
12/16/2020 11:15:00 AM 37.77222 99.99 0 7 -999.9 0
12/16/2020 11:30:00 AM 37.77222 99.99 0 7 -999.9 0
12/16/2020 11:45:00 AM 37.77222 99.99 0 7 -999.9 0
12/16/2020 12:00:00 PM 37.77222 99.99 0 7 -999.9 0
12/16/2020 12:15:00 PM 37.77222 99.99 0 7 -999.9 0
12/16/2020 12:30:00 PM 37.77222 99.99 0 7 -999.9 0
12/16/2020 12:45:00 PM 37.77222 99.99 0 7 -999.9 0
12/16/2020 1:00:00 PM 37.77222 99.99 0 7 -999.9 0
12/16/2020 1:15:00 PM 37.77222 99.99 0 7 -999.9 0
12/16/2020 1:30:00 PM 37.77222 99.99 0 7 -999.9 0
12/16/2020 1:45:00 PM 37.77222 99.99 0 7 9999.9 0
12/16/2020 2:00:00 PM 37.77222 99.99 0 7 -999.9 0
12/16/2020 2:15:00 PM 37.77222 99.99 0 7 -999.9 0
12/16/2020 2:30:00 PM 37.77222 99.99 0 7 9999.9 0
12/16/2020 2:45:00 PM 37.77222 99.99 0 7 -999.9 0
12/16/2020 3:00:00 PM 37.77222 99.99 0 7 -999.9 0
12/16/2020 3:15:00 PM 37.77222 99.99 0 7 -999.9 0
12/16/2020 3:30:00 PM 37.77222 99.99 0 7 -999.9 0
12/16/2020 3:45:00 PM 37.77222 99.99 0 7 -999.9 0
12/16/2020 4:00:00 PM 37.77222 99.99 0 7 -999.9 0
12/16/2020 4:15:00 PM 37.77222 99.99 0 7 -999.9 0
12/16/2020 4:30:00 PM 37.77222 99.99 0 7 9999.9 0
12/16/2020 4:45:00 PM 37.77222 99.99 0 7 -999.9 0
12/16/2020 5:00:00 PM 37.77222 99.99 0 7 -999.9 0
12/16/2020 5:15:00 PM 37.77222 99.99 0 7 -999.9 0
12/16/2020 5:30:00 PM 37.77222 99.99 0 7 -999.9 0
12/16/2020 5:45:00 PM 37.77222 99.99 0 7 -999.9 0
12/16/2020 6:00:00 PM 37.77222 99.99 0 7 -999.9 0
12/16/2020 6:15:00 PM 37.77222 99.99 0 7 -999.9 0
12/16/2020 6:30:00 PM 37.77222 99.99 0 7 -999.9 0
12/16/2020 6:45:00 PM 37.77222 99.99 0 7 -999.9 0
12/16/2020 7:00:00 PM 37.77222 99.99 0 7 -999.9 0
12/16/2020 7:15:00 PM 37.77222 99.99 0 7 -999.9 0
12/16/2020 7:30:00 PM 37.77222 99.99 0 7 -999.9 0
12/16/2020 7:45:00 PM 37.77222 99.99 0 7 -999.9 0
12/16/2020 8:00:00 PM 37.77222 99.99 0 7 -999.9 0
12/16/2020 8:15:00 PM 37.77222 99.99 0 7 -999.9 0
12/16/2020 8:30:00 PM 37.77222 99.99 0 7 -999.9 0
12/16/2020 8:45:00 PM 37.77222 99.99 0 7 -999.9 0
12/16/2020 9:00:00 PM 37.77222 99.99 0 7 -999.9 0
12/16/2020 9:15:00 PM 37.77222 99.99 0 7 -999.9 0
12/16/2020 9:30:00 PM 37.77222 99.99 0 7 -999.9 0
12/16/2020 9:45:00 PM 37.77222 99.99 0 7 -999.9 0
12/16/2020 10:00:00 PM 37.77222 99.99 0 7 -999.9 0
12/16/2020 10:15:00 PM 37.77222 99.99 0 7 -999.9 0
12/16/2020 10:30:00 PM 37.77222 99.99 0 7 -999.9 0
12/16/2020 10:45:00 PM 37.77222 99.99 0 7 -999.9 0
12/16/2020 11:00:00 PM 37.77222 99.99 0 7 -999.9 0
12/16/2020 11:15:00 PM 37.77222 99.99 0 7 -999.9 0
12/16/2020 11:30:00 PM 37.77222 99.99 0 7 -999.9 0
12/16/2020 11:45:00 PM 37.77222 99.99 0 7 -999.9 0
12/17/2020 12:00:00 AM 37.77222 99.99 0 7 -999.9 0
12/17/2020 12:15:00 AM 37.77222 99.99 0 7 -999.9 0
12/17/2020 12:30:00 AM 37.77222 99.99 0 7 -999.9 0
12/17/2020 12:45:00 AM 37.77222 99.99 0 7 -999.9 0
12/17/2020 1:00:00 AM 37.77222 99.99 0 7 -999.9 0
12/17/2020 1:15:00 AM 37.77222 99.99 0 7 -999.9 0
12/17/2020 1:30:00 AM 37.77222 99.99 0 7 -999.9 0
12/17/2020 1:45:00 AM 37.77222 99.99 0 7 -999.9 0
12/17/2020 2:00:00 AM 37.77222 99.99 0 7 -999.9 0
12/17/2020 2:15:00 AM 37.77222 99.99 0 7 -999.9 0
12/17/2020 2:30:00 AM 37.77222 99.99 0 7 -999.9 0
12/17/2020 2:45:00 AM 37.77222 99.99 0 7 -999.9 0
12/17/2020 3:00:00 AM 37.77222 99.99 0 7 -999.9 0
12/17/2020 3:15:00 AM 37.77222 99.99 0 7 -999.9 0
12/17/2020 3:30:00 AM 37.77222 99.99 0 7 -999.9 0
12/17/2020 3:45:00 AM 37.77222 99.99 0 7 -999.9 0
12/17/2020 4:00:00 AM 37.77222 99.99 0 7 -999.9 0
12/17/2020 4:15:00 AM 37.77222 99.99 0 7 -999.9 0
12/17/2020 4:30:00 AM 37.77222 99.99 0 7 -999.9 0
12/17/2020 4:45:00 AM 37.77222 99.99 0 7 -999.9 0
12/17/2020 5:00:00 AM 37.77222 99.99 0 7 -999.9 0
12/17/2020 5:15:00 AM 37.77222 99.99 0 7 -999.9 0
12/17/2020 5:30:00 AM 37.77222 99.99 0 7 -999.9 0
12/17/2020 5:45:00 AM 37.77222 99.99 0 7 -999.9 0
12/17/2020 6:00:00 AM 37.77222 99.99 0 7 -999.9 0
12/17/2020 6:15:00 AM 37.77222 99.99 0 7 -999.9 0
12/17/2020 6:30:00 AM 37.77222 99.99 0 7 -999.9 0
12/17/2020 6:45:00 AM 37.77222 99.99 0 7 -999.9 0
12/17/2020 7:00:00 AM 37.77222 99.99 0 7 -999.9 0
12/17/2020 7:15:00 AM 37.77222 99.99 0 7 -999.9 0
12/17/2020 7:30:00 AM 37.77222 99.99 0 7 -999.9 0
12/17/2020 7:45:00 AM 37.77222 99.99 0 7 -999.9 0
12/17/2020 8:00:00 AM 37.77222 99.99 0 7 -999.9 0
12/17/2020 8:15:00 AM 37.77222 99.99 0 7 -999.9 0
12/17/2020 8:30:00 AM 37.77222 99.99 0 7 -999.9 0
12/17/2020 8:45:00 AM 37.77222 99.99 0 7 -999.9 0
12/17/2020 9:00:00 AM 37.77222 99.99 0 7 -999.9 0
12/17/2020 9:15:00 AM 37.77222 99.99 0 7 9999.9 0
12/17/2020 9:30:00 AM 37.77222 99.99 0 7 -999.9 0
12/17/2020 9:45:00 AM 37.77222 99.99 0 7 -999.9 0
12/17/2020 10:00:00 AM 37.77222 99.99 0 7 -999.9 0
12/17/2020 10:15:00 AM 37.77222 99.99 0 7 -999.9 0
12/17/2020 10:30:00 AM 37.77222 99.99 0 7 -999.9 0
12/17/2020 10:45:00 AM 37.77222 99.99 0 7 -999.9 0
12/17/2020 11:00:00 AM 37.77222 99.99 0 7 -999.9 0
12/17/2020 11:15:00 AM 37.77222 99.99 0 7 -999.9 0
12/17/2020 11:30:00 AM 37.77222 99.99 0 7 -999.9 0
12/17/2020 11:45:00 AM 37.77222 99.99 0 7 -999.9 0
12/17/2020 12:00:00 PM 37.77222 99.99 0 7 9999.9 0
12/17/2020 12:15:00 PM 37.77222 99.99 0 7 -999.9 0
12/17/2020 12:30:00 PM 37.77222 99.99 0 7 -999.9 0
12/17/2020 12:45:00 PM 37.77222 99.99 0 7 -999.9 0
12/17/2020 1:00:00 PM 37.77222 99.99 0 7 -999.9 0
12/17/2020 1:15:00 PM 37.77222 99.99 0 7 -999.9 0
12/17/2020 1:30:00 PM 37.77222 99.99 0 7 9999.9 0
12/17/2020 1:45:00 PM 37.77222 99.99 0 7 9999.9 0
12/17/2020 2:00:00 PM 37.77222 99.99 0 7 -999.9 0
12/17/2020 2:15:00 PM 37.77222 99.99 0 7 -999.9 0
12/17/2020 2:30:00 PM 37.77222 99.99 0 7 -999.9 0
12/17/2020 2:45:00 PM 37.77222 99.99 0 7 -999.9 0
12/17/2020 3:00:00 PM 37.77222 99.99 0 7 9999.9 0
12/17/2020 3:15:00 PM 37.77222 99.99 0 7 9999.9 0
12/17/2020 3:30:00 PM 37.77222 99.99 0 7 -999.9 0
12/17/2020 3:45:00 PM 37.77222 99.99 0 7 -999.9 0
12/17/2020 4:00:00 PM 37.77222 99.99 0 7 9999.9 0
12/17/2020 4:15:00 PM 37.77222 99.99 0 7 -999.9 0
12/17/2020 4:30:00 PM 37.77222 99.99 0 7 -999.9 0
12/17/2020 4:45:00 PM 37.77222 99.99 0 7 -999.9 0
12/17/2020 5:00:00 PM 37.77222 99.99 0 7 -999.9 0
12/17/2020 5:15:00 PM 37.77222 99.99 0 7 -999.9 0
12/17/2020 5:30:00 PM 37.77222 99.99 0 7 -999.9 0
12/17/2020 5:45:00 PM 37.77222 99.99 0 7 -999.9 0
12/17/2020 6:00:00 PM 37.77222 99.99 0 7 -999.9 0
12/17/2020 6:15:00 PM 37.77222 99.99 0 7 -999.9 0
12/17/2020 6:30:00 PM 37.77222 99.99 0 7 9999.9 0
12/17/2020 6:45:00 PM 37.77222 99.99 0 7 -999.9 0
12/17/2020 7:00:00 PM 37.77222 99.99 0 7 -999.9 0
12/17/2020 7:15:00 PM 37.77222 99.99 0 7 -999.9 0
12/17/2020 7:30:00 PM 37.77222 99.99 0 7 -999.9 0
12/17/2020 7:45:00 PM 37.77222 99.99 0 7 -999.9 0
12/17/2020 8:00:00 PM 37.77222 99.99 0 7 -999.9 0
12/17/2020 8:15:00 PM 37.77222 99.99 0 7 -999.9 0
12/17/2020 8:30:00 PM 37.77222 99.99 0 7 -999.9 0
12/17/2020 8:45:00 PM 37.77222 99.99 0 7 -999.9 0
12/17/2020 9:00:00 PM 37.77222 99.99 0 7 -999.9 0
12/17/2020 9:15:00 PM 37.77222 99.99 0 7 -999.9 0
12/17/2020 9:30:00 PM 37.77222 99.99 0 7 -999.9 0
12/17/2020 9:45:00 PM 37.77222 99.99 0 7 -999.9 0
12/17/2020 10:00:00 PM 37.77222 99.99 0 7 -999.9 0
12/17/2020 10:15:00 PM 37.77222 99.99 0 7 -999.9 0
12/17/2020 10:30:00 PM 37.77222 99.99 0 7 -999.9 0
12/17/2020 10:45:00 PM 37.77222 99.99 0 7 -999.9 0
12/17/2020 11:00:00 PM 37.77222 99.99 0 7 -999.9 0
12/17/2020 11:15:00 PM 37.77222 99.99 0 7 -999.9 0
12/17/2020 11:30:00 PM 37.77222 99.99 0 7 -999.9 0
12/17/2020 11:45:00 PM 37.77222 99.99 0 7 -999.9 0
12/18/2020 12:00:00 AM 37.77222 99.99 0 7 -999.9 0
12/18/2020 12:15:00 AM 37.77222 99.99 0 7 -999.9 0
12/18/2020 12:30:00 AM 37.77222 99.99 0 7 9999.9 0
12/18/2020 12:45:00 AM 37.77222 99.99 0 7 -999.9 0
12/18/2020 1:00:00 AM 37.77222 99.99 0 7 -999.9 0
12/18/2020 1:15:00 AM 37.77222 99.99 0 7 -999.9 0
12/18/2020 1:30:00 AM 37.77222 99.99 0 7 -999.9 0
12/18/2020 1:45:00 AM 37.77222 99.99 0 7 -999.9 0
12/18/2020 2:00:00 AM 37.77222 99.99 0 7 -999.9 0
12/18/2020 2:15:00 AM 37.77222 99.99 0 7 9999.9 0
12/18/2020 2:30:00 AM 37.77222 99.99 0 7 9999.9 0
12/18/2020 2:45:00 AM 37.77222 99.99 0 7 -999.9 0
12/18/2020 3:00:00 AM 37.77222 99.99 0 7 -999.9 0
12/18/2020 3:15:00 AM 37.77222 99.99 0 7 -999.9 0
12/18/2020 3:30:00 AM 37.77222 99.99 0 7 -999.9 0
12/18/2020 3:45:00 AM 37.77222 99.99 0 7 -999.9 0
12/18/2020 4:00:00 AM 37.77222 99.99 0 7 -999.9 0
12/18/2020 4:15:00 AM 37.77222 99.99 0 7 -999.9 0
12/18/2020 4:30:00 AM 37.77222 99.99 0 7 -999.9 0
12/18/2020 4:45:00 AM 37.77222 99.99 0 7 -999.9 0
12/18/2020 5:00:00 AM 37.77222 99.99 0 7 -999.9 0
12/18/2020 5:15:00 AM 37.77222 99.99 0 7 -999.9 0
12/18/2020 5:30:00 AM 37.77222 99.99 0 7 -999.9 0
12/18/2020 5:45:00 AM 37.77222 99.99 0 7 -999.9 0
12/18/2020 6:00:00 AM 37.77222 99.99 0 7 -999.9 0
12/18/2020 6:15:00 AM 37.77222 99.99 0 7 -999.9 0
12/18/2020 6:30:00 AM 37.77222 99.99 0 7 -999.9 0
12/18/2020 6:45:00 AM 37.77222 99.99 0 7 -999.9 0
12/18/2020 7:00:00 AM 37.77222 99.99 0 7 -999.9 0
12/18/2020 7:15:00 AM 37.77222 99.99 0 7 -999.9 0
12/18/2020 7:30:00 AM 37.77222 99.99 0 7 -999.9 0
12/18/2020 7:45:00 AM 37.77222 99.99 0 7 -999.9 0
12/18/2020 8:00:00 AM 37.77222 99.99 0 7 -999.9 0
12/18/2020 8:15:00 AM 37.77222 99.99 0 7 -999.9 0
12/18/2020 8:30:00 AM 37.77222 99.99 0 7 -999.9 0
12/18/2020 8:45:00 AM 37.77222 99.99 0 7 -999.9 0
12/18/2020 9:00:00 AM 37.77222 99.99 0 7 -999.9 0
12/18/2020 9:15:00 AM 37.77222 99.99 0 7 -999.9 0
12/18/2020 9:30:00 AM 37.77222 99.99 0 7 -999.9 0
12/18/2020 9:45:00 AM 37.77222 99.99 0 7 -999.9 0
12/18/2020 10:00:00 AM 37.77222 99.99 0 7 -999.9 0
12/18/2020 10:15:00 AM 37.77222 99.99 0 7 -999.9 0
12/18/2020 10:30:00 AM 37.77222 99.99 0 7 -999.9 0
12/18/2020 10:45:00 AM 37.77222 99.99 0 7 -999.9 0
12/18/2020 11:00:00 AM 37.77222 99.99 0 7 -999.9 0
12/18/2020 11:15:00 AM 37.77222 99.99 0 7 -999.9 0
12/18/2020 11:30:00 AM 37.77222 99.99 0 7 -999.9 0
12/18/2020 11:45:00 AM 37.77222 99.99 0 7 -999.9 0
12/18/2020 12:00:00 PM 37.77222 99.99 0 7 -999.9 0
12/18/2020 12:15:00 PM 37.77222 99.99 0 7 -999.9 0
12/18/2020 12:30:00 PM 37.77222 99.99 0 7 -999.9 0
12/18/2020 12:45:00 PM 37.77222 99.99 0 7 -999.9 0
12/18/2020 1:00:00 PM 37.77222 99.99 0 7 -999.9 0
12/18/2020 1:15:00 PM 37.77222 99.99 0 7 -999.9 0
12/18/2020 1:30:00 PM 37.77222 99.99 0 7 -999.9 0
12/18/2020 1:45:00 PM 37.77222 99.99 0 7 -999.9 0
12/18/2020 2:00:00 PM 37.77222 99.99 0 7 -999.9 0
12/18/2020 2:15:00 PM 37.77222 99.99 0 7 -999.9 0
12/18/2020 2:30:00 PM 37.77222 99.99 0 7 -999.9 0
12/18/2020 2:45:00 PM 37.77222 99.99 0 7 -999.9 0
12/18/2020 3:00:00 PM 37.77222 99.99 0 7 -999.9 0
12/18/2020 3:15:00 PM 37.77222 99.99 0 7 -999.9 0
12/18/2020 3:30:00 PM 37.77222 99.99 0 7 -999.9 0
12/18/2020 3:45:00 PM 37.77222 99.99 0 7 -999.9 0
12/18/2020 4:00:00 PM 37.77222 99.99 0 7 -999.9 0
12/18/2020 4:15:00 PM 37.77222 99.99 0 7 -999.9 0
12/18/2020 4:30:00 PM 37.77222 99.99 0 7 -999.9 0
12/18/2020 4:45:00 PM 37.77222 99.99 0 7 -999.9 0
12/18/2020 5:00:00 PM 37.77222 99.99 0 7 -999.9 0
12/18/2020 5:15:00 PM 37.77222 99.99 0 7 9999.9 0
12/18/2020 5:30:00 PM 37.77222 99.99 0 7 -999.9 0
12/18/2020 5:45:00 PM 37.77222 99.99 0 7 -999.9 0
12/18/2020 6:00:00 PM 37.77222 99.99 0 7 -999.9 0
12/18/2020 6:15:00 PM 37.77222 99.99 0 7 -999.9 0
12/18/2020 6:30:00 PM 37.77222 99.99 0 7 -999.9 0
12/18/2020 6:45:00 PM 37.77222 99.99 0 7 -999.9 0
12/18/2020 7:00:00 PM 37.77222 99.99 0 7 -999.9 0
12/18/2020 7:15:00 PM 37.77222 99.99 0 7 -999.9 0
12/18/2020 7:30:00 PM 37.77222 99.99 0 7 -999.9 0
12/18/2020 7:45:00 PM 37.77222 99.99 0 7 -999.9 0
12/18/2020 8:00:00 PM 37.77222 99.99 0 7 9999.9 0
12/18/2020 8:15:00 PM 37.77222 99.99 0 7 -999.9 0
12/18/2020 8:30:00 PM 37.77222 99.99 0 7 -999.9 0
12/18/2020 8:45:00 PM 37.77222 99.99 0 7 -999.9 0
12/18/2020 9:00:00 PM 37.77222 99.99 0 7 -999.9 0
12/18/2020 9:15:00 PM 37.77222 99.99 0 7 -999.9 0
12/18/2020 9:30:00 PM 37.77222 99.99 0 7 -999.9 0
12/18/2020 9:45:00 PM 37.77222 99.99 0 7 9999.9 0
12/18/2020 10:00:00 PM 37.77222 99.99 0 7 -999.9 0
12/18/2020 10:15:00 PM 37.77222 99.99 0 7 -999.9 0
12/18/2020 10:30:00 PM 37.77222 99.99 0 7 -999.9 0
12/18/2020 10:45:00 PM 37.77222 99.99 0 7 -999.9 0
12/18/2020 11:00:00 PM 37.77222 99.99 0 7 -999.9 0
12/18/2020 11:15:00 PM 37.77222 99.99 0 7 -999.9 0
12/18/2020 11:30:00 PM 37.77222 99.99 0 7 -999.9 0
12/18/2020 11:45:00 PM 37.77222 99.99 0 7 -999.9 0
12/19/2020 12:00:00 AM 37.77222 99.99 0 7 -999.9 0
12/19/2020 12:15:00 AM 37.77222 99.99 0 7 -999.9 0
12/19/2020 12:30:00 AM 37.77222 99.99 0 7 -999.9 0
12/19/2020 12:45:00 AM 37.77222 99.99 0 7 9999.9 0
12/19/2020 1:00:00 AM 37.77222 99.99 0 7 -999.9 0
12/19/2020 1:15:00 AM 37.77222 99.99 0 7 -999.9 0
12/19/2020 1:30:00 AM 37.77222 99.99 0 7 -999.9 0
12/19/2020 1:45:00 AM 37.77222 99.99 0 7 -999.9 0
12/19/2020 2:00:00 AM 37.77222 99.99 0 7 -999.9 0
12/19/2020 2:15:00 AM 37.77222 99.99 0 7 -999.9 0
12/19/2020 2:30:00 AM 37.77222 99.99 0 7 -999.9 0
12/19/2020 2:45:00 AM 37.77222 99.99 0 7 -999.9 0
12/19/2020 3:00:00 AM 37.77222 99.99 0 7 -999.9 0
12/19/2020 3:15:00 AM 37.77222 99.99 0 7 -999.9 0
12/19/2020 3:30:00 AM 37.77222 99.99 0 7 -999.9 0
12/19/2020 3:45:00 AM 37.77222 99.99 0 7 -999.9 0
12/19/2020 4:00:00 AM 37.77222 99.99 0 7 -999.9 0
12/19/2020 4:15:00 AM 37.77222 99.99 0 7 -999.9 0
12/19/2020 4:30:00 AM 37.77222 99.99 0 7 -999.9 0
12/19/2020 4:45:00 AM 37.77222 99.99 0 7 9999.9 0
12/19/2020 5:00:00 AM 37.77222 99.99 0 7 -999.9 0
12/19/2020 5:15:00 AM 37.77222 99.99 0 7 -999.9 0
12/19/2020 5:30:00 AM 37.77222 99.99 0 7 -999.9 0
12/19/2020 5:45:00 AM 37.77222 99.99 0 7 -999.9 0
12/19/2020 6:00:00 AM 37.77222 99.99 0 7 -999.9 0
12/19/2020 6:15:00 AM 37.77222 99.99 0 7 -999.9 0
12/19/2020 6:30:00 AM 37.77222 99.99 0 7 -999.9 0
12/19/2020 6:45:00 AM 37.77222 99.99 0 7 -999.9 0
12/19/2020 7:00:00 AM 37.77222 99.99 0 7 -999.9 0
12/19/2020 7:15:00 AM 37.77222 99.99 0 7 -999.9 0
12/19/2020 7:30:00 AM 37.77222 99.99 0 7 -999.9 0
12/19/2020 7:45:00 AM 37.77222 99.99 0 7 9999.9 0
12/19/2020 8:00:00 AM 37.77222 99.99 0 7 -999.9 0
12/19/2020 8:15:00 AM 37.77222 99.99 0 7 -999.9 0
12/19/2020 8:30:00 AM 37.77222 99.99 0 7 -999.9 0
12/19/2020 8:45:00 AM 37.77222 99.99 0 7 -999.9 0
12/19/2020 9:00:00 AM 37.77222 99.99 0 7 -999.9 0
12/19/2020 9:15:00 AM 37.77222 99.99 0 7 9999.9 0
12/19/2020 9:30:00 AM 37.77222 99.99 0 7 -999.9 0
12/19/2020 9:45:00 AM 37.77222 99.99 0 7 -999.9 0
12/19/2020 10:00:00 AM 37.77222 99.99 0 7 -999.9 0
12/19/2020 10:15:00 AM 37.77222 99.99 0 7 -999.9 0
12/19/2020 10:30:00 AM 37.77222 99.99 0 7 -999.9 0
12/19/2020 10:45:00 AM 37.77222 99.99 0 7 -999.9 0
12/19/2020 11:00:00 AM 37.77222 99.99 0 7 -999.9 0
12/19/2020 11:15:00 AM 37.77222 99.99 0 7 -999.9 0
12/19/2020 11:30:00 AM 37.77222 99.99 0 7 -999.9 0
12/19/2020 11:45:00 AM 37.77222 99.99 0 7 -999.9 0
12/19/2020 12:00:00 PM 37.77222 99.99 0 7 -999.9 0
12/19/2020 12:15:00 PM 37.77222 99.99 0 7 -999.9 0
12/19/2020 12:30:00 PM 37.77222 99.99 0 7 -999.9 0
12/19/2020 12:45:00 PM 37.77222 99.99 0 7 -999.9 0
12/19/2020 1:00:00 PM 37.77222 99.99 0 7 -999.9 0
12/19/2020 1:15:00 PM 37.77222 99.99 0 7 -999.9 0
12/19/2020 1:30:00 PM 37.77222 99.99 0 7 -999.9 0
12/19/2020 1:45:00 PM 37.77222 99.99 0 7 9999.9 0
12/19/2020 2:00:00 PM 37.77222 99.99 0 7 -999.9 0
12/19/2020 2:15:00 PM 37.77222 99.99 0 7 -999.9 0
12/19/2020 2:30:00 PM 37.77222 99.99 0 7 -999.9 0
12/19/2020 2:45:00 PM 37.77222 99.99 0 7 -999.9 0
12/19/2020 3:00:00 PM 37.77222 99.99 0 7 9999.9 0
12/19/2020 3:15:00 PM 37.77222 99.99 0 7 -999.9 0
12/19/2020 3:30:00 PM 37.77222 99.99 0 7 -999.9 0
12/19/2020 3:45:00 PM 37.77222 99.99 0 7 -999.9 0
12/19/2020 4:00:00 PM 37.77222 99.99 0 7 -999.9 0
12/19/2020 4:15:00 PM 37.77222 99.99 0 7 9999.9 0
12/19/2020 4:30:00 PM 37.77222 99.99 0 7 -999.9 0
12/19/2020 4:45:00 PM 37.77222 99.99 0 7 -999.9 0
12/19/2020 5:00:00 PM 37.77222 99.99 0 7 9999.9 0
12/19/2020 5:15:00 PM 37.77222 99.99 0 7 -999.9 0
12/19/2020 5:30:00 PM 37.77222 99.99 0 7 -999.9 0
12/19/2020 5:45:00 PM 37.77222 99.99 0 7 -999.9 0
12/19/2020 6:00:00 PM 37.77222 99.99 0 7 9999.9 0
12/19/2020 6:15:00 PM 37.77222 99.99 0 7 -999.9 0
12/19/2020 6:30:00 PM 37.77222 99.99 0 7 -999.9 0
12/19/2020 6:45:00 PM 37.77222 99.99 0 7 -999.9 0
12/19/2020 7:00:00 PM 37.77222 99.99 0 7 -999.9 0
12/19/2020 7:15:00 PM 37.77222 99.99 0 7 -999.9 0
12/19/2020 7:30:00 PM 37.77222 99.99 0 7 -999.9 0
12/19/2020 7:45:00 PM 37.77222 99.99 0 7 -999.9 0
12/19/2020 8:00:00 PM 37.77222 99.99 0 7 -999.9 0
12/19/2020 8:15:00 PM 37.77222 99.99 0 7 -999.9 0
12/19/2020 8:30:00 PM 37.77222 99.99 0 7 -999.9 0
12/19/2020 8:45:00 PM 37.77222 99.99 0 7 -999.9 0
12/19/2020 9:00:00 PM 37.77222 99.99 0 7 -999.9 0
12/19/2020 9:15:00 PM 37.77222 99.99 0 7 -999.9 0
12/19/2020 9:30:00 PM 37.77222 99.99 0 7 -999.9 0
12/19/2020 9:45:00 PM 37.77222 99.99 0 7 -999.9 0
12/19/2020 10:00:00 PM 37.77222 99.99 0 7 9999.9 0
12/19/2020 10:15:00 PM 37.77222 99.99 0 7 -999.9 0
12/19/2020 10:30:00 PM 37.77222 99.99 0 7 -999.9 0
12/19/2020 10:45:00 PM 37.77222 99.99 0 7 -999.9 0
12/19/2020 11:00:00 PM 37.77222 99.99 0 7 -999.9 0
12/19/2020 11:15:00 PM 37.77222 99.99 0 7 -999.9 0
12/19/2020 11:30:00 PM 37.77222 99.99 0 7 -999.9 0
12/19/2020 11:45:00 PM 37.77222 99.99 0 7 -999.9 0
12/20/2020 12:00:00 AM 37.77222 99.99 0 7 -999.9 0
12/20/2020 12:15:00 AM 37.77222 99.99 0 7 -999.9 0
12/20/2020 12:30:00 AM 37.77222 99.99 0 7 -999.9 0
12/20/2020 12:45:00 AM 37.77222 99.99 0 7 -999.9 0
12/20/2020 1:00:00 AM 37.77222 99.99 0 7 -999.9 0
12/20/2020 1:15:00 AM 37.77222 99.99 0 7 -999.9 0
12/20/2020 1:30:00 AM 37.77222 99.99 0 7 -999.9 0
12/20/2020 1:45:00 AM 37.77222 99.99 0 7 -999.9 0
12/20/2020 2:00:00 AM 37.77222 99.99 0 7 -999.9 0
12/20/2020 2:15:00 AM 37.77222 99.99 0 7 -999.9 0
12/20/2020 2:30:00 AM 37.77222 99.99 0 7 -999.9 0
12/20/2020 2:45:00 AM 37.77222 99.99 0 7 -999.9 0
12/20/2020 3:00:00 AM 37.77222 99.99 0 7 -999.9 0
12/20/2020 3:15:00 AM 37.77222 99.99 0 7 -999.9 0
12/20/2020 3:30:00 AM 37.77222 99.99 0 7 -999.9 0
12/20/2020 3:45:00 AM 37.77222 99.99 0 7 -999.9 0
12/20/2020 4:00:00 AM 37.77222 99.99 0 7 -999.9 0
12/20/2020 4:15:00 AM 37.77222 99.99 0 7 -999.9 0
12/20/2020 4:30:00 AM 37.77222 99.99 0 7 -999.9 0
12/20/2020 4:45:00 AM 37.77222 99.99 0 7 -999.9 0
12/20/2020 5:00:00 AM 37.77222 99.99 0 7 9999.9 0
12/20/2020 5:15:00 AM 37.77222 99.99 0 7 -999.9 0
12/20/2020 5:30:00 AM 37.77222 99.99 0 7 -999.9 0
12/20/2020 5:45:00 AM 37.77222 99.99 0 7 9999.9 0
12/20/2020 6:00:00 AM 37.77222 99.99 0 7 -999.9 0
12/20/2020 6:15:00 AM 37.77222 99.99 0 7 -999.9 0
12/20/2020 6:30:00 AM 37.77222 99.99 0 7 -999.9 0
12/20/2020 6:45:00 AM 37.77222 99.99 0 7 -999.9 0
12/20/2020 7:00:00 AM 37.77222 99.99 0 7 -999.9 0
12/20/2020 7:15:00 AM 37.77222 99.99 0 7 -999.9 0
12/20/2020 7:30:00 AM 37.77222 99.99 0 7 -999.9 0
12/20/2020 7:45:00 AM 37.77222 99.99 0 7 -999.9 0
12/20/2020 8:00:00 AM 37.77222 99.99 0 7 9999.9 0
12/20/2020 8:15:00 AM 37.77222 99.99 0 7 -999.9 0
12/20/2020 8:30:00 AM 37.77222 99.99 0 7 -999.9 0
12/20/2020 8:45:00 AM 37.77222 99.99 0 7 -999.9 0
12/20/2020 9:00:00 AM 37.77222 99.99 0 7 -999.9 0
12/20/2020 9:15:00 AM 37.77222 99.99 0 7 -999.9 0
12/20/2020 9:30:00 AM 37.77222 99.99 0 7 -999.9 0
12/20/2020 9:45:00 AM 37.77222 99.99 0 7 -999.9 0
12/20/2020 10:00:00 AM 37.77222 99.99 0 7 -999.9 0
12/20/2020 10:15:00 AM 37.77222 99.99 0 7 -999.9 0
12/20/2020 10:30:00 AM 37.77222 99.99 0 7 -999.9 0
12/20/2020 10:45:00 AM 37.77222 99.99 0 7 -999.9 0
12/20/2020 11:00:00 AM 37.77222 99.99 0 7 -999.9 0
12/20/2020 11:15:00 AM 37.77222 99.99 0 7 -999.9 0
12/20/2020 11:30:00 AM 37.77222 99.99 0 7 9999.9 0
12/20/2020 11:45:00 AM 37.77222 99.99 0 7 -999.9 0
12/20/2020 12:00:00 PM 37.77222 99.99 0 7 -999.9 0
12/20/2020 12:15:00 PM 37.77222 99.99 0 7 -999.9 0
12/20/2020 12:30:00 PM 37.77222 99.99 0 7 -999.9 0
12/20/2020 12:45:00 PM 37.77222 99.99 0 7 -999.9 0
12/20/2020 1:00:00 PM 37.77222 99.99 0 7 -999.9 0
12/20/2020 1:15:00 PM 37.77222 99.99 0 7 -999.9 0
12/20/2020 1:30:00 PM 37.77222 99.99 0 7 -999.9 0
12/20/2020 1:45:00 PM 37.77222 99.99 0 7 -999.9 0
12/20/2020 2:00:00 PM 37.77222 99.99 0 7 -999.9 0
12/20/2020 2:15:00 PM 37.77222 99.99 0 7 -999.9 0
12/20/2020 2:30:00 PM 37.77222 99.99 0 7 -999.9 0
12/20/2020 2:45:00 PM 37.77222 99.99 0 7 9999.9 0
12/20/2020 3:00:00 PM 37.77222 99.99 0 7 -999.9 0
12/20/2020 3:15:00 PM 37.77222 99.99 0 7 -999.9 0
12/20/2020 3:30:00 PM 37.77222 99.99 0 7 9999.9 0
12/20/2020 3:45:00 PM 37.77222 99.99 0 7 -999.9 0
12/20/2020 4:00:00 PM 37.77222 99.99 0 7 -999.9 0
12/20/2020 4:15:00 PM 37.77222 99.99 0 7 -999.9 0
12/20/2020 4:30:00 PM 37.77222 99.99 0 7 -999.9 0
12/20/2020 4:45:00 PM 37.77222 99.99 0 7 -999.9 0
12/20/2020 5:00:00 PM 37.77222 99.99 0 7 9999.9 0
12/20/2020 5:15:00 PM 37.77222 99.99 0 7 -999.9 0
12/20/2020 5:30:00 PM 37.77222 99.99 0 7 -999.9 0
12/20/2020 5:45:00 PM 37.77222 99.99 0 7 -999.9 0
12/20/2020 6:00:00 PM 37.77222 99.99 0 7 -999.9 0
12/20/2020 6:15:00 PM 37.77222 99.99 0 7 -999.9 0
12/20/2020 6:30:00 PM 37.77222 99.99 0 7 -999.9 0
12/20/2020 6:45:00 PM 37.77222 99.99 0 7 9999.9 0
12/20/2020 7:00:00 PM 37.77222 99.99 0 7 -999.9 0
12/20/2020 7:15:00 PM 37.77222 99.99 0 7 -999.9 0
12/20/2020 7:30:00 PM 37.77222 99.99 0 7 -999.9 0
12/20/2020 7:45:00 PM 37.77222 99.99 0 7 -999.9 0
12/20/2020 8:00:00 PM 37.77222 99.99 0 7 -999.9 0
12/20/2020 8:15:00 PM 37.77222 99.99 0 7 -999.9 0
12/20/2020 8:30:00 PM 37.77222 99.99 0 7 -999.9 0
12/20/2020 8:45:00 PM 37.77222 99.99 0 7 -999.9 0
12/20/2020 9:00:00 PM 37.77222 99.99 0 7 -999.9 0
12/20/2020 9:15:00 PM 37.77222 99.99 0 7 9999.9 0
12/20/2020 9:30:00 PM 37.77222 99.99 0 7 -999.9 0
12/20/2020 9:45:00 PM 37.77222 99.99 0 7 -999.9 0
12/20/2020 10:00:00 PM 37.77222 99.99 0 7 -999.9 0
12/20/2020 10:15:00 PM 37.77222 99.99 0 7 -999.9 0
12/20/2020 10:30:00 PM 37.77222 99.99 0 7 -999.9 0
12/20/2020 10:45:00 PM 37.77222 99.99 0 7 -999.9 0
12/20/2020 11:00:00 PM 37.77222 99.99 0 7 -999.9 0
12/20/2020 11:15:00 PM 37.77222 99.99 0 7 -999.9 0
12/20/2020 11:30:00 PM 37.77222 99.99 0 7 -999.9 0
12/20/2020 11:45:00 PM 37.77222 99.99 0 7 -999.9 0
12/21/2020 12:00:00 AM 37.77222 99.99 0 7 -999.9 0
12/21/2020 12:15:00 AM 37.77222 99.99 0 7 -999.9 0
12/21/2020 12:30:00 AM 37.77222 99.99 0 7 -999.9 0
12/21/2020 12:45:00 AM 37.77222 99.99 0 7 -999.9 0
12/21/2020 1:00:00 AM 37.77222 99.99 0 7 -999.9 0
12/21/2020 1:15:00 AM 37.77222 99.99 0 7 9999.9 0
12/21/2020 1:30:00 AM 37.77222 99.99 0 7 -999.9 0
12/21/2020 1:45:00 AM 37.77222 99.99 0 7 -999.9 0
12/21/2020 2:00:00 AM 37.77222 99.99 0 7 -999.9 0
12/21/2020 2:15:00 AM 37.77222 99.99 0 7 -999.9 0
12/21/2020 2:30:00 AM 37.77222 99.99 0 7 -999.9 0
12/21/2020 2:45:00 AM 37.77222 99.99 0 7 -999.9 0
12/21/2020 3:00:00 AM 37.77222 99.99 0 7 -999.9 0
12/21/2020 3:15:00 AM 37.77222 99.99 0 7 -999.9 0
12/21/2020 3:30:00 AM 37.77222 99.99 0 7 -999.9 0
12/21/2020 3:45:00 AM 37.77222 99.99 0 7 -999.9 0
12/21/2020 4:00:00 AM 37.77222 99.99 0 7 -999.9 0
12/21/2020 4:15:00 AM 37.77222 99.99 0 7 -999.9 0
12/21/2020 4:30:00 AM 37.77222 99.99 0 7 -999.9 0
12/21/2020 4:45:00 AM 37.77222 99.99 0 7 -999.9 0
12/21/2020 5:00:00 AM 37.77222 99.99 0 7 -999.9 0
12/21/2020 5:15:00 AM 37.77222 99.99 0 7 -999.9 0
12/21/2020 5:30:00 AM 37.77222 99.99 0 7 -999.9 0
12/21/2020 5:45:00 AM 37.77222 99.99 0 7 -999.9 0
12/21/2020 6:00:00 AM 37.77222 99.99 0 7 -999.9 0
12/21/2020 6:15:00 AM 37.77222 99.99 0 7 -999.9 0
12/21/2020 6:30:00 AM 37.77222 99.99 0 7 -999.9 0
12/21/2020 6:45:00 AM 37.77222 99.99 0 7 -999.9 0
12/21/2020 7:00:00 AM 37.77222 99.99 0 7 9999.9 0
12/21/2020 7:15:00 AM 37.77222 99.99 0 7 -999.9 0
12/21/2020 7:30:00 AM 37.77222 99.99 0 7 -999.9 0
12/21/2020 7:45:00 AM 37.77222 99.99 0 7 9999.9 0
12/21/2020 8:00:00 AM 37.77222 99.99 0 7 -999.9 0
12/21/2020 8:15:00 AM 37.77222 99.99 0 7 -999.9 0
12/21/2020 8:30:00 AM 37.77222 99.99 0 7 -999.9 0
12/21/2020 8:45:00 AM 37.77222 99.99 0 7 -999.9 0
12/21/2020 9:00:00 AM 37.77222 99.99 0 7 -999.9 0
12/21/2020 9:15:00 AM 37.77222 99.99 0 7 -999.9 0
12/21/2020 9:30:00 AM 37.77222 99.99 0 7 9999.9 0
12/21/2020 9:45:00 AM 37.77222 99.99 0 7 -999.9 0
12/21/2020 10:00:00 AM 37.77222 99.99 0 7 -999.9 0
12/21/2020 10:15:00 AM 37.77222 99.99 0 7 -999.9 0
12/21/2020 10:30:00 AM 37.77222 99.99 0 7 -999.9 0
12/21/2020 10:45:00 AM 37.77222 99.99 0 7 -999.9 0
12/21/2020 11:00:00 AM 37.77222 99.99 0 7 -999.9 0
12/21/2020 11:15:00 AM 37.77222 99.99 0 7 -999.9 0
12/21/2020 11:30:00 AM 37.77222 99.99 0 7 -999.9 0
12/21/2020 11:45:00 AM 37.77222 99.99 0 7 -999.9 0
12/21/2020 12:00:00 PM 37.77222 99.99 0 7 -999.9 0
12/21/2020 12:15:00 PM 37.77222 99.99 0 7 -999.9 0
12/21/2020 12:30:00 PM 37.77222 99.99 0 7 -999.9 0
12/21/2020 12:45:00 PM 37.77222 99.99 0 7 -999.9 0
12/21/2020 1:00:00 PM 37.77222 99.99 0 7 9999.9 0
12/21/2020 1:15:00 PM 37.77222 99.99 0 7 -999.9 0
12/21/2020 1:30:00 PM 37.77222 99.99 0 7 -999.9 0
12/21/2020 1:45:00 PM 37.77222 99.99 0 7 -999.9 0
12/21/2020 2:00:00 PM 37.77222 99.99 0 7 -999.9 0
12/21/2020 2:15:00 PM 37.77222 99.99 0 7 -999.9 0
12/21/2020 2:30:00 PM 37.77222 99.99 0 7 -999.9 0
12/21/2020 2:45:00 PM 37.77222 99.99 0 7 -999.9 0
12/21/2020 3:00:00 PM 37.77222 99.99 0 7 -999.9 0
12/21/2020 3:15:00 PM 37.77222 99.99 0 7 -999.9 0
12/21/2020 3:30:00 PM 37.77222 99.99 0 7 -999.9 0
12/21/2020 3:45:00 PM 37.77222 99.99 0 7 -999.9 0
12/21/2020 4:00:00 PM 37.77222 99.99 0 7 -999.9 0
12/21/2020 4:15:00 PM 37.77222 99.99 0 7 -999.9 0
12/21/2020 4:30:00 PM 37.77222 99.99 0 7 -999.9 0
12/21/2020 4:45:00 PM 37.77222 99.99 0 7 -999.9 0
12/21/2020 5:00:00 PM 37.77222 99.99 0 7 -999.9 0
12/21/2020 5:15:00 PM 37.77222 99.99 0 7 -999.9 0
12/21/2020 5:30:00 PM 37.77222 99.99 0 7 -999.9 0
12/21/2020 5:45:00 PM 37.77222 99.99 0 7 -999.9 0
12/21/2020 6:00:00 PM 37.77222 99.99 0 7 -999.9 0
12/21/2020 6:15:00 PM 37.77222 99.99 0 7 -999.9 0
12/21/2020 6:30:00 PM 37.77222 99.99 0 7 -999.9 0
12/21/2020 6:45:00 PM 37.77222 99.99 0 7 -999.9 0
12/21/2020 7:00:00 PM 37.77222 99.99 0 7 -999.9 0
12/21/2020 7:15:00 PM 37.77222 99.99 0 7 -999.9 0
12/21/2020 7:30:00 PM 37.77222 99.99 0 7 -999.9 0
12/21/2020 7:45:00 PM 37.77222 99.99 0 7 -999.9 0
12/21/2020 8:00:00 PM 37.77222 99.99 0 7 -999.9 0
12/21/2020 8:15:00 PM 37.77222 99.99 0 7 -999.9 0
12/21/2020 8:30:00 PM 37.77222 99.99 0 7 -999.9 0
12/21/2020 8:45:00 PM 37.77222 99.99 0 7 -999.9 0
12/21/2020 9:00:00 PM 37.77222 99.99 0 7 -999.9 0
12/21/2020 9:15:00 PM 37.77222 99.99 0 7 -999.9 0
12/21/2020 9:30:00 PM 37.77222 99.99 0 7 -999.9 0
12/21/2020 9:45:00 PM 37.77222 99.99 0 7 9999.9 0
12/21/2020 10:00:00 PM 37.77222 99.99 0 7 -999.9 0
12/21/2020 10:15:00 PM 37.77222 99.99 0 7 -999.9 0
12/21/2020 10:30:00 PM 37.77222 99.99 0 7 -999.9 0
12/21/2020 10:45:00 PM 37.77222 99.99 0 7 9999.9 0
12/21/2020 11:00:00 PM 37.77222 99.99 0 7 -999.9 0
12/21/2020 11:15:00 PM 37.77222 99.99 0 7 -999.9 0
12/21/2020 11:30:00 PM 37.77222 99.99 0 7 -999.9 0
12/21/2020 11:45:00 PM 37.77222 99.99 0 7 -999.9 0
12/22/2020 12:00:00 AM 37.77222 99.99 0 7 -999.9 0
12/22/2020 12:15:00 AM 37.77222 99.99 0 7 -999.9 0
12/22/2020 12:30:00 AM 37.77222 99.99 0 7 -999.9 0
12/22/2020 12:45:00 AM 37.77222 99.99 0 7 -999.9 0
12/22/2020 1:00:00 AM 37.77222 99.99 0 7 -999.9 0
12/22/2020 1:15:00 AM 37.77222 99.99 0 7 -999.9 0
12/22/2020 1:30:00 AM 37.77222 99.99 0 7 -999.9 0
12/22/2020 1:45:00 AM 37.77222 99.99 0 7 -999.9 0
12/22/2020 2:00:00 AM 37.77222 99.99 0 7 -999.9 0
12/22/2020 2:15:00 AM 37.77222 99.99 0 7 -999.9 0
12/22/2020 2:30:00 AM 37.77222 99.99 0 7 -999.9 0
12/22/2020 2:45:00 AM 37.77222 99.99 0 7 -999.9 0
12/22/2020 3:00:00 AM 37.77222 99.99 0 7 -999.9 0
12/22/2020 3:15:00 AM 37.77222 99.99 0 7 -999.9 0
12/22/2020 3:30:00 AM 37.77222 99.99 0 7 -999.9 0
12/22/2020 3:45:00 AM 37.77222 99.99 0 7 -999.9 0
12/22/2020 4:00:00 AM 37.77222 99.99 0 7 -999.9 0
12/22/2020 4:15:00 AM 37.77222 99.99 0 7 -999.9 0
12/22/2020 4:30:00 AM 37.77222 99.99 0 7 -999.9 0
12/22/2020 4:45:00 AM 37.77222 99.99 0 7 -999.9 0
12/22/2020 5:00:00 AM 37.77222 99.99 0 7 -999.9 0
12/22/2020 5:15:00 AM 37.77222 99.99 0 7 9999.9 0
12/22/2020 5:30:00 AM 37.77222 99.99 0 7 -999.9 0
12/22/2020 5:45:00 AM 37.77222 99.99 0 7 -999.9 0
12/22/2020 6:00:00 AM 37.77222 99.99 0 7 -999.9 0
12/22/2020 6:15:00 AM 37.77222 99.99 0 7 -999.9 0
12/22/2020 6:30:00 AM 37.77222 99.99 0 7 -999.9 0
12/22/2020 6:45:00 AM 37.77222 99.99 0 7 -999.9 0
12/22/2020 7:00:00 AM 37.77222 99.99 0 7 -999.9 0
12/22/2020 7:15:00 AM 37.77222 99.99 0 7 -999.9 0
12/22/2020 7:30:00 AM 37.77222 99.99 0 7 9999.9 0
12/22/2020 7:45:00 AM 37.77222 99.99 0 7 -999.9 0
12/22/2020 8:00:00 AM 37.77222 99.99 0 7 9999.9 0
12/22/2020 8:15:00 AM 37.77222 99.99 0 7 -999.9 0
12/22/2020 8:30:00 AM 37.77222 99.99 0 7 -999.9 0
12/22/2020 8:45:00 AM 37.77222 99.99 0 7 9999.9 0
12/22/2020 9:00:00 AM 37.77222 99.99 0 7 -999.9 0
12/22/2020 9:15:00 AM 37.77222 99.99 0 7 -999.9 0
12/22/2020 9:30:00 AM 37.77222 99.99 0 7 -999.9 0
12/22/2020 9:45:00 AM 37.77222 99.99 0 7 -999.9 0
12/22/2020 10:00:00 AM 37.77222 99.99 0 7 -999.9 0
12/22/2020 10:15:00 AM 37.77222 99.99 0 7 -999.9 0
12/22/2020 10:30:00 AM 37.77222 99.99 0 7 -999.9 0
12/22/2020 10:45:00 AM 37.77222 99.99 0 7 -999.9 0
12/22/2020 11:00:00 AM 37.77222 99.99 0 7 -999.9 0
12/22/2020 11:15:00 AM 37.77222 99.99 0 7 -999.9 0
12/22/2020 11:30:00 AM 37.77222 99.99 0 7 -999.9 0
12/22/2020 11:45:00 AM 37.77222 99.99 0 7 -999.9 0
12/22/2020 12:00:00 PM 37.77222 99.99 0 7 -999.9 0
12/22/2020 12:15:00 PM 37.77222 99.99 0 7 -999.9 0
12/22/2020 12:30:00 PM 37.77222 99.99 0 7 -999.9 0
12/22/2020 12:45:00 PM 37.77222 99.99 0 7 -999.9 0
12/22/2020 1:00:00 PM 37.77222 99.99 0 7 -999.9 0
12/22/2020 1:15:00 PM 37.77222 99.99 0 7 -999.9 0
12/22/2020 1:30:00 PM 37.77222 99.99 0 7 -999.9 0
12/22/2020 1:45:00 PM 37.77222 99.99 0 7 -999.9 0
12/22/2020 2:00:00 PM 37.77222 99.99 0 7 -999.9 0
12/22/2020 2:15:00 PM 37.77222 99.99 0 7 9999.9 0
12/22/2020 2:30:00 PM 37.77222 99.99 0 7 -999.9 0
12/22/2020 2:45:00 PM 37.77222 99.99 0 7 -999.9 0
12/22/2020 3:00:00 PM 37.77222 99.99 0 7 -999.9 0
12/22/2020 3:15:00 PM 37.77222 99.99 0 7 -999.9 0
12/22/2020 3:30:00 PM 37.77222 99.99 0 7 -999.9 0
12/22/2020 3:45:00 PM 37.77222 99.99 0 7 -999.9 0
12/22/2020 4:00:00 PM 37.77222 99.99 0 7 -999.9 0
12/22/2020 4:15:00 PM 37.77222 99.99 0 7 -999.9 0
12/22/2020 4:30:00 PM 37.77222 99.99 0 7 -999.9 0
12/22/2020 4:45:00 PM 37.77222 99.99 0 7 -999.9 0
12/22/2020 5:00:00 PM 37.77222 99.99 0 7 -999.9 0
12/22/2020 5:15:00 PM 37.77222 99.99 0 7 -999.9 0
12/22/2020 5:30:00 PM 37.77222 99.99 0 7 9999.9 0
12/22/2020 5:45:00 PM 37.77222 99.99 0 7 -999.9 0
12/22/2020 6:00:00 PM 37.77222 99.99 0 7 -999.9 0
12/22/2020 6:15:00 PM 37.77222 99.99 0 7 -999.9 0
12/22/2020 6:30:00 PM 37.77222 99.99 0 7 -999.9 0
12/22/2020 6:45:00 PM 37.77222 99.99 0 7 9999.9 0
12/22/2020 7:00:00 PM 37.77222 99.99 0 7 -999.9 0
12/22/2020 7:15:00 PM 37.77222 99.99 0 7 -999.9 0
12/22/2020 7:30:00 PM 37.77222 99.99 0 7 -999.9 0
12/22/2020 7:45:00 PM 37.77222 99.99 0 7 -999.9 0
12/22/2020 8:00:00 PM 37.77222 99.99 0 7 -999.9 0
12/22/2020 8:15:00 PM 37.77222 99.99 0 7 -999.9 0
12/22/2020 8:30:00 PM 37.77222 99.99 0 7 -999.9 0
12/22/2020 8:45:00 PM 37.77222 99.99 0 7 9999.9 0
12/22/2020 9:00:00 PM 37.77222 99.99 0 7 -999.9 0
12/22/2020 9:15:00 PM 37.77222 99.99 0 7 -999.9 0
12/22/2020 9:30:00 PM 37.77222 99.99 0 7 -999.9 0
12/22/2020 9:45:00 PM 37.77222 99.99 0 7 -999.9 0
12/22/2020 10:00:00 PM 37.77222 99.99 0 7 -999.9 0
12/22/2020 10:15:00 PM 37.77222 99.99 0 7 -999.9 0
12/22/2020 10:30:00 PM 37.77222 99.99 0 7 -999.9 0
12/22/2020 10:45:00 PM 37.77222 99.99 0 7 9999.9 0
12/22/2020 11:00:00 PM 37.77222 99.99 0 7 -999.9 0
12/22/2020 11:15:00 PM 37.77222 99.99 0 7 -999.9 0
12/22/2020 11:30:00 PM 37.77222 99.99 0 7 -999.9 0
12/22/2020 11:45:00 PM 37.77222 99.99 0 7 -999.9 0
12/23/2020 12:00:00 AM 37.77222 99.99 0 7 -999.9 0
12/23/2020 12:15:00 AM 37.77222 99.99 0 7 -999.9 0
12/23/2020 12:30:00 AM 37.77222 99.99 0 7 -999.9 0
12/23/2020 12:45:00 AM 37.77222 99.99 0 7 9999.9 0
12/23/2020 1:00:00 AM 37.77222 99.99 0 7 -999.9 0
12/23/2020 1:15:00 AM 37.77222 99.99 0 7 -999.9 0
12/23/2020 1:30:00 AM 37.77222 99.99 0 7 -999.9 0
12/23/2020 1:45:00 AM 37.77222 99.99 0 7 -999.9 0
12/23/2020 2:00:00 AM 37.77222 99.99 0 7 -999.9 0
12/23/2020 2:15:00 AM 37.77222 99.99 0 7 -999.9 0
12/23/2020 2:30:00 AM 37.77222 99.99 0 7 -999.9 0
12/23/2020 2:45:00 AM 37.77222 99.99 0 7 -999.9 0
12/23/2020 3:00:00 AM 37.77222 99.99 0 7 -999.9 0
12/23/2020 3:15:00 AM 37.77222 99.99 0 7 -999.9 0
12/23/2020 3:30:00 AM 37.77222 99.99 0 7 -999.9 0
12/23/2020 3:45:00 AM 37.77222 99.99 0 7 9999.9 0
12/23/2020 4:00:00 AM 37.77222 99.99 0 7 -999.9 0
12/23/2020 4:15:00 AM 37.77222 99.99 0 7 -999.9 0
12/23/2020 4:30:00 AM 37.77222 99.99 0 7 -999.9 0
12/23/2020 4:45:00 AM 37.77222 99.99 0 7 9999.9 0
12/23/2020 5:00:00 AM 37.77222 99.99 0 7 -999.9 0
12/23/2020 5:15:00 AM 37.77222 99.99 0 7 -999.9 0
12/23/2020 5:30:00 AM 37.77222 99.99 0 7 -999.9 0
12/23/2020 5:45:00 AM 37.77222 99.99 0 7 -999.9 0
12/23/2020 6:00:00 AM 37.77222 99.99 0 7 -999.9 0
12/23/2020 6:15:00 AM 37.77222 99.99 0 7 -999.9 0
12/23/2020 6:30:00 AM 37.77222 99.99 0 7 -999.9 0
12/23/2020 6:45:00 AM 37.77222 99.99 0 7 -999.9 0
12/23/2020 7:00:00 AM 37.77222 99.99 0 7 -999.9 0
12/23/2020 7:15:00 AM 37.77222 99.99 0 7 -999.9 0
12/23/2020 7:30:00 AM 37.77222 99.99 0 7 -999.9 0
12/23/2020 7:45:00 AM 37.77222 99.99 0 7 -999.9 0
12/23/2020 8:00:00 AM 37.77222 99.99 0 7 -999.9 0
12/23/2020 8:15:00 AM 37.77222 99.99 0 7 -999.9 0
12/23/2020 8:30:00 AM 37.77222 99.99 0 7 -999.9 0
12/23/2020 8:45:00 AM 37.77222 99.99 0 7 -999.9 0
12/23/2020 9:00:00 AM 37.77222 99.99 0 7 -999.9 0
12/23/2020 9:15:00 AM 37.77222 99.99 0 7 -999.9 0
12/23/2020 9:30:00 AM 37.77222 99.99 0 7 9999.9 0
12/23/2020 9:45:00 AM 37.77222 99.99 0 7 -999.9 0
12/23/2020 10:00:00 AM 37.77222 99.99 0 7 -999.9 0
12/23/2020 10:15:00 AM 37.77222 99.99 0 7 -999.9 0
12/23/2020 10:30:00 AM 37.77222 99.99 0 7 -999.9 0
12/23/2020 10:45:00 AM 37.77222 99.99 0 7 -999.9 0
12/23/2020 11:00:00 AM 37.77222 99.99 0 7 -999.9 0
12/23/2020 11:15:00 AM 37.77222 99.99 0 7 -999.9 0
12/23/2020 11:30:00 AM 37.77222 99.99 0 7 -999.9 0
12/23/2020 11:45:00 AM 37.77222 99.99 0 7 -999.9 0
12/23/2020 12:00:00 PM 37.77222 99.99 0 7 -999.9 0
12/23/2020 12:15:00 PM 37.77222 99.99 0 7 9999.9 0
12/23/2020 12:30:00 PM 37.77222 99.99 0 7 9999.9 0
12/23/2020 12:45:00 PM 37.77222 99.99 0 7 -999.9 0
12/23/2020 1:00:00 PM 37.77222 99.99 0 7 -999.9 0
12/23/2020 1:15:00 PM 37.77222 99.99 0 7 -999.9 0
12/23/2020 1:30:00 PM 37.77222 99.99 0 7 -999.9 0
12/23/2020 1:45:00 PM 37.77222 99.99 0 7 -999.9 0
12/23/2020 2:00:00 PM 37.77222 99.99 0 7 -999.9 0
12/23/2020 2:15:00 PM 37.77222 99.99 0 7 -999.9 0
12/23/2020 2:30:00 PM 37.77222 99.99 0 7 -999.9 0
12/23/2020 2:45:00 PM 37.77222 99.99 0 7 9999.9 0
12/23/2020 3:00:00 PM 37.77222 99.99 0 7 -999.9 0
12/23/2020 3:15:00 PM 37.77222 99.99 0 7 -999.9 0
12/23/2020 3:30:00 PM 37.77222 99.99 0 7 -999.9 0
12/23/2020 3:45:00 PM 37.77222 99.99 0 7 -999.9 0
12/23/2020 4:00:00 PM 37.77222 99.99 0 7 -999.9 0
12/23/2020 4:15:00 PM 37.77222 99.99 0 7 -999.9 0
12/23/2020 4:30:00 PM 37.77222 99.99 0 7 -999.9 0
12/23/2020 4:45:00 PM 37.77222 99.99 0 7 -999.9 0
12/23/2020 5:00:00 PM 37.77222 99.99 0 7 -999.9 0
12/23/2020 5:15:00 PM 37.77222 99.99 0 7 -999.9 0
12/23/2020 5:30:00 PM 37.77222 99.99 0 7 9999.9 0
12/23/2020 5:45:00 PM 37.77222 99.99 0 7 -999.9 0
12/23/2020 6:00:00 PM 37.77222 99.99 0 7 -999.9 0
12/23/2020 6:15:00 PM 37.77222 99.99 0 7 -999.9 0
12/23/2020 6:30:00 PM 37.77222 99.99 0 7 -999.9 0
12/23/2020 6:45:00 PM 37.77222 99.99 0 7 -999.9 0
12/23/2020 7:00:00 PM 37.77222 99.99 0 7 -999.9 0
12/23/2020 7:15:00 PM 37.77222 99.99 0 7 -999.9 0
12/23/2020 7:30:00 PM 37.77222 99.99 0 7 -999.9 0
12/23/2020 7:45:00 PM 37.77222 99.99 0 7 -999.9 0
12/23/2020 8:00:00 PM 37.77222 99.99 0 7 -999.9 0
12/23/2020 8:15:00 PM 37.77222 99.99 0 7 9999.9 0
12/23/2020 8:30:00 PM 37.77222 99.99 0 7 -999.9 0
12/23/2020 8:45:00 PM 37.77222 99.99 0 7 -999.9 0
12/23/2020 9:00:00 PM 37.77222 99.99 0 7 -999.9 0
12/23/2020 9:15:00 PM 37.77222 99.99 0 7 -999.9 0
12/23/2020 9:30:00 PM 37.77222 99.99 0 7 -999.9 0
12/23/2020 9:45:00 PM 37.77222 99.99 0 7 -999.9 0
12/23/2020 10:00:00 PM 37.77222 99.99 0 7 -999.9 0
12/23/2020 10:15:00 PM 37.77222 99.99 0 7 -999.9 0
12/23/2020 10:30:00 PM 37.77222 99.99 0 7 -999.9 0
12/23/2020 10:45:00 PM 37.77222 99.99 0 7 -999.9 0
12/23/2020 11:00:00 PM 37.77222 99.99 0 7 9999.9 0
12/23/2020 11:15:00 PM 37.77222 99.99 0 7 -999.9 0
12/23/2020 11:30:00 PM 37.77222 99.99 0 7 -999.9 0
12/23/2020 11:45:00 PM 37.77222 99.99 0 7 -999.9 0
12/24/2020 12:00:00 AM 37.77222 99.99 0 7 -999.9 0
12/24/2020 12:15:00 AM 37.77222 99.99 0 7 -999.9 0
12/24/2020 12:30:00 AM 37.77222 99.99 0 7 -999.9 0
12/24/2020 12:45:00 AM 37.77222 99.99 0 7 -999.9 0
12/24/2020 1:00:00 AM 37.77222 99.99 0 7 9999.9 0
12/24/2020 1:15:00 AM 37.77222 99.99 0 7 -999.9 0
12/24/2020 1:30:00 AM 37.77222 99.99 0 7 -999.9 0
12/24/2020 1:45:00 AM 37.77222 99.99 0 7 -999.9 0
12/24/2020 2:00:00 AM 37.77222 99.99 0 7 -999.9 0
12/24/2020 2:15:00 AM 37.77222 99.99 0 7 -999.9 0
12/24/2020 2:30:00 AM 37.77222 99.99 0 7 -999.9 0
12/24/2020 2:45:00 AM 37.77222 99.99 0 7 9999.9 0
12/24/2020 3:00:00 AM 37.77222 99.99 0 7 -999.9 0
12/24/2020 3:15:00 AM 37.77222 99.99 0 7 -999.9 0
12/24/2020 3:30:00 AM 37.77222 99.99 0 7 -999.9 0
12/24/2020 3:45:00 AM 37.77222 99.99 0 7 -999.9 0
12/24/2020 4:00:00 AM 37.77222 99.99 0 7 -999.9 0
12/24/2020 4:15:00 AM 37.77222 99.99 0 7 9999.9 0
12/24/2020 4:30:00 AM 37.77222 99.99 0 7 -999.9 0
12/24/2020 4:45:00 AM 37.77222 99.99 0 7 -999.9 0
12/24/2020 5:00:00 AM 37.77222 99.99 0 7 -999.9 0
12/24/2020 5:15:00 AM 37.77222 99.99 0 7 -999.9 0
12/24/2020 5:30:00 AM 37.77222 99.99 0 7 -999.9 0
12/24/2020 5:45:00 AM 37.77222 99.99 0 7 -999.9 0
12/24/2020 6:00:00 AM 37.77222 99.99 0 7 -999.9 0
12/24/2020 6:15:00 AM 37.77222 99.99 0 7 -999.9 0
12/24/2020 6:30:00 AM 37.77222 99.99 0 7 -999.9 0
12/24/2020 6:45:00 AM 37.77222 99.99 0 7 -999.9 0
12/24/2020 7:00:00 AM 37.77222 99.99 0 7 9999.9 0
12/24/2020 7:15:00 AM 37.77222 99.99 0 7 -999.9 0
12/24/2020 7:30:00 AM 37.77222 99.99 0 7 -999.9 0
12/24/2020 7:45:00 AM 37.77222 99.99 0 7 -999.9 0
12/24/2020 8:00:00 AM 37.77222 99.99 0 7 -999.9 0
12/24/2020 8:15:00 AM 37.77222 99.99 0 7 -999.9 0
12/24/2020 8:30:00 AM 37.77222 99.99 0 7 -999.9 0
12/24/2020 8:45:00 AM 37.77222 99.99 0 7 9999.9 0
12/24/2020 9:00:00 AM 37.77222 99.99 0 7 -999.9 0
12/24/2020 9:15:00 AM 37.77222 99.99 0 7 -999.9 0
12/24/2020 9:30:00 AM 37.77222 99.99 0 7 -999.9 0
12/24/2020 9:45:00 AM 37.77222 99.99 0 7 -999.9 0
12/24/2020 10:00:00 AM 37.77222 99.99 0 7 -999.9 0
12/24/2020 10:15:00 AM 37.77222 99.99 0 7 -999.9 0
12/24/2020 10:30:00 AM 37.77222 99.99 0 7 -999.9 0
12/24/2020 10:45:00 AM 37.77222 99.99 0 7 -999.9 0
12/24/2020 11:00:00 AM 37.77222 99.99 0 7 -999.9 0
12/24/2020 11:15:00 AM 37.77222 99.99 0 7 -999.9 0
12/24/2020 11:30:00 AM 37.77222 99.99 0 7 -999.9 0
12/24/2020 11:45:00 AM 37.77222 99.99 0 7 9999.9 0
12/24/2020 12:00:00 PM 37.77222 99.99 0 7 -999.9 0
12/24/2020 12:15:00 PM 37.77222 99.99 0 7 -999.9 0
12/24/2020 12:30:00 PM 37.77222 99.99 0 7 -999.9 0
12/24/2020 12:45:00 PM 37.77222 99.99 0 7 -999.9 0
12/24/2020 1:00:00 PM 37.77222 99.99 0 7 -999.9 0
12/24/2020 1:15:00 PM 37.77222 99.99 0 7 -999.9 0
12/24/2020 1:30:00 PM 37.77222 99.99 0 7 -999.9 0
12/24/2020 1:45:00 PM 37.77222 99.99 0 7 -999.9 0
12/24/2020 2:00:00 PM 37.77222 99.99 0 7 -999.9 0
12/24/2020 2:15:00 PM 37.77222 99.99 0 7 -999.9 0
12/24/2020 2:30:00 PM 37.77222 99.99 0 7 -999.9 0
12/24/2020 2:45:00 PM 37.77222 99.99 0 7 -999.9 0
12/24/2020 3:00:00 PM 37.77222 99.99 0 7 -999.9 0
12/24/2020 3:15:00 PM 37.77222 99.99 0 7 9999.9 0
12/24/2020 3:30:00 PM 37.77222 99.99 0 7 -999.9 0
12/24/2020 3:45:00 PM 37.77222 99.99 0 7 -999.9 0
12/24/2020 4:00:00 PM 37.77222 99.99 0 7 -999.9 0
12/24/2020 4:15:00 PM 37.77222 99.99 0 7 -999.9 0
12/24/2020 4:30:00 PM 37.77222 99.99 0 7 -999.9 0
12/24/2020 4:45:00 PM 37.77222 99.99 0 7 -999.9 0
12/24/2020 5:00:00 PM 37.77222 99.99 0 7 -999.9 0
12/24/2020 5:15:00 PM 37.77222 99.99 0 7 -999.9 0
12/24/2020 5:30:00 PM 37.77222 99.99 0 7 -999.9 0
12/24/2020 5:45:00 PM 37.77222 99.99 0 7 -999.9 0
12/24/2020 6:00:00 PM 37.77222 99.99 0 7 -999.9 0
12/24/2020 6:15:00 PM 37.77222 99.99 0 7 -999.9 0
12/24/2020 6:30:00 PM 37.77222 99.99 0 7 -999.9 0
12/24/2020 6:45:00 PM 37.77222 99.99 0 7 -999.9 0
12/24/2020 7:00:00 PM 37.77222 99.99 0 7 -999.9 0
12/24/2020 7:15:00 PM 37.77222 99.99 0 7 -999.9 0
12/24/2020 7:30:00 PM 37.77222 99.99 0 7 -999.9 0
12/24/2020 7:45:00 PM 37.77222 99.99 0 7 -999.9 0
12/24/2020 8:00:00 PM 37.77222 99.99 0 7 9999.9 0
12/24/2020 8:15:00 PM 37.77222 99.99 0 7 -999.9 0
12/24/2020 8:30:00 PM 37.77222 99.99 0 7 -999.9 0
12/24/2020 8:45:00 PM 37.77222 99.99 0 7 -999.9 0
12/24/2020 9:00:00 PM 37.77222 99.99 0 7 -999.9 0
12/24/2020 9:15:00 PM 37.77222 99.99 0 7 -999.9 0
12/24/2020 9:30:00 PM 37.77222 99.99 0 7 -999.9 0
12/24/2020 9:45:00 PM 37.77222 99.99 0 7 -999.9 0
12/24/2020 10:00:00 PM 37.77222 99.99 0 7 -999.9 0
12/24/2020 10:15:00 PM 37.77222 99.99 0 7 -999.9 0
12/24/2020 10:30:00 PM 37.77222 99.99 0 7 -999.9 0
12/24/2020 10:45:00 PM 37.77222 99.99 0 7 -999.9 0
12/24/2020 11:00:00 PM 37.77222 99.99 0 7 -999.9 0
12/24/2020 11:15:00 PM 37.77222 99.99 0 7 -999.9 0
12/24/2020 11:30:00 PM 37.77222 99.99 0 7 -999.9 0
12/24/2020 11:45:00 PM 37.77222 99.99 0 7 -999.9 0
12/25/2020 12:00:00 AM 37.77222 99.99 0 7 -999.9 0
12/25/2020 12:15:00 AM 37.77222 99.99 0 7 -999.9 0
12/25/2020 12:30:00 AM 37.77222 99.99 0 7 -999.9 0
12/25/2020 12:45:00 AM 37.77222 99.99 0 7 9999.9 0
12/25/2020 1:00:00 AM 37.77222 99.99 0 7 -999.9 0
12/25/2020 1:15:00 AM 37.77222 99.99 0 7 -999.9 0
12/25/2020 1:30:00 AM 37.77222 99.99 0 7 -999.9 0
12/25/2020 1:45:00 AM 37.77222 99.99 0 7 -999.9 0
12/25/2020 2:00:00 AM 37.77222 99.99 0 7 -999.9 0
12/25/2020 2:15:00 AM 37.77222 99.99 0 7 -999.9 0
12/25/2020 2:30:00 AM 37.77222 99.99 0 7 -999.9 0
12/25/2020 2:45:00 AM 37.77222 99.99 0 7 -999.9 0
12/25/2020 3:00:00 AM 37.77222 99.99 0 7 -999.9 0
12/25/2020 3:15:00 AM 37.77222 99.99 0 7 -999.9 0
12/25/2020 3:30:00 AM 37.77222 99.99 0 7 -999.9 0
12/25/2020 3:45:00 AM 37.77222 99.99 0 7 -999.9 0
12/25/2020 4:00:00 AM 37.77222 99.99 0 7 -999.9 0
12/25/2020 4:15:00 AM 37.77222 99.99 0 7 -999.9 0
12/25/2020 4:30:00 AM 37.77222 99.99 0 7 -999.9 0
12/25/2020 4:45:00 AM 37.77222 99.99 0 7 -999.9 0
12/25/2020 5:00:00 AM 37.77222 99.99 0 7 -999.9 0
12/25/2020 5:15:00 AM 37.77222 99.99 0 7 -999.9 0
12/25/2020 5:30:00 AM 37.77222 99.99 0 7 -999.9 0
12/25/2020 5:45:00 AM 37.77222 99.99 0 7 -999.9 0
12/25/2020 6:00:00 AM 37.77222 99.99 0 7 -999.9 0
12/25/2020 6:15:00 AM 37.77222 99.99 0 7 -999.9 0
12/25/2020 6:30:00 AM 37.77222 99.99 0 7 -999.9 0
12/25/2020 6:45:00 AM 37.77222 99.99 0 7 9999.9 0
12/25/2020 7:00:00 AM 29.28333 84.71 0 7.13 -4.3 0
12/25/2020 7:15:00 AM 27.26111 81.07 0 7.07 -4.6 0
12/25/2020 7:30:00 AM 25.06667 77.12 0 7.02 -4.6 0
12/25/2020 7:45:00 AM 23.52778 74.35 53 6.92 -3.5 0
12/25/2020 8:00:00 AM 22.66111 72.79 47 6.84 -5.3 0
12/25/2020 8:15:00 AM 22.52222 72.54 67 6.81 -5.3 0
12/25/2020 8:30:00 AM 22.71111 72.88 72 6.76 -5.3 0
12/25/2020 8:45:00 AM 22.11666 71.81 5 6.73 -5.3 0
12/25/2020 9:00:00 AM 22.01111 71.62 71 6.71 -5.3 0
12/25/2020 9:15:00 AM 21.87222 71.37 5 6.7 -5.3 0
12/25/2020 9:30:00 AM 21.77222 71.19 64 6.69 -5.2 0
12/25/2020 9:45:00 AM 21.22222 70.2 57 6.68 -5.2 0
12/25/2020 10:00:00 AM 21.31667 70.37 56 6.68 -5.2 0
12/25/2020 10:15:00 AM 21.00555 69.81 56 6.68 -5.2 0
12/25/2020 10:30:00 AM 20.96667 69.74 52 6.68 -5.2 0
12/25/2020 10:45:00 AM 21.02778 69.85 46 6.68 -5.2 0
12/25/2020 11:00:00 AM 21.20555 70.17 44 6.68 -5.2 0
12/25/2020 11:15:00 AM 21.08889 69.96 40 6.68 -5.2 0
12/25/2020 11:30:00 AM 21.13334 70.04 36 6.68 -5.2 0
12/25/2020 11:45:00 AM 21.28889 70.32 36 6.68 -5.2 0
12/25/2020 12:00:00 PM 21.21111 70.18 32 6.68 -5.2 0
12/25/2020 12:15:00 PM 21.18333 70.13 29 6.68 -5.2 0
12/25/2020 12:30:00 PM 21.27222 70.29 27 6.68 -5.2 0
12/25/2020 12:45:00 PM 21.36666 70.46 27 6.68 -5.2 0
12/25/2020 1:00:00 PM 21.13889 70.05 27 6.68 -5.2 0
12/25/2020 1:15:00 PM 21.30556 70.35 27 6.68 -5.2 0
12/25/2020 1:30:00 PM 21.23889 70.23 27 6.68 -5.2 0
12/25/2020 1:45:00 PM 21.13889 70.05 27 6.68 -5.2 0
12/25/2020 2:00:00 PM 21.24444 70.24 27 6.68 -5.2 0
12/25/2020 2:15:00 PM 21.26111 70.27 27 6.67 -5.2 0
12/25/2020 2:30:00 PM 21.27222 70.29 27 6.68 -5.2 0
12/25/2020 2:45:00 PM 21.18889 70.14 27 6.68 -5.2 0
12/25/2020 3:00:00 PM 20.43889 68.79 29 6.67 -5.2 0
12/25/2020 3:15:00 PM 20.71667 69.29 28 6.67 -5.2 0
12/25/2020 3:30:00 PM 20.46667 68.84 29 6.67 -5.2 0
12/25/2020 3:45:00 PM 21.16667 70.1 29 6.67 -5.2 0
12/25/2020 4:00:00 PM 20.98333 69.77 30 6.67 -5.2 0
12/25/2020 4:15:00 PM 20.79444 69.43 32 6.67 -5.2 0
12/25/2020 4:30:00 PM 21.16667 70.1 32 6.67 -5.2 0
12/25/2020 4:45:00 PM 20.85556 69.54 33 6.67 -5.2 0
12/25/2020 5:00:00 PM 20.41667 68.75 35 6.66 -5.2 0
12/25/2020 5:15:00 PM 20.4 68.72 36 6.66 -5.1 0
12/25/2020 5:30:00 PM 19.89444 67.81 38 6.66 -5.2 0
12/25/2020 5:45:00 PM 20.23333 68.42 38 6.66 -5.2 0
12/25/2020 6:00:00 PM 20.26111 68.47 39 6.66 -5.2 0
12/25/2020 6:15:00 PM 19.70556 67.47 41 6.66 -5.2 0
12/25/2020 6:30:00 PM 20.13333 68.24 40 6.66 -5.2 0
12/25/2020 6:45:00 PM 19.32778 66.79 42 6.66 -5.1 0
12/25/2020 7:00:00 PM 19.67778 67.42 41 6.66 -5.2 0
12/25/2020 7:15:00 PM 20.04445 68.08 40 6.66 -5.2 0
12/25/2020 7:30:00 PM 20.32778 68.59 39 6.66 -5.2 0
12/25/2020 7:45:00 PM 20.41111 68.74 40 6.66 -5.2 0
12/25/2020 8:00:00 PM 20.11666 68.21 44 6.66 -5.2 0
12/25/2020 8:15:00 PM 19.31111 66.76 55 6.66 -5.1 0
12/25/2020 8:30:00 PM 19.35 66.83 64 6.66 -5.1 0
12/25/2020 8:45:00 PM 19.62222 67.32 68 6.66 -5.2 0
12/25/2020 9:00:00 PM 20.4 68.72 6 6.66 -5.2 0
12/25/2020 9:15:00 PM 20.12222 68.22 27 6.67 -5.2 0
12/25/2020 9:30:00 PM 20.57778 69.04 -1 6.67 -5.1 0
12/25/2020 9:45:00 PM 20.36111 68.65 -1 6.66 -5.2 0
12/25/2020 10:00:00 PM 20.27778 68.5 -1 6.66 -5.2 0
12/25/2020 10:15:00 PM 20.43333 68.78 -1 6.66 -5.2 0
12/25/2020 10:30:00 PM 20.20556 68.37 -1 6.66 -5.2 0
12/25/2020 10:45:00 PM 20.41667 68.75 -1 6.66 -5.2 0
12/25/2020 11:00:00 PM 20.54445 68.98 -1 6.66 -5.2 0
12/25/2020 11:15:00 PM 20.38889 68.7 -1 6.66 -5.2 0
12/25/2020 11:30:00 PM 20.23333 68.42 -1 6.66 -5.2 0
12/25/2020 11:45:00 PM 20.29444 68.53 -1 6.66 -5.2 0
12/26/2020 12:00:00 AM 20.22778 68.41 -1 6.66 -5.1 0
12/26/2020 12:15:00 AM 20.35555 68.64 -1 6.66 -5.2 0
12/26/2020 12:30:00 AM 20.12778 68.23 -1 6.66 -5.2 0
12/26/2020 12:45:00 AM 20.01667 68.03 -1 6.66 -5.2 0
12/26/2020 1:00:00 AM 20.15556 68.28 -1 6.66 -5.2 0
12/26/2020 1:15:00 AM 20.11666 68.21 -1 6.67 -5.2 0
12/26/2020 1:30:00 AM 19.98333 67.97 -1 6.66 -5.2 0
12/26/2020 1:45:00 AM 20.02222 68.04 -1 6.66 -5.2 0
12/26/2020 2:00:00 AM 20.40556 68.73 -1 6.67 -5.2 0
12/26/2020 2:15:00 AM 20.62222 69.12 -1 6.67 -5.2 0
12/26/2020 2:30:00 AM 20.68334 69.23 -1 6.67 -5.2 0
12/26/2020 2:45:00 AM 20.78333 69.41 -1 6.67 -5.2 0
12/26/2020 3:00:00 AM 20.93889 69.69 -1 6.67 -5.2 0
12/26/2020 3:15:00 AM 20.80555 69.45 -1 6.67 -5.2 0
12/26/2020 3:30:00 AM 21.08889 69.96 -1 6.67 -5.2 0
12/26/2020 3:45:00 AM 21.16667 70.1 -1 6.67 -5.2 0
12/26/2020 4:00:00 AM 21.07222 69.93 -1 6.68 -5.2 0
12/26/2020 4:15:00 AM 21.1 69.98 -1 6.67 -5.2 0
12/26/2020 4:30:00 AM 21.10555 69.99 -1 6.68 -5.2 0
12/26/2020 4:45:00 AM 21.07222 69.93 -1 6.68 -5.2 0
12/26/2020 5:00:00 AM 21.01111 69.82 27 6.67 -5.2 0
12/26/2020 5:15:00 AM 20.93333 69.68 82 6.68 -5.2 0
12/26/2020 5:30:00 AM 20.87778 69.58 58 6.67 -5.2 0
12/26/2020 5:45:00 AM 20.7 69.26 46 6.67 -5.2 0
12/26/2020 6:00:00 AM 20.93333 69.68 40 6.65 -5.2 0
12/26/2020 6:15:00 AM 20.78333 69.41 21 6.66 -5.2 0
12/26/2020 6:30:00 AM 25.10556 77.19 5 6.68 -5.1 0
12/26/2020 6:45:00 AM 29.07778 84.34 3 6.69 0.6 0
12/26/2020 7:00:00 AM 37.77222 99.99 0 7 -999.9 0
12/26/2020 7:15:00 AM 37.77222 99.99 0 7 -999.9 0
12/26/2020 7:30:00 AM 37.77222 99.99 0 7 -999.9 0
12/26/2020 7:45:00 AM 37.77222 99.99 0 7 -999.9 0
12/26/2020 8:00:00 AM 37.77222 99.99 0 7 -999.9 0
12/26/2020 8:15:00 AM 37.77222 99.99 0 7 -999.9 0
12/26/2020 8:30:00 AM 37.77222 99.99 0 7 -999.9 0
12/26/2020 8:45:00 AM 37.77222 99.99 0 7 -999.9 0
12/26/2020 9:00:00 AM 37.77222 99.99 0 7 9999.9 0
12/26/2020 9:15:00 AM 37.77222 99.99 0 7 -999.9 0
12/26/2020 9:30:00 AM 37.77222 99.99 0 7 -999.9 0
12/26/2020 9:45:00 AM 37.77222 99.99 0 7 -999.9 0
12/26/2020 10:00:00 AM 37.77222 99.99 0 7 -999.9 0
12/26/2020 10:15:00 AM 37.77222 99.99 0 7 -999.9 0
12/26/2020 10:30:00 AM 37.77222 99.99 0 7 -999.9 0
12/26/2020 10:45:00 AM 37.77222 99.99 0 7 -999.9 0
12/26/2020 11:00:00 AM 37.77222 99.99 0 7 -999.9 0
12/26/2020 11:15:00 AM 37.77222 99.99 0 7 -999.9 0
12/26/2020 11:30:00 AM 37.77222 99.99 0 7 -999.9 0
12/26/2020 11:45:00 AM 37.77222 99.99 0 7 -999.9 0
12/26/2020 12:00:00 PM 37.77222 99.99 0 7 -999.9 0
12/26/2020 12:15:00 PM 37.77222 99.99 0 7 -999.9 0
12/26/2020 12:30:00 PM 37.77222 99.99 0 7 -999.9 0
12/26/2020 12:45:00 PM 37.77222 99.99 0 7 -999.9 0
12/26/2020 1:00:00 PM 37.77222 99.99 0 7 -999.9 0
12/26/2020 1:15:00 PM 37.77222 99.99 0 7 -999.9 0
12/26/2020 1:30:00 PM 37.77222 99.99 0 7 -999.9 0
12/26/2020 1:45:00 PM 37.77222 99.99 0 7 -999.9 0
12/26/2020 2:00:00 PM 37.77222 99.99 0 7 -999.9 0
12/26/2020 2:15:00 PM 37.77222 99.99 0 7 -999.9 0
12/26/2020 2:30:00 PM 37.77222 99.99 0 7 -999.9 0
12/26/2020 2:45:00 PM 37.77222 99.99 0 7 -999.9 0
12/26/2020 3:00:00 PM 37.77222 99.99 0 7 9999.9 0
12/26/2020 3:15:00 PM 37.77222 99.99 0 7 -999.9 0
12/26/2020 3:30:00 PM 37.77222 99.99 0 7 -999.9 0
12/26/2020 3:45:00 PM 37.77222 99.99 0 7 -999.9 0
12/26/2020 4:00:00 PM 37.77222 99.99 0 7 -999.9 0
12/26/2020 4:15:00 PM 37.77222 99.99 0 7 -999.9 0
12/26/2020 4:30:00 PM 37.77222 99.99 0 7 9999.9 0
12/26/2020 4:45:00 PM 37.77222 99.99 0 7 -999.9 0
12/26/2020 5:00:00 PM 37.77222 99.99 0 7 -999.9 0
12/26/2020 5:15:00 PM 37.77222 99.99 0 7 -999.9 0
12/26/2020 5:30:00 PM 37.77222 99.99 0 7 -999.9 0
12/26/2020 5:45:00 PM 37.77222 99.99 0 7 -999.9 0
12/26/2020 6:00:00 PM 37.77222 99.99 0 7 -999.9 0
12/26/2020 6:15:00 PM 37.77222 99.99 0 7 -999.9 0
12/26/2020 6:30:00 PM 37.77222 99.99 0 7 -999.9 0
12/26/2020 6:45:00 PM 37.77222 99.99 0 7 -999.9 0
12/26/2020 7:00:00 PM 37.77222 99.99 0 7 -999.9 0
12/26/2020 7:15:00 PM 37.77222 99.99 0 7 -999.9 0
12/26/2020 7:30:00 PM 37.77222 99.99 0 7 -999.9 0
12/26/2020 7:45:00 PM 37.77222 99.99 0 7 -999.9 0
12/26/2020 8:00:00 PM 37.77222 99.99 0 7 -999.9 0
12/26/2020 8:15:00 PM 37.77222 99.99 0 7 -999.9 0
12/26/2020 8:30:00 PM 37.77222 99.99 0 7 -999.9 0
12/26/2020 8:45:00 PM 37.77222 99.99 0 7 -999.9 0
12/26/2020 9:00:00 PM 37.77222 99.99 0 7 -999.9 0
12/26/2020 9:15:00 PM 37.77222 99.99 0 7 -999.9 0
12/26/2020 9:30:00 PM 37.77222 99.99 0 7 -999.9 0
12/26/2020 9:45:00 PM 37.77222 99.99 0 7 -999.9 0
12/26/2020 10:00:00 PM 37.77222 99.99 0 7 -999.9 0
12/26/2020 10:15:00 PM 37.77222 99.99 0 7 -999.9 0
12/26/2020 10:30:00 PM 37.77222 99.99 0 7 -999.9 0
12/26/2020 10:45:00 PM 37.77222 99.99 0 7 -999.9 0
12/26/2020 11:00:00 PM 37.77222 99.99 0 7 -999.9 0
12/26/2020 11:15:00 PM 37.77222 99.99 0 7 -999.9 0
12/26/2020 11:30:00 PM 37.77222 99.99 0 7 -999.9 0
12/26/2020 11:45:00 PM 37.77222 99.99 0 7 -999.9 0
12/27/2020 12:00:00 AM 37.77222 99.99 0 7 9999.9 0
12/27/2020 12:15:00 AM 37.77222 99.99 0 7 -999.9 0
12/27/2020 12:30:00 AM 37.77222 99.99 0 7 -999.9 0
12/27/2020 12:45:00 AM 37.77222 99.99 0 7 -999.9 0
12/27/2020 1:00:00 AM 37.77222 99.99 0 7 -999.9 0
12/27/2020 1:15:00 AM 37.77222 99.99 0 7 -999.9 0
12/27/2020 1:30:00 AM 37.77222 99.99 0 7 -999.9 0
12/27/2020 1:45:00 AM 37.77222 99.99 0 7 -999.9 0
12/27/2020 2:00:00 AM 37.77222 99.99 0 7 -999.9 0
12/27/2020 2:15:00 AM 37.77222 99.99 0 7 -999.9 0
12/27/2020 2:30:00 AM 37.77222 99.99 0 7 -999.9 0
12/27/2020 2:45:00 AM 37.77222 99.99 0 7 -999.9 0
12/27/2020 3:00:00 AM 37.77222 99.99 0 7 -999.9 0
12/27/2020 3:15:00 AM 37.77222 99.99 0 7 -999.9 0
12/27/2020 3:30:00 AM 37.77222 99.99 0 7 -999.9 0
12/27/2020 3:45:00 AM 37.77222 99.99 0 7 -999.9 0
12/27/2020 4:00:00 AM 37.77222 99.99 0 7 -999.9 0
12/27/2020 4:15:00 AM 37.77222 99.99 0 7 -999.9 0
12/27/2020 4:30:00 AM 37.77222 99.99 0 7 -999.9 0
12/27/2020 4:45:00 AM 37.77222 99.99 0 7 -999.9 0
12/27/2020 5:00:00 AM 37.77222 99.99 0 7 -999.9 0
12/27/2020 5:15:00 AM 37.77222 99.99 0 7 -999.9 0
12/27/2020 5:30:00 AM 37.77222 99.99 0 7 -999.9 0
12/27/2020 5:45:00 AM 37.77222 99.99 0 7 -999.9 0
12/27/2020 6:00:00 AM 37.77222 99.99 0 7 -999.9 0
12/27/2020 6:15:00 AM 37.77222 99.99 0 7 -999.9 0
12/27/2020 6:30:00 AM 37.77222 99.99 0 7 -999.9 0
12/27/2020 6:45:00 AM 37.77222 99.99 0 7 -999.9 0
12/27/2020 7:00:00 AM 37.77222 99.99 0 7 -999.9 0
12/27/2020 7:15:00 AM 37.77222 99.99 0 7 -999.9 0
12/27/2020 7:30:00 AM 37.77222 99.99 0 7 -999.9 0
12/27/2020 7:45:00 AM 37.77222 99.99 0 7 -999.9 0
12/27/2020 8:00:00 AM 37.77222 99.99 0 7 -999.9 0
12/27/2020 8:15:00 AM 37.77222 99.99 0 7 -999.9 0
12/27/2020 8:30:00 AM 37.77222 99.99 0 7 -999.9 0
12/27/2020 8:45:00 AM 37.77222 99.99 0 7 -999.9 0
12/27/2020 9:00:00 AM 37.77222 99.99 0 7 -999.9 0
12/27/2020 9:15:00 AM 37.77222 99.99 0 7 -999.9 0
12/27/2020 9:30:00 AM 37.77222 99.99 0 7 -999.9 0
12/27/2020 9:45:00 AM 37.77222 99.99 0 7 9999.9 0
12/27/2020 10:00:00 AM 37.77222 99.99 0 7 -999.9 0
12/27/2020 10:15:00 AM 37.77222 99.99 0 7 -999.9 0
12/27/2020 10:30:00 AM 37.77222 99.99 0 7 -999.9 0
12/27/2020 10:45:00 AM 37.77222 99.99 0 7 -999.9 0
12/27/2020 11:00:00 AM 37.77222 99.99 0 7 9999.9 0
12/27/2020 11:15:00 AM 37.77222 99.99 0 7 -999.9 0
12/27/2020 11:30:00 AM 37.77222 99.99 0 7 -999.9 0
12/27/2020 11:45:00 AM 37.77222 99.99 0 7 -999.9 0
12/27/2020 12:00:00 PM 37.77222 99.99 0 7 -999.9 0
12/27/2020 12:15:00 PM 37.77222 99.99 0 7 -999.9 0
12/27/2020 12:30:00 PM 37.77222 99.99 0 7 -999.9 0
12/27/2020 12:45:00 PM 37.77222 99.99 0 7 -999.9 0
12/27/2020 1:00:00 PM 37.77222 99.99 0 7 9999.9 0
12/27/2020 1:15:00 PM 37.77222 99.99 0 7 -999.9 0
12/27/2020 1:30:00 PM 37.77222 99.99 0 7 -999.9 0
12/27/2020 1:45:00 PM 37.77222 99.99 0 7 -999.9 0
12/27/2020 2:00:00 PM 37.77222 99.99 0 7 -999.9 0
12/27/2020 2:15:00 PM 37.77222 99.99 0 7 -999.9 0
12/27/2020 2:30:00 PM 37.77222 99.99 0 7 -999.9 0
12/27/2020 2:45:00 PM 37.77222 99.99 0 7 -999.9 0
12/27/2020 3:00:00 PM 37.77222 99.99 0 7 -999.9 0
12/27/2020 3:15:00 PM 37.77222 99.99 0 7 -999.9 0
12/27/2020 3:30:00 PM 37.77222 99.99 0 7 -999.9 0
12/27/2020 3:45:00 PM 37.77222 99.99 0 7 -999.9 0
12/27/2020 4:00:00 PM 37.77222 99.99 0 7 -999.9 0
12/27/2020 4:15:00 PM 37.77222 99.99 0 7 9999.9 0
12/27/2020 4:30:00 PM 37.77222 99.99 0 7 -999.9 0
12/27/2020 4:45:00 PM 37.77222 99.99 0 7 -999.9 0
12/27/2020 5:00:00 PM 37.77222 99.99 0 7 -999.9 0
12/27/2020 5:15:00 PM 37.77222 99.99 0 7 -999.9 0
12/27/2020 5:30:00 PM 37.77222 99.99 0 7 -999.9 0
12/27/2020 5:45:00 PM 37.77222 99.99 0 7 -999.9 0
12/27/2020 6:00:00 PM 37.77222 99.99 0 7 -999.9 0
12/27/2020 6:15:00 PM 37.77222 99.99 0 7 -999.9 0
12/27/2020 6:30:00 PM 37.77222 99.99 0 7 -999.9 0
12/27/2020 6:45:00 PM 37.77222 99.99 0 7 -999.9 0
12/27/2020 7:00:00 PM 37.77222 99.99 0 7 -999.9 0
12/27/2020 7:15:00 PM 37.77222 99.99 0 7 -999.9 0
12/27/2020 7:30:00 PM 37.77222 99.99 0 7 -999.9 0
12/27/2020 7:45:00 PM 37.77222 99.99 0 7 -999.9 0
12/27/2020 8:00:00 PM 37.77222 99.99 0 7 -999.9 0
12/27/2020 8:15:00 PM 37.77222 99.99 0 7 -999.9 0
12/27/2020 8:30:00 PM 37.77222 99.99 0 7 -999.9 0
12/27/2020 8:45:00 PM 37.77222 99.99 0 7 -999.9 0
12/27/2020 9:00:00 PM 37.77222 99.99 0 7 -999.9 0
12/27/2020 9:15:00 PM 37.77222 99.99 0 7 -999.9 0
12/27/2020 9:30:00 PM 37.77222 99.99 0 7 -999.9 0
12/27/2020 9:45:00 PM 37.77222 99.99 0 7 -999.9 0
12/27/2020 10:00:00 PM 37.77222 99.99 0 7 -999.9 0
12/27/2020 10:15:00 PM 37.77222 99.99 0 7 -999.9 0
12/27/2020 10:30:00 PM 37.77222 99.99 0 7 -999.9 0
12/27/2020 10:45:00 PM 37.77222 99.99 0 7 -999.9 0
12/27/2020 11:00:00 PM 37.77222 99.99 0 7 -999.9 0
12/27/2020 11:15:00 PM 37.77222 99.99 0 7 -999.9 0
12/27/2020 11:30:00 PM 37.77222 99.99 0 7 -999.9 0
12/27/2020 11:45:00 PM 37.77222 99.99 0 7 -999.9 0
12/28/2020 12:00:00 AM 37.77222 99.99 0 7 -999.9 0
12/28/2020 12:15:00 AM 37.77222 99.99 0 7 -999.9 0
12/28/2020 12:30:00 AM 37.77222 99.99 0 7 -999.9 0
12/28/2020 12:45:00 AM 37.77222 99.99 0 7 -999.9 0
12/28/2020 1:00:00 AM 37.77222 99.99 0 7 -999.9 0
12/28/2020 1:15:00 AM 37.77222 99.99 0 7 -999.9 0
12/28/2020 1:30:00 AM 37.77222 99.99 0 7 -999.9 0
12/28/2020 1:45:00 AM 37.77222 99.99 0 7 -999.9 0
12/28/2020 2:00:00 AM 37.77222 99.99 0 7 -999.9 0
12/28/2020 2:15:00 AM 37.77222 99.99 0 7 -999.9 0
12/28/2020 2:30:00 AM 37.77222 99.99 0 7 -999.9 0
12/28/2020 2:45:00 AM 37.77222 99.99 0 7 -999.9 0
12/28/2020 3:00:00 AM 37.77222 99.99 0 7 -999.9 0
12/28/2020 3:15:00 AM 37.77222 99.99 0 7 -999.9 0
12/28/2020 3:30:00 AM 37.77222 99.99 0 7 -999.9 0
12/28/2020 3:45:00 AM 37.77222 99.99 0 7 -999.9 0
12/28/2020 4:00:00 AM 37.77222 99.99 0 7 -999.9 0
12/28/2020 4:15:00 AM 37.77222 99.99 0 7 -999.9 0
12/28/2020 4:30:00 AM 37.77222 99.99 0 7 -999.9 0
12/28/2020 4:45:00 AM 37.77222 99.99 0 7 -999.9 0
12/28/2020 5:00:00 AM 37.77222 99.99 0 7 -999.9 0
12/28/2020 5:15:00 AM 37.77222 99.99 0 7 -999.9 0
12/28/2020 5:30:00 AM 37.77222 99.99 0 7 -999.9 0
12/28/2020 5:45:00 AM 37.77222 99.99 0 7 -999.9 0
12/28/2020 6:00:00 AM 37.77222 99.99 0 7 -999.9 0
12/28/2020 6:15:00 AM 37.77222 99.99 0 7 -999.9 0
12/28/2020 6:30:00 AM 37.77222 99.99 0 7 -999.9 0
12/28/2020 6:45:00 AM 37.77222 99.99 0 7 -999.9 0
12/28/2020 7:00:00 AM 37.77222 99.99 0 7 -999.9 0
12/28/2020 7:15:00 AM 37.77222 99.99 0 7 -999.9 0
12/28/2020 7:30:00 AM 37.77222 99.99 0 7 -999.9 0
12/28/2020 7:45:00 AM 37.77222 99.99 0 7 -999.9 0
12/28/2020 8:00:00 AM 37.77222 99.99 0 7 -999.9 0
12/28/2020 8:15:00 AM 37.77222 99.99 0 7 -999.9 0
12/28/2020 8:30:00 AM 37.77222 99.99 0 7 -999.9 0
12/28/2020 8:45:00 AM 37.77222 99.99 0 7 -999.9 0
12/28/2020 9:00:00 AM 37.77222 99.99 0 7 -999.9 0
12/28/2020 9:15:00 AM 37.77222 99.99 0 7 9999.9 0
12/28/2020 9:30:00 AM 37.77222 99.99 0 7 -999.9 0
12/28/2020 9:45:00 AM 37.77222 99.99 0 7 -999.9 0
12/28/2020 10:00:00 AM 37.77222 99.99 0 7 -999.9 0
12/28/2020 10:15:00 AM 37.77222 99.99 0 7 -999.9 0
12/28/2020 10:30:00 AM 37.77222 99.99 0 7 -999.9 0
12/28/2020 10:45:00 AM 37.77222 99.99 0 7 -999.9 0
12/28/2020 11:00:00 AM 37.77222 99.99 0 7 9999.9 0
12/28/2020 11:15:00 AM 37.77222 99.99 0 7 -999.9 0
12/28/2020 11:30:00 AM 37.77222 99.99 0 7 -999.9 0
12/28/2020 11:45:00 AM 37.77222 99.99 0 7 -999.9 0
12/28/2020 12:00:00 PM 37.77222 99.99 0 7 -999.9 0
12/28/2020 12:15:00 PM 37.77222 99.99 0 7 -999.9 0
12/28/2020 12:30:00 PM 37.77222 99.99 0 7 -999.9 0
12/28/2020 12:45:00 PM 37.77222 99.99 0 7 -999.9 0
12/28/2020 1:00:00 PM 37.77222 99.99 0 7 -999.9 0
12/28/2020 1:15:00 PM 37.77222 99.99 0 7 -999.9 0
12/28/2020 1:30:00 PM 37.77222 99.99 0 7 -999.9 0
12/28/2020 1:45:00 PM 37.77222 99.99 0 7 -999.9 0
12/28/2020 2:00:00 PM 37.77222 99.99 0 7 -999.9 0
12/28/2020 2:15:00 PM 37.77222 99.99 0 7 -999.9 0
12/28/2020 2:30:00 PM 37.77222 99.99 0 7 -999.9 0
12/28/2020 2:45:00 PM 37.77222 99.99 0 7 -999.9 0
12/28/2020 3:00:00 PM 37.77222 99.99 0 7 -999.9 0
12/28/2020 3:15:00 PM 37.77222 99.99 0 7 -999.9 0
12/28/2020 3:30:00 PM 37.77222 99.99 0 7 -999.9 0
12/28/2020 3:45:00 PM 37.77222 99.99 0 7 -999.9 0
12/28/2020 4:00:00 PM 37.77222 99.99 0 7 -999.9 0
12/28/2020 4:15:00 PM 37.77222